<?xml version="1.0" encoding="UTF-8" standalone="no" ?>
<gpx xmlns="http://www.topografix.com/GPX/1/1" xmlns:xsi="http://www.w3.org/2001/XMLSchema-instance" xsi:schemaLocation="http://www.topografix.com/GPX/1/1 http://www.topografix.com/GPX/1/1/gpx.xsd" version="1.1" creator="VisuGPX - https://www.visugpx.com">
  <metadata>
    <name>Boucle autour de la Foret de Marly</name>
    <desc><![CDATA[Randonnée de 17 km en boucle à partir de la gare de Saint-Nom-la-Bretèche]]></desc>
  </metadata>
  <trk>
    <name><![CDATA[Boucle autour de la Foret de Marly_R2]]></name>
    <trkseg>
      <trkpt lat="48.86763" lon="2.05054">
        <ele>87.03</ele>
        <time>2022-09-25T06:59:24Z</time>
      </trkpt>
      <trkpt lat="48.86763" lon="2.05054">
        <ele>87.03</ele>
        <time>2022-09-25T06:59:25Z</time>
      </trkpt>
      <trkpt lat="48.86763" lon="2.05054">
        <ele>93.13</ele>
        <time>2022-09-25T06:59:28Z</time>
      </trkpt>
      <trkpt lat="48.86763" lon="2.05054">
        <ele>93.13</ele>
        <time>2022-09-25T06:59:29Z</time>
      </trkpt>
      <trkpt lat="48.86765" lon="2.05067">
        <ele>93.13</ele>
        <time>2022-09-25T06:59:31Z</time>
      </trkpt>
      <trkpt lat="48.86768" lon="2.05076">
        <ele>93.2</ele>
        <time>2022-09-25T06:59:37Z</time>
      </trkpt>
      <trkpt lat="48.8677" lon="2.05081">
        <ele>93.67</ele>
        <time>2022-09-25T06:59:53Z</time>
      </trkpt>
      <trkpt lat="48.86774" lon="2.0509">
        <ele>93.25</ele>
        <time>2022-09-25T07:00:11Z</time>
      </trkpt>
      <trkpt lat="48.86781" lon="2.05096">
        <ele>93.65</ele>
        <time>2022-09-25T07:00:31Z</time>
      </trkpt>
      <trkpt lat="48.86781" lon="2.05097">
        <ele>94.34</ele>
        <time>2022-09-25T07:00:50Z</time>
      </trkpt>
      <trkpt lat="48.86778" lon="2.05099">
        <ele>94.36</ele>
        <time>2022-09-25T07:01:13Z</time>
      </trkpt>
      <trkpt lat="48.86778" lon="2.051">
        <ele>95.16</ele>
        <time>2022-09-25T07:01:33Z</time>
      </trkpt>
      <trkpt lat="48.8678" lon="2.05098">
        <ele>94.98</ele>
        <time>2022-09-25T07:01:53Z</time>
      </trkpt>
      <trkpt lat="48.86782" lon="2.05097">
        <ele>95.39</ele>
        <time>2022-09-25T07:02:10Z</time>
      </trkpt>
      <trkpt lat="48.86783" lon="2.05096">
        <ele>95.35</ele>
        <time>2022-09-25T07:02:23Z</time>
      </trkpt>
      <trkpt lat="48.86782" lon="2.05097">
        <ele>96.03</ele>
        <time>2022-09-25T07:02:44Z</time>
      </trkpt>
      <trkpt lat="48.86783" lon="2.05094">
        <ele>96.3</ele>
        <time>2022-09-25T07:03:03Z</time>
      </trkpt>
      <trkpt lat="48.86783" lon="2.05092">
        <ele>96.69</ele>
        <time>2022-09-25T07:03:26Z</time>
      </trkpt>
      <trkpt lat="48.86783" lon="2.05096">
        <ele>96.8</ele>
        <time>2022-09-25T07:03:52Z</time>
      </trkpt>
      <trkpt lat="48.8678" lon="2.05101">
        <ele>97.55</ele>
        <time>2022-09-25T07:04:16Z</time>
      </trkpt>
      <trkpt lat="48.86782" lon="2.051">
        <ele>97.63</ele>
        <time>2022-09-25T07:04:38Z</time>
      </trkpt>
      <trkpt lat="48.86781" lon="2.05098">
        <ele>97.63</ele>
        <time>2022-09-25T07:04:58Z</time>
      </trkpt>
      <trkpt lat="48.8678" lon="2.05095">
        <ele>98.16</ele>
        <time>2022-09-25T07:05:17Z</time>
      </trkpt>
      <trkpt lat="48.8678" lon="2.05094">
        <ele>97.9</ele>
        <time>2022-09-25T07:05:37Z</time>
      </trkpt>
      <trkpt lat="48.86781" lon="2.05094">
        <ele>97.47</ele>
        <time>2022-09-25T07:05:53Z</time>
      </trkpt>
      <trkpt lat="48.86779" lon="2.05094">
        <ele>98.62</ele>
        <time>2022-09-25T07:06:13Z</time>
      </trkpt>
      <trkpt lat="48.8678" lon="2.05095">
        <ele>98.81</ele>
        <time>2022-09-25T07:06:33Z</time>
      </trkpt>
      <trkpt lat="48.8678" lon="2.05095">
        <ele>98.47</ele>
        <time>2022-09-25T07:06:56Z</time>
      </trkpt>
      <trkpt lat="48.86778" lon="2.05097">
        <ele>98.79</ele>
        <time>2022-09-25T07:07:17Z</time>
      </trkpt>
      <trkpt lat="48.86779" lon="2.05095">
        <ele>98.44</ele>
        <time>2022-09-25T07:07:35Z</time>
      </trkpt>
      <trkpt lat="48.86781" lon="2.05096">
        <ele>98.71</ele>
        <time>2022-09-25T07:07:54Z</time>
      </trkpt>
      <trkpt lat="48.86783" lon="2.05096">
        <ele>99.13</ele>
        <time>2022-09-25T07:08:11Z</time>
      </trkpt>
      <trkpt lat="48.86784" lon="2.051">
        <ele>99.44</ele>
        <time>2022-09-25T07:08:32Z</time>
      </trkpt>
      <trkpt lat="48.86783" lon="2.051">
        <ele>99.8</ele>
        <time>2022-09-25T07:08:51Z</time>
      </trkpt>
      <trkpt lat="48.86784" lon="2.051">
        <ele>99.59</ele>
        <time>2022-09-25T07:09:09Z</time>
      </trkpt>
      <trkpt lat="48.86783" lon="2.05096">
        <ele>100.45</ele>
        <time>2022-09-25T07:09:32Z</time>
      </trkpt>
      <trkpt lat="48.86785" lon="2.05097">
        <ele>100.35</ele>
        <time>2022-09-25T07:09:54Z</time>
      </trkpt>
      <trkpt lat="48.86784" lon="2.05098">
        <ele>101.21</ele>
        <time>2022-09-25T07:10:15Z</time>
      </trkpt>
      <trkpt lat="48.86783" lon="2.05098">
        <ele>101</ele>
        <time>2022-09-25T07:10:40Z</time>
      </trkpt>
      <trkpt lat="48.86781" lon="2.05098">
        <ele>100.91</ele>
        <time>2022-09-25T07:11:00Z</time>
      </trkpt>
      <trkpt lat="48.86781" lon="2.05097">
        <ele>101.37</ele>
        <time>2022-09-25T07:11:26Z</time>
      </trkpt>
      <trkpt lat="48.8678" lon="2.05099">
        <ele>101.72</ele>
        <time>2022-09-25T07:11:48Z</time>
      </trkpt>
      <trkpt lat="48.86781" lon="2.05099">
        <ele>102.34</ele>
        <time>2022-09-25T07:12:06Z</time>
      </trkpt>
      <trkpt lat="48.86782" lon="2.05097">
        <ele>101.99</ele>
        <time>2022-09-25T07:12:30Z</time>
      </trkpt>
      <trkpt lat="48.86784" lon="2.05095">
        <ele>102.61</ele>
        <time>2022-09-25T07:12:52Z</time>
      </trkpt>
      <trkpt lat="48.86782" lon="2.05098">
        <ele>102.62</ele>
        <time>2022-09-25T07:13:13Z</time>
      </trkpt>
      <trkpt lat="48.86782" lon="2.05099">
        <ele>102.69</ele>
        <time>2022-09-25T07:13:32Z</time>
      </trkpt>
      <trkpt lat="48.86781" lon="2.05097">
        <ele>102.87</ele>
        <time>2022-09-25T07:13:56Z</time>
      </trkpt>
      <trkpt lat="48.86781" lon="2.05097">
        <ele>103.43</ele>
        <time>2022-09-25T07:14:18Z</time>
      </trkpt>
      <trkpt lat="48.86781" lon="2.05097">
        <ele>103.88</ele>
        <time>2022-09-25T07:14:37Z</time>
      </trkpt>
      <trkpt lat="48.8678" lon="2.05098">
        <ele>103.72</ele>
        <time>2022-09-25T07:15:03Z</time>
      </trkpt>
      <trkpt lat="48.8678" lon="2.05098">
        <ele>104.19</ele>
        <time>2022-09-25T07:15:23Z</time>
      </trkpt>
      <trkpt lat="48.86781" lon="2.05098">
        <ele>104.27</ele>
        <time>2022-09-25T07:15:42Z</time>
      </trkpt>
      <trkpt lat="48.86783" lon="2.05099">
        <ele>103.97</ele>
        <time>2022-09-25T07:16:02Z</time>
      </trkpt>
      <trkpt lat="48.86782" lon="2.05097">
        <ele>104.92</ele>
        <time>2022-09-25T07:16:20Z</time>
      </trkpt>
      <trkpt lat="48.86782" lon="2.05095">
        <ele>104.79</ele>
        <time>2022-09-25T07:16:28Z</time>
      </trkpt>
      <trkpt lat="48.86783" lon="2.05093">
        <ele>105.04</ele>
        <time>2022-09-25T07:16:45Z</time>
      </trkpt>
      <trkpt lat="48.86783" lon="2.05094">
        <ele>105.26</ele>
        <time>2022-09-25T07:17:03Z</time>
      </trkpt>
      <trkpt lat="48.86783" lon="2.05092">
        <ele>104.98</ele>
        <time>2022-09-25T07:17:22Z</time>
      </trkpt>
      <trkpt lat="48.8678" lon="2.05092">
        <ele>105.63</ele>
        <time>2022-09-25T07:17:42Z</time>
      </trkpt>
      <trkpt lat="48.86779" lon="2.05093">
        <ele>105.78</ele>
        <time>2022-09-25T07:17:58Z</time>
      </trkpt>
      <trkpt lat="48.86778" lon="2.05094">
        <ele>106.59</ele>
        <time>2022-09-25T07:18:20Z</time>
      </trkpt>
      <trkpt lat="48.86779" lon="2.05096">
        <ele>106.03</ele>
        <time>2022-09-25T07:18:39Z</time>
      </trkpt>
      <trkpt lat="48.8678" lon="2.05096">
        <ele>106.88</ele>
        <time>2022-09-25T07:18:57Z</time>
      </trkpt>
      <trkpt lat="48.86779" lon="2.05095">
        <ele>106.59</ele>
        <time>2022-09-25T07:19:22Z</time>
      </trkpt>
      <trkpt lat="48.8678" lon="2.05096">
        <ele>106.93</ele>
        <time>2022-09-25T07:19:44Z</time>
      </trkpt>
      <trkpt lat="48.86778" lon="2.05098">
        <ele>107.27</ele>
        <time>2022-09-25T07:20:04Z</time>
      </trkpt>
      <trkpt lat="48.86778" lon="2.05099">
        <ele>107.58</ele>
        <time>2022-09-25T07:20:23Z</time>
      </trkpt>
      <trkpt lat="48.86779" lon="2.051">
        <ele>108.08</ele>
        <time>2022-09-25T07:20:41Z</time>
      </trkpt>
      <trkpt lat="48.86779" lon="2.05096">
        <ele>108.52</ele>
        <time>2022-09-25T07:20:59Z</time>
      </trkpt>
      <trkpt lat="48.8678" lon="2.05094">
        <ele>108.51</ele>
        <time>2022-09-25T07:21:17Z</time>
      </trkpt>
      <trkpt lat="48.8678" lon="2.05092">
        <ele>108.61</ele>
        <time>2022-09-25T07:21:37Z</time>
      </trkpt>
      <trkpt lat="48.86779" lon="2.05092">
        <ele>109.26</ele>
        <time>2022-09-25T07:21:58Z</time>
      </trkpt>
      <trkpt lat="48.86777" lon="2.05092">
        <ele>109.37</ele>
        <time>2022-09-25T07:22:15Z</time>
      </trkpt>
      <trkpt lat="48.86774" lon="2.0509">
        <ele>109.65</ele>
        <time>2022-09-25T07:22:33Z</time>
      </trkpt>
      <trkpt lat="48.86776" lon="2.0509">
        <ele>109.77</ele>
        <time>2022-09-25T07:22:52Z</time>
      </trkpt>
      <trkpt lat="48.86779" lon="2.05094">
        <ele>109.81</ele>
        <time>2022-09-25T07:23:12Z</time>
      </trkpt>
      <trkpt lat="48.86779" lon="2.051">
        <ele>110.16</ele>
        <time>2022-09-25T07:23:31Z</time>
      </trkpt>
      <trkpt lat="48.86778" lon="2.05102">
        <ele>110.64</ele>
        <time>2022-09-25T07:23:49Z</time>
      </trkpt>
      <trkpt lat="48.86778" lon="2.05101">
        <ele>111.3</ele>
        <time>2022-09-25T07:24:06Z</time>
      </trkpt>
      <trkpt lat="48.86779" lon="2.05098">
        <ele>111.19</ele>
        <time>2022-09-25T07:24:25Z</time>
      </trkpt>
      <trkpt lat="48.86776" lon="2.051">
        <ele>111.82</ele>
        <time>2022-09-25T07:24:42Z</time>
      </trkpt>
      <trkpt lat="48.86779" lon="2.05102">
        <ele>112.03</ele>
        <time>2022-09-25T07:25:00Z</time>
      </trkpt>
      <trkpt lat="48.8678" lon="2.05102">
        <ele>111.93</ele>
        <time>2022-09-25T07:25:21Z</time>
      </trkpt>
      <trkpt lat="48.86779" lon="2.05099">
        <ele>112</ele>
        <time>2022-09-25T07:25:37Z</time>
      </trkpt>
      <trkpt lat="48.8678" lon="2.051">
        <ele>112.23</ele>
        <time>2022-09-25T07:25:54Z</time>
      </trkpt>
      <trkpt lat="48.8678" lon="2.05103">
        <ele>112.64</ele>
        <time>2022-09-25T07:26:10Z</time>
      </trkpt>
      <trkpt lat="48.8678" lon="2.05105">
        <ele>112.86</ele>
        <time>2022-09-25T07:26:26Z</time>
      </trkpt>
      <trkpt lat="48.8678" lon="2.05104">
        <ele>113.15</ele>
        <time>2022-09-25T07:26:43Z</time>
      </trkpt>
      <trkpt lat="48.86783" lon="2.05104">
        <ele>113.29</ele>
        <time>2022-09-25T07:26:59Z</time>
      </trkpt>
      <trkpt lat="48.86782" lon="2.05104">
        <ele>113.83</ele>
        <time>2022-09-25T07:27:21Z</time>
      </trkpt>
      <trkpt lat="48.86784" lon="2.05105">
        <ele>113.7</ele>
        <time>2022-09-25T07:27:43Z</time>
      </trkpt>
      <trkpt lat="48.86784" lon="2.05098">
        <ele>113.96</ele>
        <time>2022-09-25T07:28:06Z</time>
      </trkpt>
      <trkpt lat="48.86781" lon="2.05094">
        <ele>114.29</ele>
        <time>2022-09-25T07:28:19Z</time>
      </trkpt>
      <trkpt lat="48.86777" lon="2.05096">
        <ele>114.58</ele>
        <time>2022-09-25T07:28:41Z</time>
      </trkpt>
      <trkpt lat="48.86778" lon="2.05102">
        <ele>114.65</ele>
        <time>2022-09-25T07:28:58Z</time>
      </trkpt>
      <trkpt lat="48.86777" lon="2.05104">
        <ele>114.77</ele>
        <time>2022-09-25T07:29:15Z</time>
      </trkpt>
      <trkpt lat="48.86778" lon="2.05101">
        <ele>114.97</ele>
        <time>2022-09-25T07:29:34Z</time>
      </trkpt>
      <trkpt lat="48.86778" lon="2.05102">
        <ele>114.88</ele>
        <time>2022-09-25T07:29:50Z</time>
      </trkpt>
      <trkpt lat="48.8678" lon="2.05097">
        <ele>115.39</ele>
        <time>2022-09-25T07:30:12Z</time>
      </trkpt>
      <trkpt lat="48.86781" lon="2.05096">
        <ele>115.94</ele>
        <time>2022-09-25T07:30:30Z</time>
      </trkpt>
      <trkpt lat="48.86779" lon="2.05097">
        <ele>115.94</ele>
        <time>2022-09-25T07:30:46Z</time>
      </trkpt>
      <trkpt lat="48.86778" lon="2.05099">
        <ele>116.48</ele>
        <time>2022-09-25T07:31:10Z</time>
      </trkpt>
      <trkpt lat="48.86777" lon="2.05099">
        <ele>116.16</ele>
        <time>2022-09-25T07:31:28Z</time>
      </trkpt>
      <trkpt lat="48.86777" lon="2.05105">
        <ele>116.01</ele>
        <time>2022-09-25T07:31:44Z</time>
      </trkpt>
      <trkpt lat="48.86778" lon="2.05104">
        <ele>116.32</ele>
        <time>2022-09-25T07:31:58Z</time>
      </trkpt>
      <trkpt lat="48.86779" lon="2.05101">
        <ele>116.23</ele>
        <time>2022-09-25T07:32:15Z</time>
      </trkpt>
      <trkpt lat="48.86779" lon="2.051">
        <ele>116.48</ele>
        <time>2022-09-25T07:32:34Z</time>
      </trkpt>
      <trkpt lat="48.8678" lon="2.05098">
        <ele>116.39</ele>
        <time>2022-09-25T07:32:51Z</time>
      </trkpt>
      <trkpt lat="48.86782" lon="2.05096">
        <ele>116.47</ele>
        <time>2022-09-25T07:33:15Z</time>
      </trkpt>
      <trkpt lat="48.86783" lon="2.05096">
        <ele>116.52</ele>
        <time>2022-09-25T07:33:31Z</time>
      </trkpt>
      <trkpt lat="48.86783" lon="2.05093">
        <ele>116.86</ele>
        <time>2022-09-25T07:33:47Z</time>
      </trkpt>
      <trkpt lat="48.86784" lon="2.05092">
        <ele>117.18</ele>
        <time>2022-09-25T07:34:05Z</time>
      </trkpt>
      <trkpt lat="48.86784" lon="2.05095">
        <ele>117.09</ele>
        <time>2022-09-25T07:34:27Z</time>
      </trkpt>
      <trkpt lat="48.8678" lon="2.05098">
        <ele>117.39</ele>
        <time>2022-09-25T07:34:44Z</time>
      </trkpt>
      <trkpt lat="48.8678" lon="2.05102">
        <ele>117.76</ele>
        <time>2022-09-25T07:35:03Z</time>
      </trkpt>
      <trkpt lat="48.86779" lon="2.05101">
        <ele>117.43</ele>
        <time>2022-09-25T07:35:24Z</time>
      </trkpt>
      <trkpt lat="48.86778" lon="2.05103">
        <ele>117.6</ele>
        <time>2022-09-25T07:35:43Z</time>
      </trkpt>
      <trkpt lat="48.86779" lon="2.05096">
        <ele>117.73</ele>
        <time>2022-09-25T07:35:56Z</time>
      </trkpt>
      <trkpt lat="48.86783" lon="2.05094">
        <ele>117.3</ele>
        <time>2022-09-25T07:36:15Z</time>
      </trkpt>
      <trkpt lat="48.86778" lon="2.05097">
        <ele>118</ele>
        <time>2022-09-25T07:36:29Z</time>
      </trkpt>
      <trkpt lat="48.86778" lon="2.051">
        <ele>117.26</ele>
        <time>2022-09-25T07:36:45Z</time>
      </trkpt>
      <trkpt lat="48.86781" lon="2.05096">
        <ele>117.97</ele>
        <time>2022-09-25T07:36:59Z</time>
      </trkpt>
      <trkpt lat="48.86781" lon="2.05095">
        <ele>117.81</ele>
        <time>2022-09-25T07:37:21Z</time>
      </trkpt>
      <trkpt lat="48.8678" lon="2.05095">
        <ele>118.09</ele>
        <time>2022-09-25T07:37:40Z</time>
      </trkpt>
      <trkpt lat="48.86782" lon="2.05095">
        <ele>118.41</ele>
        <time>2022-09-25T07:37:59Z</time>
      </trkpt>
      <trkpt lat="48.86781" lon="2.05097">
        <ele>118.02</ele>
        <time>2022-09-25T07:38:17Z</time>
      </trkpt>
      <trkpt lat="48.86781" lon="2.05097">
        <ele>118.16</ele>
        <time>2022-09-25T07:38:39Z</time>
      </trkpt>
      <trkpt lat="48.86781" lon="2.05093">
        <ele>118.26</ele>
        <time>2022-09-25T07:39:00Z</time>
      </trkpt>
      <trkpt lat="48.8677" lon="2.05088">
        <ele>118.55</ele>
        <time>2022-09-25T07:39:14Z</time>
      </trkpt>
      <trkpt lat="48.86763" lon="2.05086">
        <ele>118.9</ele>
        <time>2022-09-25T07:39:21Z</time>
      </trkpt>
      <trkpt lat="48.86758" lon="2.05086">
        <ele>118.74</ele>
        <time>2022-09-25T07:39:26Z</time>
      </trkpt>
      <trkpt lat="48.86748" lon="2.05087">
        <ele>119.51</ele>
        <time>2022-09-25T07:39:37Z</time>
      </trkpt>
      <trkpt lat="48.86741" lon="2.05086">
        <ele>120.27</ele>
        <time>2022-09-25T07:39:46Z</time>
      </trkpt>
      <trkpt lat="48.86739" lon="2.05086">
        <ele>120.7</ele>
        <time>2022-09-25T07:39:49Z</time>
      </trkpt>
      <trkpt lat="48.86736" lon="2.05086">
        <ele>121.16</ele>
        <time>2022-09-25T07:39:52Z</time>
      </trkpt>
      <trkpt lat="48.86724" lon="2.05088">
        <ele>122.54</ele>
        <time>2022-09-25T07:40:05Z</time>
      </trkpt>
      <trkpt lat="48.86714" lon="2.05088">
        <ele>122.83</ele>
        <time>2022-09-25T07:40:15Z</time>
      </trkpt>
      <trkpt lat="48.867" lon="2.0509">
        <ele>123.85</ele>
        <time>2022-09-25T07:40:29Z</time>
      </trkpt>
      <trkpt lat="48.86698" lon="2.05092">
        <ele>124.47</ele>
        <time>2022-09-25T07:40:31Z</time>
      </trkpt>
      <trkpt lat="48.86686" lon="2.05095">
        <ele>124.74</ele>
        <time>2022-09-25T07:40:43Z</time>
      </trkpt>
      <trkpt lat="48.8668" lon="2.05088">
        <ele>126.79</ele>
        <time>2022-09-25T07:40:55Z</time>
      </trkpt>
      <trkpt lat="48.8668" lon="2.05087">
        <ele>127.12</ele>
        <time>2022-09-25T07:40:56Z</time>
      </trkpt>
      <trkpt lat="48.8668" lon="2.05075">
        <ele>127.5</ele>
        <time>2022-09-25T07:41:04Z</time>
      </trkpt>
      <trkpt lat="48.8668" lon="2.0506">
        <ele>127.58</ele>
        <time>2022-09-25T07:41:14Z</time>
      </trkpt>
      <trkpt lat="48.8668" lon="2.05055">
        <ele>127.49</ele>
        <time>2022-09-25T07:41:18Z</time>
      </trkpt>
      <trkpt lat="48.8668" lon="2.05041">
        <ele>127.9</ele>
        <time>2022-09-25T07:41:28Z</time>
      </trkpt>
      <trkpt lat="48.86683" lon="2.05028">
        <ele>126.9</ele>
        <time>2022-09-25T07:41:40Z</time>
      </trkpt>
      <trkpt lat="48.86688" lon="2.05027">
        <ele>126.37</ele>
        <time>2022-09-25T07:41:46Z</time>
      </trkpt>
      <trkpt lat="48.86699" lon="2.05033">
        <ele>124.51</ele>
        <time>2022-09-25T07:41:58Z</time>
      </trkpt>
      <trkpt lat="48.86716" lon="2.05036">
        <ele>123.53</ele>
        <time>2022-09-25T07:42:16Z</time>
      </trkpt>
      <trkpt lat="48.86736" lon="2.05032">
        <ele>120.73</ele>
        <time>2022-09-25T07:42:33Z</time>
      </trkpt>
      <trkpt lat="48.86748" lon="2.0503">
        <ele>119.47</ele>
        <time>2022-09-25T07:42:50Z</time>
      </trkpt>
      <trkpt lat="48.86753" lon="2.05026">
        <ele>117.97</ele>
        <time>2022-09-25T07:43:07Z</time>
      </trkpt>
      <trkpt lat="48.8677" lon="2.05019">
        <ele>116.75</ele>
        <time>2022-09-25T07:43:20Z</time>
      </trkpt>
      <trkpt lat="48.86792" lon="2.05002">
        <ele>115.48</ele>
        <time>2022-09-25T07:43:39Z</time>
      </trkpt>
      <trkpt lat="48.86802" lon="2.04992">
        <ele>114.26</ele>
        <time>2022-09-25T07:43:52Z</time>
      </trkpt>
      <trkpt lat="48.86826" lon="2.04977">
        <ele>114.75</ele>
        <time>2022-09-25T07:44:09Z</time>
      </trkpt>
      <trkpt lat="48.86841" lon="2.04964">
        <ele>112.35</ele>
        <time>2022-09-25T07:44:24Z</time>
      </trkpt>
      <trkpt lat="48.86848" lon="2.04948">
        <ele>112.82</ele>
        <time>2022-09-25T07:44:36Z</time>
      </trkpt>
      <trkpt lat="48.86847" lon="2.04933">
        <ele>113.6</ele>
        <time>2022-09-25T07:44:52Z</time>
      </trkpt>
      <trkpt lat="48.86847" lon="2.04917">
        <ele>114.67</ele>
        <time>2022-09-25T07:45:08Z</time>
      </trkpt>
      <trkpt lat="48.86848" lon="2.04891">
        <ele>114.48</ele>
        <time>2022-09-25T07:45:25Z</time>
      </trkpt>
      <trkpt lat="48.86846" lon="2.04886">
        <ele>114.7</ele>
        <time>2022-09-25T07:45:28Z</time>
      </trkpt>
      <trkpt lat="48.86845" lon="2.04882">
        <ele>115.13</ele>
        <time>2022-09-25T07:45:31Z</time>
      </trkpt>
      <trkpt lat="48.86843" lon="2.04864">
        <ele>115.62</ele>
        <time>2022-09-25T07:45:46Z</time>
      </trkpt>
      <trkpt lat="48.86843" lon="2.04842">
        <ele>115.31</ele>
        <time>2022-09-25T07:46:00Z</time>
      </trkpt>
      <trkpt lat="48.86843" lon="2.04818">
        <ele>116.73</ele>
        <time>2022-09-25T07:46:18Z</time>
      </trkpt>
      <trkpt lat="48.86842" lon="2.04792">
        <ele>116.82</ele>
        <time>2022-09-25T07:46:32Z</time>
      </trkpt>
      <trkpt lat="48.86838" lon="2.04761">
        <ele>118.36</ele>
        <time>2022-09-25T07:46:49Z</time>
      </trkpt>
      <trkpt lat="48.86834" lon="2.04733">
        <ele>118.52</ele>
        <time>2022-09-25T07:47:08Z</time>
      </trkpt>
      <trkpt lat="48.8683" lon="2.04707">
        <ele>119.27</ele>
        <time>2022-09-25T07:47:24Z</time>
      </trkpt>
      <trkpt lat="48.86824" lon="2.04677">
        <ele>120.39</ele>
        <time>2022-09-25T07:47:40Z</time>
      </trkpt>
      <trkpt lat="48.86821" lon="2.04656">
        <ele>121.19</ele>
        <time>2022-09-25T07:47:58Z</time>
      </trkpt>
      <trkpt lat="48.86816" lon="2.04626">
        <ele>122.23</ele>
        <time>2022-09-25T07:48:13Z</time>
      </trkpt>
      <trkpt lat="48.86814" lon="2.04607">
        <ele>123.27</ele>
        <time>2022-09-25T07:48:30Z</time>
      </trkpt>
      <trkpt lat="48.8681" lon="2.0459">
        <ele>123.71</ele>
        <time>2022-09-25T07:48:48Z</time>
      </trkpt>
      <trkpt lat="48.86806" lon="2.04567">
        <ele>124.69</ele>
        <time>2022-09-25T07:49:02Z</time>
      </trkpt>
      <trkpt lat="48.86803" lon="2.04544">
        <ele>125.85</ele>
        <time>2022-09-25T07:49:16Z</time>
      </trkpt>
      <trkpt lat="48.86797" lon="2.04516">
        <ele>126.89</ele>
        <time>2022-09-25T07:49:35Z</time>
      </trkpt>
      <trkpt lat="48.86787" lon="2.04492">
        <ele>128.3</ele>
        <time>2022-09-25T07:49:53Z</time>
      </trkpt>
      <trkpt lat="48.86778" lon="2.04461">
        <ele>129.86</ele>
        <time>2022-09-25T07:50:11Z</time>
      </trkpt>
      <trkpt lat="48.86775" lon="2.04444">
        <ele>130.97</ele>
        <time>2022-09-25T07:50:25Z</time>
      </trkpt>
      <trkpt lat="48.86776" lon="2.04413">
        <ele>132.8</ele>
        <time>2022-09-25T07:50:45Z</time>
      </trkpt>
      <trkpt lat="48.86776" lon="2.04391">
        <ele>135.78</ele>
        <time>2022-09-25T07:51:01Z</time>
      </trkpt>
      <trkpt lat="48.86776" lon="2.04371">
        <ele>138.47</ele>
        <time>2022-09-25T07:51:19Z</time>
      </trkpt>
      <trkpt lat="48.86773" lon="2.04358">
        <ele>139.17</ele>
        <time>2022-09-25T07:51:30Z</time>
      </trkpt>
      <trkpt lat="48.86773" lon="2.04336">
        <ele>141.35</ele>
        <time>2022-09-25T07:51:48Z</time>
      </trkpt>
      <trkpt lat="48.86776" lon="2.04321">
        <ele>142.88</ele>
        <time>2022-09-25T07:52:00Z</time>
      </trkpt>
      <trkpt lat="48.86775" lon="2.04303">
        <ele>145.32</ele>
        <time>2022-09-25T07:52:18Z</time>
      </trkpt>
      <trkpt lat="48.86769" lon="2.04288">
        <ele>146.27</ele>
        <time>2022-09-25T07:52:33Z</time>
      </trkpt>
      <trkpt lat="48.86761" lon="2.04279">
        <ele>148.05</ele>
        <time>2022-09-25T07:52:48Z</time>
      </trkpt>
      <trkpt lat="48.86751" lon="2.04259">
        <ele>149.75</ele>
        <time>2022-09-25T07:53:06Z</time>
      </trkpt>
      <trkpt lat="48.86742" lon="2.04244">
        <ele>151.25</ele>
        <time>2022-09-25T07:53:23Z</time>
      </trkpt>
      <trkpt lat="48.86738" lon="2.04218">
        <ele>152.48</ele>
        <time>2022-09-25T07:53:39Z</time>
      </trkpt>
      <trkpt lat="48.86737" lon="2.04203">
        <ele>153.28</ele>
        <time>2022-09-25T07:53:53Z</time>
      </trkpt>
      <trkpt lat="48.86737" lon="2.04201">
        <ele>153.27</ele>
        <time>2022-09-25T07:53:55Z</time>
      </trkpt>
      <trkpt lat="48.86731" lon="2.04171">
        <ele>154.64</ele>
        <time>2022-09-25T07:54:14Z</time>
      </trkpt>
      <trkpt lat="48.86724" lon="2.04144">
        <ele>155.37</ele>
        <time>2022-09-25T07:54:30Z</time>
      </trkpt>
      <trkpt lat="48.86715" lon="2.04114">
        <ele>156.02</ele>
        <time>2022-09-25T07:54:48Z</time>
      </trkpt>
      <trkpt lat="48.86712" lon="2.04088">
        <ele>156.73</ele>
        <time>2022-09-25T07:55:02Z</time>
      </trkpt>
      <trkpt lat="48.86711" lon="2.04078">
        <ele>156.13</ele>
        <time>2022-09-25T07:55:08Z</time>
      </trkpt>
      <trkpt lat="48.86708" lon="2.04075">
        <ele>156.21</ele>
        <time>2022-09-25T07:55:27Z</time>
      </trkpt>
      <trkpt lat="48.86704" lon="2.04075">
        <ele>156.22</ele>
        <time>2022-09-25T07:55:45Z</time>
      </trkpt>
      <trkpt lat="48.86703" lon="2.04075">
        <ele>156.12</ele>
        <time>2022-09-25T07:55:46Z</time>
      </trkpt>
      <trkpt lat="48.86699" lon="2.0408">
        <ele>155.69</ele>
        <time>2022-09-25T07:56:06Z</time>
      </trkpt>
      <trkpt lat="48.86699" lon="2.04079">
        <ele>155.37</ele>
        <time>2022-09-25T07:56:23Z</time>
      </trkpt>
      <trkpt lat="48.86701" lon="2.04073">
        <ele>156.06</ele>
        <time>2022-09-25T07:56:42Z</time>
      </trkpt>
      <trkpt lat="48.86698" lon="2.04071">
        <ele>155.71</ele>
        <time>2022-09-25T07:57:04Z</time>
      </trkpt>
      <trkpt lat="48.86702" lon="2.04072">
        <ele>155.99</ele>
        <time>2022-09-25T07:57:24Z</time>
      </trkpt>
      <trkpt lat="48.86699" lon="2.04072">
        <ele>156.7</ele>
        <time>2022-09-25T07:57:46Z</time>
      </trkpt>
      <trkpt lat="48.86696" lon="2.0407">
        <ele>155.99</ele>
        <time>2022-09-25T07:58:06Z</time>
      </trkpt>
      <trkpt lat="48.86698" lon="2.04066">
        <ele>155.88</ele>
        <time>2022-09-25T07:58:28Z</time>
      </trkpt>
      <trkpt lat="48.86698" lon="2.04069">
        <ele>156.22</ele>
        <time>2022-09-25T07:58:47Z</time>
      </trkpt>
      <trkpt lat="48.86699" lon="2.0407">
        <ele>156.09</ele>
        <time>2022-09-25T07:59:08Z</time>
      </trkpt>
      <trkpt lat="48.86698" lon="2.04073">
        <ele>156.63</ele>
        <time>2022-09-25T07:59:30Z</time>
      </trkpt>
      <trkpt lat="48.867" lon="2.04069">
        <ele>156.39</ele>
        <time>2022-09-25T07:59:49Z</time>
      </trkpt>
      <trkpt lat="48.86701" lon="2.04061">
        <ele>156.27</ele>
        <time>2022-09-25T07:59:56Z</time>
      </trkpt>
      <trkpt lat="48.86702" lon="2.04058">
        <ele>156.51</ele>
        <time>2022-09-25T07:59:58Z</time>
      </trkpt>
      <trkpt lat="48.86698" lon="2.04047">
        <ele>156.5</ele>
        <time>2022-09-25T08:00:09Z</time>
      </trkpt>
      <trkpt lat="48.86702" lon="2.04022">
        <ele>157.13</ele>
        <time>2022-09-25T08:00:27Z</time>
      </trkpt>
      <trkpt lat="48.86704" lon="2.03992">
        <ele>157.77</ele>
        <time>2022-09-25T08:00:44Z</time>
      </trkpt>
      <trkpt lat="48.86708" lon="2.03971">
        <ele>157.66</ele>
        <time>2022-09-25T08:00:59Z</time>
      </trkpt>
      <trkpt lat="48.86709" lon="2.03958">
        <ele>157.94</ele>
        <time>2022-09-25T08:01:07Z</time>
      </trkpt>
      <trkpt lat="48.86711" lon="2.03945">
        <ele>157.78</ele>
        <time>2022-09-25T08:01:13Z</time>
      </trkpt>
      <trkpt lat="48.86715" lon="2.03928">
        <ele>157.83</ele>
        <time>2022-09-25T08:01:26Z</time>
      </trkpt>
      <trkpt lat="48.86719" lon="2.03903">
        <ele>157.67</ele>
        <time>2022-09-25T08:01:43Z</time>
      </trkpt>
      <trkpt lat="48.86721" lon="2.03872">
        <ele>158.09</ele>
        <time>2022-09-25T08:01:59Z</time>
      </trkpt>
      <trkpt lat="48.8673" lon="2.03837">
        <ele>157.96</ele>
        <time>2022-09-25T08:02:17Z</time>
      </trkpt>
      <trkpt lat="48.86731" lon="2.03817">
        <ele>158.18</ele>
        <time>2022-09-25T08:02:31Z</time>
      </trkpt>
      <trkpt lat="48.86738" lon="2.03793">
        <ele>157.39</ele>
        <time>2022-09-25T08:02:45Z</time>
      </trkpt>
      <trkpt lat="48.86752" lon="2.03761">
        <ele>157.67</ele>
        <time>2022-09-25T08:03:05Z</time>
      </trkpt>
      <trkpt lat="48.86752" lon="2.0376">
        <ele>157.35</ele>
        <time>2022-09-25T08:03:06Z</time>
      </trkpt>
      <trkpt lat="48.86758" lon="2.03752">
        <ele>157.23</ele>
        <time>2022-09-25T08:03:13Z</time>
      </trkpt>
      <trkpt lat="48.86763" lon="2.03737">
        <ele>157.39</ele>
        <time>2022-09-25T08:03:23Z</time>
      </trkpt>
      <trkpt lat="48.86763" lon="2.03732">
        <ele>157.07</ele>
        <time>2022-09-25T08:03:27Z</time>
      </trkpt>
      <trkpt lat="48.86764" lon="2.03728">
        <ele>157.28</ele>
        <time>2022-09-25T08:03:30Z</time>
      </trkpt>
      <trkpt lat="48.86767" lon="2.03724">
        <ele>156.97</ele>
        <time>2022-09-25T08:03:34Z</time>
      </trkpt>
      <trkpt lat="48.86773" lon="2.03715">
        <ele>157.02</ele>
        <time>2022-09-25T08:03:44Z</time>
      </trkpt>
      <trkpt lat="48.86785" lon="2.03711">
        <ele>157.06</ele>
        <time>2022-09-25T08:03:54Z</time>
      </trkpt>
      <trkpt lat="48.86789" lon="2.0371">
        <ele>155.83</ele>
        <time>2022-09-25T08:03:57Z</time>
      </trkpt>
      <trkpt lat="48.86799" lon="2.03704">
        <ele>157.34</ele>
        <time>2022-09-25T08:04:06Z</time>
      </trkpt>
      <trkpt lat="48.86809" lon="2.03695">
        <ele>157.3</ele>
        <time>2022-09-25T08:04:15Z</time>
      </trkpt>
      <trkpt lat="48.86818" lon="2.03689">
        <ele>156.93</ele>
        <time>2022-09-25T08:04:32Z</time>
      </trkpt>
      <trkpt lat="48.86818" lon="2.03683">
        <ele>157.72</ele>
        <time>2022-09-25T08:04:36Z</time>
      </trkpt>
      <trkpt lat="48.86825" lon="2.03659">
        <ele>157.26</ele>
        <time>2022-09-25T08:04:51Z</time>
      </trkpt>
      <trkpt lat="48.86828" lon="2.03637">
        <ele>157.53</ele>
        <time>2022-09-25T08:05:03Z</time>
      </trkpt>
      <trkpt lat="48.86828" lon="2.03636">
        <ele>157.04</ele>
        <time>2022-09-25T08:05:04Z</time>
      </trkpt>
      <trkpt lat="48.86827" lon="2.03625">
        <ele>157.53</ele>
        <time>2022-09-25T08:05:11Z</time>
      </trkpt>
      <trkpt lat="48.86826" lon="2.03619">
        <ele>157.72</ele>
        <time>2022-09-25T08:05:15Z</time>
      </trkpt>
      <trkpt lat="48.8682" lon="2.03598">
        <ele>157.85</ele>
        <time>2022-09-25T08:05:26Z</time>
      </trkpt>
      <trkpt lat="48.86813" lon="2.03583">
        <ele>157.63</ele>
        <time>2022-09-25T08:05:36Z</time>
      </trkpt>
      <trkpt lat="48.86807" lon="2.03576">
        <ele>156.92</ele>
        <time>2022-09-25T08:05:41Z</time>
      </trkpt>
      <trkpt lat="48.86797" lon="2.03569">
        <ele>157.8</ele>
        <time>2022-09-25T08:05:51Z</time>
      </trkpt>
      <trkpt lat="48.86783" lon="2.03566">
        <ele>157.44</ele>
        <time>2022-09-25T08:06:03Z</time>
      </trkpt>
      <trkpt lat="48.86769" lon="2.03563">
        <ele>157.46</ele>
        <time>2022-09-25T08:06:16Z</time>
      </trkpt>
      <trkpt lat="48.86757" lon="2.03562">
        <ele>157.77</ele>
        <time>2022-09-25T08:06:28Z</time>
      </trkpt>
      <trkpt lat="48.86755" lon="2.03559">
        <ele>157.75</ele>
        <time>2022-09-25T08:06:31Z</time>
      </trkpt>
      <trkpt lat="48.86745" lon="2.03543">
        <ele>158.32</ele>
        <time>2022-09-25T08:06:44Z</time>
      </trkpt>
      <trkpt lat="48.86738" lon="2.03533">
        <ele>157.55</ele>
        <time>2022-09-25T08:06:55Z</time>
      </trkpt>
      <trkpt lat="48.86725" lon="2.03513">
        <ele>157.09</ele>
        <time>2022-09-25T08:07:13Z</time>
      </trkpt>
      <trkpt lat="48.86718" lon="2.03504">
        <ele>156.61</ele>
        <time>2022-09-25T08:07:19Z</time>
      </trkpt>
      <trkpt lat="48.86708" lon="2.03491">
        <ele>156.07</ele>
        <time>2022-09-25T08:07:29Z</time>
      </trkpt>
      <trkpt lat="48.86703" lon="2.03484">
        <ele>154.92</ele>
        <time>2022-09-25T08:07:40Z</time>
      </trkpt>
      <trkpt lat="48.86696" lon="2.03472">
        <ele>153.34</ele>
        <time>2022-09-25T08:07:55Z</time>
      </trkpt>
      <trkpt lat="48.86674" lon="2.03424">
        <ele>151.65</ele>
        <time>2022-09-25T08:08:21Z</time>
      </trkpt>
      <trkpt lat="48.86667" lon="2.03414">
        <ele>150.82</ele>
        <time>2022-09-25T08:08:30Z</time>
      </trkpt>
      <trkpt lat="48.8666" lon="2.03395">
        <ele>149.57</ele>
        <time>2022-09-25T08:08:45Z</time>
      </trkpt>
      <trkpt lat="48.8666" lon="2.03395">
        <ele>149.48</ele>
        <time>2022-09-25T08:08:46Z</time>
      </trkpt>
      <trkpt lat="48.86657" lon="2.03391">
        <ele>148.9</ele>
        <time>2022-09-25T08:08:49Z</time>
      </trkpt>
      <trkpt lat="48.86655" lon="2.0339">
        <ele>149.08</ele>
        <time>2022-09-25T08:08:51Z</time>
      </trkpt>
      <trkpt lat="48.8665" lon="2.03379">
        <ele>148.77</ele>
        <time>2022-09-25T08:08:59Z</time>
      </trkpt>
      <trkpt lat="48.8664" lon="2.03366">
        <ele>147.92</ele>
        <time>2022-09-25T08:09:09Z</time>
      </trkpt>
      <trkpt lat="48.86625" lon="2.03342">
        <ele>147.11</ele>
        <time>2022-09-25T08:09:25Z</time>
      </trkpt>
      <trkpt lat="48.86611" lon="2.03327">
        <ele>146.02</ele>
        <time>2022-09-25T08:09:41Z</time>
      </trkpt>
      <trkpt lat="48.86601" lon="2.03316">
        <ele>143.99</ele>
        <time>2022-09-25T08:09:54Z</time>
      </trkpt>
      <trkpt lat="48.86596" lon="2.0331">
        <ele>142.79</ele>
        <time>2022-09-25T08:10:04Z</time>
      </trkpt>
      <trkpt lat="48.86594" lon="2.03305">
        <ele>143.17</ele>
        <time>2022-09-25T08:10:06Z</time>
      </trkpt>
      <trkpt lat="48.86586" lon="2.0329">
        <ele>142.73</ele>
        <time>2022-09-25T08:10:15Z</time>
      </trkpt>
      <trkpt lat="48.86579" lon="2.03281">
        <ele>142.1</ele>
        <time>2022-09-25T08:10:21Z</time>
      </trkpt>
      <trkpt lat="48.86573" lon="2.03268">
        <ele>142.06</ele>
        <time>2022-09-25T08:10:29Z</time>
      </trkpt>
      <trkpt lat="48.86582" lon="2.03258">
        <ele>142.19</ele>
        <time>2022-09-25T08:10:40Z</time>
      </trkpt>
      <trkpt lat="48.86589" lon="2.03252">
        <ele>143.82</ele>
        <time>2022-09-25T08:10:56Z</time>
      </trkpt>
      <trkpt lat="48.86598" lon="2.03247">
        <ele>146.47</ele>
        <time>2022-09-25T08:11:14Z</time>
      </trkpt>
      <trkpt lat="48.86611" lon="2.03228">
        <ele>147.23</ele>
        <time>2022-09-25T08:11:32Z</time>
      </trkpt>
      <trkpt lat="48.86621" lon="2.03215">
        <ele>147.98</ele>
        <time>2022-09-25T08:11:45Z</time>
      </trkpt>
      <trkpt lat="48.86627" lon="2.03206">
        <ele>148.27</ele>
        <time>2022-09-25T08:12:04Z</time>
      </trkpt>
      <trkpt lat="48.86633" lon="2.03182">
        <ele>149.84</ele>
        <time>2022-09-25T08:12:21Z</time>
      </trkpt>
      <trkpt lat="48.86643" lon="2.0316">
        <ele>151.97</ele>
        <time>2022-09-25T08:12:39Z</time>
      </trkpt>
      <trkpt lat="48.86659" lon="2.03148">
        <ele>154.68</ele>
        <time>2022-09-25T08:12:57Z</time>
      </trkpt>
      <trkpt lat="48.86674" lon="2.03141">
        <ele>154.9</ele>
        <time>2022-09-25T08:13:13Z</time>
      </trkpt>
      <trkpt lat="48.86681" lon="2.03126">
        <ele>155.02</ele>
        <time>2022-09-25T08:13:28Z</time>
      </trkpt>
      <trkpt lat="48.86689" lon="2.03104">
        <ele>155.61</ele>
        <time>2022-09-25T08:13:45Z</time>
      </trkpt>
      <trkpt lat="48.86697" lon="2.03084">
        <ele>155.65</ele>
        <time>2022-09-25T08:14:03Z</time>
      </trkpt>
      <trkpt lat="48.86701" lon="2.03075">
        <ele>154.97</ele>
        <time>2022-09-25T08:14:10Z</time>
      </trkpt>
      <trkpt lat="48.86706" lon="2.03057">
        <ele>155.26</ele>
        <time>2022-09-25T08:14:22Z</time>
      </trkpt>
      <trkpt lat="48.86707" lon="2.03046">
        <ele>155.08</ele>
        <time>2022-09-25T08:14:29Z</time>
      </trkpt>
      <trkpt lat="48.86715" lon="2.03022">
        <ele>155.28</ele>
        <time>2022-09-25T08:14:43Z</time>
      </trkpt>
      <trkpt lat="48.86719" lon="2.03011">
        <ele>154.71</ele>
        <time>2022-09-25T08:14:50Z</time>
      </trkpt>
      <trkpt lat="48.86728" lon="2.02986">
        <ele>155.24</ele>
        <time>2022-09-25T08:15:05Z</time>
      </trkpt>
      <trkpt lat="48.86737" lon="2.02971">
        <ele>155.43</ele>
        <time>2022-09-25T08:15:17Z</time>
      </trkpt>
      <trkpt lat="48.86739" lon="2.02955">
        <ele>154.64</ele>
        <time>2022-09-25T08:15:34Z</time>
      </trkpt>
      <trkpt lat="48.86745" lon="2.02934">
        <ele>155.14</ele>
        <time>2022-09-25T08:15:45Z</time>
      </trkpt>
      <trkpt lat="48.86755" lon="2.02906">
        <ele>154.9</ele>
        <time>2022-09-25T08:16:01Z</time>
      </trkpt>
      <trkpt lat="48.86761" lon="2.02878">
        <ele>153.73</ele>
        <time>2022-09-25T08:16:18Z</time>
      </trkpt>
      <trkpt lat="48.86767" lon="2.02856">
        <ele>153.28</ele>
        <time>2022-09-25T08:16:32Z</time>
      </trkpt>
      <trkpt lat="48.86773" lon="2.02837">
        <ele>153.23</ele>
        <time>2022-09-25T08:16:44Z</time>
      </trkpt>
      <trkpt lat="48.86774" lon="2.0283">
        <ele>153.46</ele>
        <time>2022-09-25T08:16:47Z</time>
      </trkpt>
      <trkpt lat="48.86779" lon="2.02812">
        <ele>153.37</ele>
        <time>2022-09-25T08:17:00Z</time>
      </trkpt>
      <trkpt lat="48.86783" lon="2.0279">
        <ele>153.52</ele>
        <time>2022-09-25T08:17:15Z</time>
      </trkpt>
      <trkpt lat="48.8679" lon="2.0277">
        <ele>154.18</ele>
        <time>2022-09-25T08:17:28Z</time>
      </trkpt>
      <trkpt lat="48.86798" lon="2.02744">
        <ele>153.75</ele>
        <time>2022-09-25T08:17:44Z</time>
      </trkpt>
      <trkpt lat="48.86798" lon="2.0274">
        <ele>152.07</ele>
        <time>2022-09-25T08:17:46Z</time>
      </trkpt>
      <trkpt lat="48.868" lon="2.02732">
        <ele>152.07</ele>
        <time>2022-09-25T08:17:50Z</time>
      </trkpt>
      <trkpt lat="48.86801" lon="2.02728">
        <ele>153.49</ele>
        <time>2022-09-25T08:17:53Z</time>
      </trkpt>
      <trkpt lat="48.86807" lon="2.02709">
        <ele>152.88</ele>
        <time>2022-09-25T08:18:07Z</time>
      </trkpt>
      <trkpt lat="48.86819" lon="2.02678">
        <ele>153.58</ele>
        <time>2022-09-25T08:18:24Z</time>
      </trkpt>
      <trkpt lat="48.86821" lon="2.02652">
        <ele>152.67</ele>
        <time>2022-09-25T08:18:43Z</time>
      </trkpt>
      <trkpt lat="48.86833" lon="2.02623">
        <ele>151.88</ele>
        <time>2022-09-25T08:19:00Z</time>
      </trkpt>
      <trkpt lat="48.8684" lon="2.02602">
        <ele>151.59</ele>
        <time>2022-09-25T08:19:16Z</time>
      </trkpt>
      <trkpt lat="48.86849" lon="2.02575">
        <ele>151.34</ele>
        <time>2022-09-25T08:19:32Z</time>
      </trkpt>
      <trkpt lat="48.86859" lon="2.02541">
        <ele>151.37</ele>
        <time>2022-09-25T08:19:49Z</time>
      </trkpt>
      <trkpt lat="48.86867" lon="2.02512">
        <ele>151.84</ele>
        <time>2022-09-25T08:20:08Z</time>
      </trkpt>
      <trkpt lat="48.86876" lon="2.02478">
        <ele>152.04</ele>
        <time>2022-09-25T08:20:27Z</time>
      </trkpt>
      <trkpt lat="48.86888" lon="2.02456">
        <ele>152.16</ele>
        <time>2022-09-25T08:20:43Z</time>
      </trkpt>
      <trkpt lat="48.86892" lon="2.02441">
        <ele>152.34</ele>
        <time>2022-09-25T08:20:55Z</time>
      </trkpt>
      <trkpt lat="48.86894" lon="2.02427">
        <ele>152.25</ele>
        <time>2022-09-25T08:21:07Z</time>
      </trkpt>
      <trkpt lat="48.86907" lon="2.02401">
        <ele>152.07</ele>
        <time>2022-09-25T08:21:23Z</time>
      </trkpt>
      <trkpt lat="48.86921" lon="2.02371">
        <ele>151.45</ele>
        <time>2022-09-25T08:21:39Z</time>
      </trkpt>
      <trkpt lat="48.86922" lon="2.02356">
        <ele>151.42</ele>
        <time>2022-09-25T08:21:48Z</time>
      </trkpt>
      <trkpt lat="48.86925" lon="2.02328">
        <ele>151.5</ele>
        <time>2022-09-25T08:22:04Z</time>
      </trkpt>
      <trkpt lat="48.86929" lon="2.02309">
        <ele>151.27</ele>
        <time>2022-09-25T08:22:15Z</time>
      </trkpt>
      <trkpt lat="48.86933" lon="2.02288">
        <ele>151.56</ele>
        <time>2022-09-25T08:22:25Z</time>
      </trkpt>
      <trkpt lat="48.86933" lon="2.02282">
        <ele>151.17</ele>
        <time>2022-09-25T08:22:28Z</time>
      </trkpt>
      <trkpt lat="48.86935" lon="2.02277">
        <ele>150.86</ele>
        <time>2022-09-25T08:22:31Z</time>
      </trkpt>
      <trkpt lat="48.86948" lon="2.02262">
        <ele>150.63</ele>
        <time>2022-09-25T08:22:41Z</time>
      </trkpt>
      <trkpt lat="48.86951" lon="2.02244">
        <ele>150.88</ele>
        <time>2022-09-25T08:22:51Z</time>
      </trkpt>
      <trkpt lat="48.86955" lon="2.02234">
        <ele>150.75</ele>
        <time>2022-09-25T08:23:01Z</time>
      </trkpt>
      <trkpt lat="48.86956" lon="2.0223">
        <ele>150.26</ele>
        <time>2022-09-25T08:23:03Z</time>
      </trkpt>
      <trkpt lat="48.86961" lon="2.02216">
        <ele>150.17</ele>
        <time>2022-09-25T08:23:12Z</time>
      </trkpt>
      <trkpt lat="48.86965" lon="2.02199">
        <ele>149.96</ele>
        <time>2022-09-25T08:23:23Z</time>
      </trkpt>
      <trkpt lat="48.86973" lon="2.0218">
        <ele>149.14</ele>
        <time>2022-09-25T08:23:39Z</time>
      </trkpt>
      <trkpt lat="48.86981" lon="2.02156">
        <ele>148.07</ele>
        <time>2022-09-25T08:23:56Z</time>
      </trkpt>
      <trkpt lat="48.86989" lon="2.02128">
        <ele>146.57</ele>
        <time>2022-09-25T08:24:14Z</time>
      </trkpt>
      <trkpt lat="48.86999" lon="2.02107">
        <ele>144.95</ele>
        <time>2022-09-25T08:24:30Z</time>
      </trkpt>
      <trkpt lat="48.87001" lon="2.02105">
        <ele>145.42</ele>
        <time>2022-09-25T08:24:48Z</time>
      </trkpt>
      <trkpt lat="48.87002" lon="2.02104">
        <ele>145.09</ele>
        <time>2022-09-25T08:25:05Z</time>
      </trkpt>
      <trkpt lat="48.87005" lon="2.0211">
        <ele>144.99</ele>
        <time>2022-09-25T08:25:24Z</time>
      </trkpt>
      <trkpt lat="48.87002" lon="2.02112">
        <ele>145.15</ele>
        <time>2022-09-25T08:25:42Z</time>
      </trkpt>
      <trkpt lat="48.86998" lon="2.02113">
        <ele>145.6</ele>
        <time>2022-09-25T08:26:04Z</time>
      </trkpt>
      <trkpt lat="48.86998" lon="2.0211">
        <ele>145.66</ele>
        <time>2022-09-25T08:26:28Z</time>
      </trkpt>
      <trkpt lat="48.86998" lon="2.02106">
        <ele>146.03</ele>
        <time>2022-09-25T08:26:55Z</time>
      </trkpt>
      <trkpt lat="48.86998" lon="2.02106">
        <ele>145.62</ele>
        <time>2022-09-25T08:27:14Z</time>
      </trkpt>
      <trkpt lat="48.87003" lon="2.02107">
        <ele>146.35</ele>
        <time>2022-09-25T08:27:37Z</time>
      </trkpt>
      <trkpt lat="48.87011" lon="2.02103">
        <ele>146.45</ele>
        <time>2022-09-25T08:27:47Z</time>
      </trkpt>
      <trkpt lat="48.87018" lon="2.02104">
        <ele>146.98</ele>
        <time>2022-09-25T08:27:58Z</time>
      </trkpt>
      <trkpt lat="48.87025" lon="2.02105">
        <ele>146.79</ele>
        <time>2022-09-25T08:28:14Z</time>
      </trkpt>
      <trkpt lat="48.87042" lon="2.02104">
        <ele>146.18</ele>
        <time>2022-09-25T08:28:32Z</time>
      </trkpt>
      <trkpt lat="48.87059" lon="2.02107">
        <ele>145.31</ele>
        <time>2022-09-25T08:28:48Z</time>
      </trkpt>
      <trkpt lat="48.87082" lon="2.02105">
        <ele>146.66</ele>
        <time>2022-09-25T08:29:06Z</time>
      </trkpt>
      <trkpt lat="48.87095" lon="2.02104">
        <ele>148.14</ele>
        <time>2022-09-25T08:29:21Z</time>
      </trkpt>
      <trkpt lat="48.87112" lon="2.02106">
        <ele>149.2</ele>
        <time>2022-09-25T08:29:38Z</time>
      </trkpt>
      <trkpt lat="48.8713" lon="2.02106">
        <ele>148.81</ele>
        <time>2022-09-25T08:29:55Z</time>
      </trkpt>
      <trkpt lat="48.87139" lon="2.02107">
        <ele>148.65</ele>
        <time>2022-09-25T08:30:11Z</time>
      </trkpt>
      <trkpt lat="48.87151" lon="2.02106">
        <ele>148.39</ele>
        <time>2022-09-25T08:30:25Z</time>
      </trkpt>
      <trkpt lat="48.87169" lon="2.02107">
        <ele>149.1</ele>
        <time>2022-09-25T08:30:40Z</time>
      </trkpt>
      <trkpt lat="48.87184" lon="2.02108">
        <ele>151.42</ele>
        <time>2022-09-25T08:30:55Z</time>
      </trkpt>
      <trkpt lat="48.87199" lon="2.02107">
        <ele>152.64</ele>
        <time>2022-09-25T08:31:11Z</time>
      </trkpt>
      <trkpt lat="48.87215" lon="2.02106">
        <ele>152.7</ele>
        <time>2022-09-25T08:31:26Z</time>
      </trkpt>
      <trkpt lat="48.87231" lon="2.02108">
        <ele>152.6</ele>
        <time>2022-09-25T08:31:43Z</time>
      </trkpt>
      <trkpt lat="48.87249" lon="2.02108">
        <ele>152.45</ele>
        <time>2022-09-25T08:31:59Z</time>
      </trkpt>
      <trkpt lat="48.8726" lon="2.02106">
        <ele>151.54</ele>
        <time>2022-09-25T08:32:07Z</time>
      </trkpt>
      <trkpt lat="48.87282" lon="2.02107">
        <ele>150.88</ele>
        <time>2022-09-25T08:32:21Z</time>
      </trkpt>
      <trkpt lat="48.8729" lon="2.02105">
        <ele>151.73</ele>
        <time>2022-09-25T08:32:34Z</time>
      </trkpt>
      <trkpt lat="48.873" lon="2.02103">
        <ele>153.31</ele>
        <time>2022-09-25T08:32:49Z</time>
      </trkpt>
      <trkpt lat="48.87307" lon="2.02102">
        <ele>153.58</ele>
        <time>2022-09-25T08:33:06Z</time>
      </trkpt>
      <trkpt lat="48.87313" lon="2.02096">
        <ele>152.84</ele>
        <time>2022-09-25T08:33:24Z</time>
      </trkpt>
      <trkpt lat="48.87313" lon="2.02089">
        <ele>153.33</ele>
        <time>2022-09-25T08:33:30Z</time>
      </trkpt>
      <trkpt lat="48.87312" lon="2.02077">
        <ele>152.82</ele>
        <time>2022-09-25T08:33:38Z</time>
      </trkpt>
      <trkpt lat="48.87313" lon="2.02061">
        <ele>153.4</ele>
        <time>2022-09-25T08:33:47Z</time>
      </trkpt>
      <trkpt lat="48.87311" lon="2.02049">
        <ele>152.3</ele>
        <time>2022-09-25T08:33:58Z</time>
      </trkpt>
      <trkpt lat="48.87308" lon="2.02027">
        <ele>152.66</ele>
        <time>2022-09-25T08:34:16Z</time>
      </trkpt>
      <trkpt lat="48.87307" lon="2.01998">
        <ele>153.6</ele>
        <time>2022-09-25T08:34:35Z</time>
      </trkpt>
      <trkpt lat="48.87304" lon="2.01975">
        <ele>154.11</ele>
        <time>2022-09-25T08:34:42Z</time>
      </trkpt>
      <trkpt lat="48.87301" lon="2.01955">
        <ele>155.23</ele>
        <time>2022-09-25T08:34:53Z</time>
      </trkpt>
      <trkpt lat="48.87297" lon="2.01933">
        <ele>155.58</ele>
        <time>2022-09-25T08:35:07Z</time>
      </trkpt>
      <trkpt lat="48.87295" lon="2.01913">
        <ele>156</ele>
        <time>2022-09-25T08:35:20Z</time>
      </trkpt>
      <trkpt lat="48.87291" lon="2.01895">
        <ele>156.34</ele>
        <time>2022-09-25T08:35:31Z</time>
      </trkpt>
      <trkpt lat="48.8729" lon="2.01882">
        <ele>156.58</ele>
        <time>2022-09-25T08:35:38Z</time>
      </trkpt>
      <trkpt lat="48.8729" lon="2.01868">
        <ele>156.9</ele>
        <time>2022-09-25T08:35:45Z</time>
      </trkpt>
      <trkpt lat="48.8729" lon="2.01863">
        <ele>156.73</ele>
        <time>2022-09-25T08:35:48Z</time>
      </trkpt>
      <trkpt lat="48.87288" lon="2.01842">
        <ele>156.95</ele>
        <time>2022-09-25T08:36:01Z</time>
      </trkpt>
      <trkpt lat="48.87287" lon="2.01829">
        <ele>157.33</ele>
        <time>2022-09-25T08:36:13Z</time>
      </trkpt>
      <trkpt lat="48.87288" lon="2.01824">
        <ele>156.94</ele>
        <time>2022-09-25T08:36:29Z</time>
      </trkpt>
      <trkpt lat="48.8729" lon="2.01821">
        <ele>156.78</ele>
        <time>2022-09-25T08:36:46Z</time>
      </trkpt>
      <trkpt lat="48.87292" lon="2.01814">
        <ele>156.96</ele>
        <time>2022-09-25T08:37:04Z</time>
      </trkpt>
      <trkpt lat="48.87293" lon="2.01808">
        <ele>156.6</ele>
        <time>2022-09-25T08:37:08Z</time>
      </trkpt>
      <trkpt lat="48.87296" lon="2.01791">
        <ele>156.53</ele>
        <time>2022-09-25T08:37:19Z</time>
      </trkpt>
      <trkpt lat="48.87299" lon="2.01779">
        <ele>157</ele>
        <time>2022-09-25T08:37:27Z</time>
      </trkpt>
      <trkpt lat="48.87301" lon="2.01768">
        <ele>157.17</ele>
        <time>2022-09-25T08:37:37Z</time>
      </trkpt>
      <trkpt lat="48.87303" lon="2.01754">
        <ele>156.6</ele>
        <time>2022-09-25T08:37:46Z</time>
      </trkpt>
      <trkpt lat="48.87309" lon="2.01727">
        <ele>157.49</ele>
        <time>2022-09-25T08:38:02Z</time>
      </trkpt>
      <trkpt lat="48.87312" lon="2.01712">
        <ele>156.73</ele>
        <time>2022-09-25T08:38:18Z</time>
      </trkpt>
      <trkpt lat="48.87316" lon="2.01689">
        <ele>156.91</ele>
        <time>2022-09-25T08:38:35Z</time>
      </trkpt>
      <trkpt lat="48.8732" lon="2.0168">
        <ele>157.7</ele>
        <time>2022-09-25T08:38:53Z</time>
      </trkpt>
      <trkpt lat="48.87327" lon="2.01673">
        <ele>157.01</ele>
        <time>2022-09-25T08:39:13Z</time>
      </trkpt>
      <trkpt lat="48.87327" lon="2.01664">
        <ele>157.41</ele>
        <time>2022-09-25T08:39:31Z</time>
      </trkpt>
      <trkpt lat="48.87327" lon="2.01633">
        <ele>156.93</ele>
        <time>2022-09-25T08:39:48Z</time>
      </trkpt>
      <trkpt lat="48.87332" lon="2.0161">
        <ele>156.91</ele>
        <time>2022-09-25T08:40:05Z</time>
      </trkpt>
      <trkpt lat="48.87337" lon="2.01598">
        <ele>157.02</ele>
        <time>2022-09-25T08:40:21Z</time>
      </trkpt>
      <trkpt lat="48.87337" lon="2.01595">
        <ele>157.1</ele>
        <time>2022-09-25T08:40:45Z</time>
      </trkpt>
      <trkpt lat="48.87339" lon="2.01592">
        <ele>157.19</ele>
        <time>2022-09-25T08:41:07Z</time>
      </trkpt>
      <trkpt lat="48.87337" lon="2.01594">
        <ele>157.54</ele>
        <time>2022-09-25T08:41:29Z</time>
      </trkpt>
      <trkpt lat="48.87342" lon="2.01592">
        <ele>158.16</ele>
        <time>2022-09-25T08:41:51Z</time>
      </trkpt>
      <trkpt lat="48.87343" lon="2.01592">
        <ele>157.69</ele>
        <time>2022-09-25T08:42:12Z</time>
      </trkpt>
      <trkpt lat="48.87343" lon="2.01588">
        <ele>158.77</ele>
        <time>2022-09-25T08:42:35Z</time>
      </trkpt>
      <trkpt lat="48.87343" lon="2.01588">
        <ele>158.44</ele>
        <time>2022-09-25T08:42:56Z</time>
      </trkpt>
      <trkpt lat="48.87342" lon="2.0159">
        <ele>159.12</ele>
        <time>2022-09-25T08:43:19Z</time>
      </trkpt>
      <trkpt lat="48.87341" lon="2.01592">
        <ele>158.96</ele>
        <time>2022-09-25T08:43:38Z</time>
      </trkpt>
      <trkpt lat="48.87341" lon="2.01591">
        <ele>159.15</ele>
        <time>2022-09-25T08:44:01Z</time>
      </trkpt>
      <trkpt lat="48.87341" lon="2.01591">
        <ele>159.53</ele>
        <time>2022-09-25T08:44:21Z</time>
      </trkpt>
      <trkpt lat="48.87341" lon="2.0159">
        <ele>159.6</ele>
        <time>2022-09-25T08:44:44Z</time>
      </trkpt>
      <trkpt lat="48.8734" lon="2.01592">
        <ele>159.58</ele>
        <time>2022-09-25T08:45:06Z</time>
      </trkpt>
      <trkpt lat="48.87344" lon="2.01587">
        <ele>159.58</ele>
        <time>2022-09-25T08:45:25Z</time>
      </trkpt>
      <trkpt lat="48.87344" lon="2.01581">
        <ele>159.57</ele>
        <time>2022-09-25T08:45:29Z</time>
      </trkpt>
      <trkpt lat="48.87345" lon="2.01576">
        <ele>159.65</ele>
        <time>2022-09-25T08:45:31Z</time>
      </trkpt>
      <trkpt lat="48.87345" lon="2.01573">
        <ele>159.84</ele>
        <time>2022-09-25T08:45:33Z</time>
      </trkpt>
      <trkpt lat="48.87357" lon="2.0154">
        <ele>159.87</ele>
        <time>2022-09-25T08:45:51Z</time>
      </trkpt>
      <trkpt lat="48.87363" lon="2.01522">
        <ele>159.74</ele>
        <time>2022-09-25T08:46:07Z</time>
      </trkpt>
      <trkpt lat="48.8737" lon="2.0149">
        <ele>159.72</ele>
        <time>2022-09-25T08:46:26Z</time>
      </trkpt>
      <trkpt lat="48.87374" lon="2.01465">
        <ele>160.43</ele>
        <time>2022-09-25T08:46:43Z</time>
      </trkpt>
      <trkpt lat="48.87382" lon="2.01436">
        <ele>160.42</ele>
        <time>2022-09-25T08:47:01Z</time>
      </trkpt>
      <trkpt lat="48.87387" lon="2.01414">
        <ele>160.41</ele>
        <time>2022-09-25T08:47:17Z</time>
      </trkpt>
      <trkpt lat="48.87392" lon="2.01393">
        <ele>160.46</ele>
        <time>2022-09-25T08:47:32Z</time>
      </trkpt>
      <trkpt lat="48.87394" lon="2.01378">
        <ele>160.07</ele>
        <time>2022-09-25T08:47:43Z</time>
      </trkpt>
      <trkpt lat="48.874" lon="2.01357">
        <ele>160.36</ele>
        <time>2022-09-25T08:47:58Z</time>
      </trkpt>
      <trkpt lat="48.87405" lon="2.01332">
        <ele>160.14</ele>
        <time>2022-09-25T08:48:13Z</time>
      </trkpt>
      <trkpt lat="48.87412" lon="2.01314">
        <ele>160.07</ele>
        <time>2022-09-25T08:48:30Z</time>
      </trkpt>
      <trkpt lat="48.87418" lon="2.01297">
        <ele>160.26</ele>
        <time>2022-09-25T08:48:42Z</time>
      </trkpt>
      <trkpt lat="48.87424" lon="2.01268">
        <ele>160.67</ele>
        <time>2022-09-25T08:48:59Z</time>
      </trkpt>
      <trkpt lat="48.87424" lon="2.01261">
        <ele>159.95</ele>
        <time>2022-09-25T08:49:04Z</time>
      </trkpt>
      <trkpt lat="48.87427" lon="2.01244">
        <ele>160.52</ele>
        <time>2022-09-25T08:49:15Z</time>
      </trkpt>
      <trkpt lat="48.87432" lon="2.0122">
        <ele>160.48</ele>
        <time>2022-09-25T08:49:32Z</time>
      </trkpt>
      <trkpt lat="48.8744" lon="2.01198">
        <ele>159.76</ele>
        <time>2022-09-25T08:49:48Z</time>
      </trkpt>
      <trkpt lat="48.87446" lon="2.01171">
        <ele>160.27</ele>
        <time>2022-09-25T08:50:02Z</time>
      </trkpt>
      <trkpt lat="48.87447" lon="2.01154">
        <ele>160.7</ele>
        <time>2022-09-25T08:50:13Z</time>
      </trkpt>
      <trkpt lat="48.87451" lon="2.01144">
        <ele>160.68</ele>
        <time>2022-09-25T08:50:22Z</time>
      </trkpt>
      <trkpt lat="48.87455" lon="2.01124">
        <ele>159.57</ele>
        <time>2022-09-25T08:50:36Z</time>
      </trkpt>
      <trkpt lat="48.87455" lon="2.01121">
        <ele>160</ele>
        <time>2022-09-25T08:50:38Z</time>
      </trkpt>
      <trkpt lat="48.87458" lon="2.01101">
        <ele>159.88</ele>
        <time>2022-09-25T08:50:49Z</time>
      </trkpt>
      <trkpt lat="48.87465" lon="2.01079">
        <ele>159.71</ele>
        <time>2022-09-25T08:51:00Z</time>
      </trkpt>
      <trkpt lat="48.87468" lon="2.01061">
        <ele>160.19</ele>
        <time>2022-09-25T08:51:11Z</time>
      </trkpt>
      <trkpt lat="48.87472" lon="2.01044">
        <ele>160.56</ele>
        <time>2022-09-25T08:51:20Z</time>
      </trkpt>
      <trkpt lat="48.87477" lon="2.01032">
        <ele>160.23</ele>
        <time>2022-09-25T08:51:29Z</time>
      </trkpt>
      <trkpt lat="48.87483" lon="2.01015">
        <ele>160.37</ele>
        <time>2022-09-25T08:51:38Z</time>
      </trkpt>
      <trkpt lat="48.87488" lon="2.01003">
        <ele>160.02</ele>
        <time>2022-09-25T08:51:49Z</time>
      </trkpt>
      <trkpt lat="48.87491" lon="2.00969">
        <ele>159.63</ele>
        <time>2022-09-25T08:52:07Z</time>
      </trkpt>
      <trkpt lat="48.87499" lon="2.00938">
        <ele>159.98</ele>
        <time>2022-09-25T08:52:24Z</time>
      </trkpt>
      <trkpt lat="48.87505" lon="2.00916">
        <ele>158.92</ele>
        <time>2022-09-25T08:52:35Z</time>
      </trkpt>
      <trkpt lat="48.87507" lon="2.00907">
        <ele>158.96</ele>
        <time>2022-09-25T08:52:40Z</time>
      </trkpt>
      <trkpt lat="48.87513" lon="2.0088">
        <ele>158.82</ele>
        <time>2022-09-25T08:52:52Z</time>
      </trkpt>
      <trkpt lat="48.8752" lon="2.00856">
        <ele>158.52</ele>
        <time>2022-09-25T08:53:08Z</time>
      </trkpt>
      <trkpt lat="48.87526" lon="2.00833">
        <ele>158.71</ele>
        <time>2022-09-25T08:53:21Z</time>
      </trkpt>
      <trkpt lat="48.8753" lon="2.00808">
        <ele>158.03</ele>
        <time>2022-09-25T08:53:33Z</time>
      </trkpt>
      <trkpt lat="48.87532" lon="2.00797">
        <ele>158.34</ele>
        <time>2022-09-25T08:53:39Z</time>
      </trkpt>
      <trkpt lat="48.87534" lon="2.00792">
        <ele>158.59</ele>
        <time>2022-09-25T08:53:42Z</time>
      </trkpt>
      <trkpt lat="48.87534" lon="2.00783">
        <ele>157.95</ele>
        <time>2022-09-25T08:53:47Z</time>
      </trkpt>
      <trkpt lat="48.87535" lon="2.00778">
        <ele>157.87</ele>
        <time>2022-09-25T08:53:50Z</time>
      </trkpt>
      <trkpt lat="48.87542" lon="2.00762">
        <ele>157.18</ele>
        <time>2022-09-25T08:54:00Z</time>
      </trkpt>
      <trkpt lat="48.87545" lon="2.00753">
        <ele>157.17</ele>
        <time>2022-09-25T08:54:05Z</time>
      </trkpt>
      <trkpt lat="48.87546" lon="2.00746">
        <ele>157.67</ele>
        <time>2022-09-25T08:54:08Z</time>
      </trkpt>
      <trkpt lat="48.87547" lon="2.00743">
        <ele>157.47</ele>
        <time>2022-09-25T08:54:10Z</time>
      </trkpt>
      <trkpt lat="48.87548" lon="2.00739">
        <ele>157.48</ele>
        <time>2022-09-25T08:54:12Z</time>
      </trkpt>
      <trkpt lat="48.8755" lon="2.00728">
        <ele>157.36</ele>
        <time>2022-09-25T08:54:17Z</time>
      </trkpt>
      <trkpt lat="48.87552" lon="2.00722">
        <ele>157.35</ele>
        <time>2022-09-25T08:54:20Z</time>
      </trkpt>
      <trkpt lat="48.87555" lon="2.00699">
        <ele>157.12</ele>
        <time>2022-09-25T08:54:33Z</time>
      </trkpt>
      <trkpt lat="48.87561" lon="2.00686">
        <ele>157.03</ele>
        <time>2022-09-25T08:54:43Z</time>
      </trkpt>
      <trkpt lat="48.87562" lon="2.00682">
        <ele>156.83</ele>
        <time>2022-09-25T08:54:46Z</time>
      </trkpt>
      <trkpt lat="48.87566" lon="2.0066">
        <ele>157.22</ele>
        <time>2022-09-25T08:54:57Z</time>
      </trkpt>
      <trkpt lat="48.87567" lon="2.00651">
        <ele>156.68</ele>
        <time>2022-09-25T08:55:01Z</time>
      </trkpt>
      <trkpt lat="48.87575" lon="2.00623">
        <ele>156.16</ele>
        <time>2022-09-25T08:55:16Z</time>
      </trkpt>
      <trkpt lat="48.8758" lon="2.00612">
        <ele>156.03</ele>
        <time>2022-09-25T08:55:23Z</time>
      </trkpt>
      <trkpt lat="48.87583" lon="2.00601">
        <ele>156.01</ele>
        <time>2022-09-25T08:55:29Z</time>
      </trkpt>
      <trkpt lat="48.87588" lon="2.00579">
        <ele>155.78</ele>
        <time>2022-09-25T08:55:41Z</time>
      </trkpt>
      <trkpt lat="48.87589" lon="2.00577">
        <ele>155.7</ele>
        <time>2022-09-25T08:55:43Z</time>
      </trkpt>
      <trkpt lat="48.87591" lon="2.00572">
        <ele>155.7</ele>
        <time>2022-09-25T08:55:47Z</time>
      </trkpt>
      <trkpt lat="48.87594" lon="2.0056">
        <ele>155.77</ele>
        <time>2022-09-25T08:55:54Z</time>
      </trkpt>
      <trkpt lat="48.87595" lon="2.00552">
        <ele>155.86</ele>
        <time>2022-09-25T08:55:59Z</time>
      </trkpt>
      <trkpt lat="48.87598" lon="2.00529">
        <ele>155.08</ele>
        <time>2022-09-25T08:56:11Z</time>
      </trkpt>
      <trkpt lat="48.87599" lon="2.00521">
        <ele>155.11</ele>
        <time>2022-09-25T08:56:15Z</time>
      </trkpt>
      <trkpt lat="48.876" lon="2.00516">
        <ele>155.04</ele>
        <time>2022-09-25T08:56:18Z</time>
      </trkpt>
      <trkpt lat="48.87604" lon="2.00499">
        <ele>154.63</ele>
        <time>2022-09-25T08:56:30Z</time>
      </trkpt>
      <trkpt lat="48.87609" lon="2.00479">
        <ele>153.08</ele>
        <time>2022-09-25T08:56:44Z</time>
      </trkpt>
      <trkpt lat="48.87612" lon="2.00467">
        <ele>152.91</ele>
        <time>2022-09-25T08:56:51Z</time>
      </trkpt>
      <trkpt lat="48.87615" lon="2.00457">
        <ele>152.45</ele>
        <time>2022-09-25T08:56:56Z</time>
      </trkpt>
      <trkpt lat="48.87617" lon="2.00445">
        <ele>151.63</ele>
        <time>2022-09-25T08:57:04Z</time>
      </trkpt>
      <trkpt lat="48.8762" lon="2.00436">
        <ele>151.64</ele>
        <time>2022-09-25T08:57:09Z</time>
      </trkpt>
      <trkpt lat="48.87621" lon="2.00417">
        <ele>151.6</ele>
        <time>2022-09-25T08:57:18Z</time>
      </trkpt>
      <trkpt lat="48.87627" lon="2.00394">
        <ele>152.65</ele>
        <time>2022-09-25T08:57:30Z</time>
      </trkpt>
      <trkpt lat="48.8763" lon="2.00389">
        <ele>153.1</ele>
        <time>2022-09-25T08:57:35Z</time>
      </trkpt>
      <trkpt lat="48.87636" lon="2.0037">
        <ele>153.71</ele>
        <time>2022-09-25T08:57:46Z</time>
      </trkpt>
      <trkpt lat="48.87642" lon="2.00349">
        <ele>154.59</ele>
        <time>2022-09-25T08:57:58Z</time>
      </trkpt>
      <trkpt lat="48.87644" lon="2.00339">
        <ele>155.07</ele>
        <time>2022-09-25T08:58:04Z</time>
      </trkpt>
      <trkpt lat="48.87645" lon="2.00336">
        <ele>154.25</ele>
        <time>2022-09-25T08:58:06Z</time>
      </trkpt>
      <trkpt lat="48.87649" lon="2.00312">
        <ele>154.98</ele>
        <time>2022-09-25T08:58:19Z</time>
      </trkpt>
      <trkpt lat="48.87655" lon="2.00293">
        <ele>155.38</ele>
        <time>2022-09-25T08:58:29Z</time>
      </trkpt>
      <trkpt lat="48.87658" lon="2.00279">
        <ele>155</ele>
        <time>2022-09-25T08:58:41Z</time>
      </trkpt>
      <trkpt lat="48.87657" lon="2.00277">
        <ele>155.64</ele>
        <time>2022-09-25T08:58:55Z</time>
      </trkpt>
      <trkpt lat="48.87659" lon="2.00275">
        <ele>156.06</ele>
        <time>2022-09-25T08:59:05Z</time>
      </trkpt>
      <trkpt lat="48.87664" lon="2.00257">
        <ele>155.93</ele>
        <time>2022-09-25T08:59:21Z</time>
      </trkpt>
      <trkpt lat="48.87671" lon="2.00237">
        <ele>156.2</ele>
        <time>2022-09-25T08:59:35Z</time>
      </trkpt>
      <trkpt lat="48.87677" lon="2.00215">
        <ele>156.06</ele>
        <time>2022-09-25T08:59:49Z</time>
      </trkpt>
      <trkpt lat="48.87685" lon="2.00188">
        <ele>156.53</ele>
        <time>2022-09-25T09:00:07Z</time>
      </trkpt>
      <trkpt lat="48.8769" lon="2.00162">
        <ele>156.79</ele>
        <time>2022-09-25T09:00:24Z</time>
      </trkpt>
      <trkpt lat="48.87692" lon="2.00142">
        <ele>157.37</ele>
        <time>2022-09-25T09:00:36Z</time>
      </trkpt>
      <trkpt lat="48.87699" lon="2.00114">
        <ele>157.46</ele>
        <time>2022-09-25T09:00:53Z</time>
      </trkpt>
      <trkpt lat="48.87704" lon="2.00096">
        <ele>157.59</ele>
        <time>2022-09-25T09:01:06Z</time>
      </trkpt>
      <trkpt lat="48.87709" lon="2.00071">
        <ele>157.23</ele>
        <time>2022-09-25T09:01:22Z</time>
      </trkpt>
      <trkpt lat="48.87716" lon="2.00043">
        <ele>158.01</ele>
        <time>2022-09-25T09:01:38Z</time>
      </trkpt>
      <trkpt lat="48.87723" lon="2.00027">
        <ele>157.95</ele>
        <time>2022-09-25T09:01:50Z</time>
      </trkpt>
      <trkpt lat="48.87729" lon="2.00014">
        <ele>157.8</ele>
        <time>2022-09-25T09:02:00Z</time>
      </trkpt>
      <trkpt lat="48.87739" lon="1.99992">
        <ele>157.54</ele>
        <time>2022-09-25T09:02:17Z</time>
      </trkpt>
      <trkpt lat="48.87751" lon="1.99978">
        <ele>157.93</ele>
        <time>2022-09-25T09:02:31Z</time>
      </trkpt>
      <trkpt lat="48.87766" lon="1.9996">
        <ele>157.71</ele>
        <time>2022-09-25T09:02:49Z</time>
      </trkpt>
      <trkpt lat="48.87782" lon="1.99944">
        <ele>158.36</ele>
        <time>2022-09-25T09:03:04Z</time>
      </trkpt>
      <trkpt lat="48.878" lon="1.99927">
        <ele>158</ele>
        <time>2022-09-25T09:03:23Z</time>
      </trkpt>
      <trkpt lat="48.87813" lon="1.99913">
        <ele>157.92</ele>
        <time>2022-09-25T09:03:37Z</time>
      </trkpt>
      <trkpt lat="48.87822" lon="1.99903">
        <ele>157.45</ele>
        <time>2022-09-25T09:03:47Z</time>
      </trkpt>
      <trkpt lat="48.87825" lon="1.999">
        <ele>157.66</ele>
        <time>2022-09-25T09:03:50Z</time>
      </trkpt>
      <trkpt lat="48.87836" lon="1.99887">
        <ele>157.79</ele>
        <time>2022-09-25T09:04:01Z</time>
      </trkpt>
      <trkpt lat="48.87845" lon="1.99876">
        <ele>157.91</ele>
        <time>2022-09-25T09:04:12Z</time>
      </trkpt>
      <trkpt lat="48.87862" lon="1.99861">
        <ele>157.21</ele>
        <time>2022-09-25T09:04:29Z</time>
      </trkpt>
      <trkpt lat="48.87879" lon="1.99848">
        <ele>157.07</ele>
        <time>2022-09-25T09:04:45Z</time>
      </trkpt>
      <trkpt lat="48.87894" lon="1.99829">
        <ele>157.22</ele>
        <time>2022-09-25T09:05:02Z</time>
      </trkpt>
      <trkpt lat="48.87908" lon="1.99813">
        <ele>156.82</ele>
        <time>2022-09-25T09:05:18Z</time>
      </trkpt>
      <trkpt lat="48.8791" lon="1.99812">
        <ele>156.97</ele>
        <time>2022-09-25T09:05:19Z</time>
      </trkpt>
      <trkpt lat="48.87924" lon="1.99793">
        <ele>156.78</ele>
        <time>2022-09-25T09:05:37Z</time>
      </trkpt>
      <trkpt lat="48.87927" lon="1.99793">
        <ele>156.54</ele>
        <time>2022-09-25T09:05:42Z</time>
      </trkpt>
      <trkpt lat="48.87929" lon="1.99792">
        <ele>157.27</ele>
        <time>2022-09-25T09:05:49Z</time>
      </trkpt>
      <trkpt lat="48.87939" lon="1.99786">
        <ele>156.91</ele>
        <time>2022-09-25T09:06:01Z</time>
      </trkpt>
      <trkpt lat="48.8795" lon="1.99776">
        <ele>156.76</ele>
        <time>2022-09-25T09:06:16Z</time>
      </trkpt>
      <trkpt lat="48.87961" lon="1.99764">
        <ele>155.94</ele>
        <time>2022-09-25T09:06:32Z</time>
      </trkpt>
      <trkpt lat="48.87975" lon="1.99751">
        <ele>155.81</ele>
        <time>2022-09-25T09:06:49Z</time>
      </trkpt>
      <trkpt lat="48.87987" lon="1.99741">
        <ele>156.45</ele>
        <time>2022-09-25T09:07:01Z</time>
      </trkpt>
      <trkpt lat="48.87999" lon="1.99728">
        <ele>155.93</ele>
        <time>2022-09-25T09:07:15Z</time>
      </trkpt>
      <trkpt lat="48.88" lon="1.99727">
        <ele>155.63</ele>
        <time>2022-09-25T09:07:16Z</time>
      </trkpt>
      <trkpt lat="48.8801" lon="1.99714">
        <ele>156.19</ele>
        <time>2022-09-25T09:07:29Z</time>
      </trkpt>
      <trkpt lat="48.88012" lon="1.99709">
        <ele>156.16</ele>
        <time>2022-09-25T09:07:41Z</time>
      </trkpt>
      <trkpt lat="48.88018" lon="1.99708">
        <ele>155.34</ele>
        <time>2022-09-25T09:07:57Z</time>
      </trkpt>
      <trkpt lat="48.88034" lon="1.99693">
        <ele>155.59</ele>
        <time>2022-09-25T09:08:14Z</time>
      </trkpt>
      <trkpt lat="48.88049" lon="1.99679">
        <ele>155.11</ele>
        <time>2022-09-25T09:08:30Z</time>
      </trkpt>
      <trkpt lat="48.88064" lon="1.99663">
        <ele>155.09</ele>
        <time>2022-09-25T09:08:48Z</time>
      </trkpt>
      <trkpt lat="48.8807" lon="1.99657">
        <ele>154.97</ele>
        <time>2022-09-25T09:08:53Z</time>
      </trkpt>
      <trkpt lat="48.88081" lon="1.99643">
        <ele>154.9</ele>
        <time>2022-09-25T09:09:06Z</time>
      </trkpt>
      <trkpt lat="48.88098" lon="1.99622">
        <ele>154.51</ele>
        <time>2022-09-25T09:09:26Z</time>
      </trkpt>
      <trkpt lat="48.88114" lon="1.99607">
        <ele>154.66</ele>
        <time>2022-09-25T09:09:43Z</time>
      </trkpt>
      <trkpt lat="48.88125" lon="1.99597">
        <ele>154.22</ele>
        <time>2022-09-25T09:09:55Z</time>
      </trkpt>
      <trkpt lat="48.88142" lon="1.9958">
        <ele>154.15</ele>
        <time>2022-09-25T09:10:11Z</time>
      </trkpt>
      <trkpt lat="48.88156" lon="1.9957">
        <ele>153.99</ele>
        <time>2022-09-25T09:10:24Z</time>
      </trkpt>
      <trkpt lat="48.88165" lon="1.9957">
        <ele>154.51</ele>
        <time>2022-09-25T09:10:31Z</time>
      </trkpt>
      <trkpt lat="48.88169" lon="1.99569">
        <ele>154.14</ele>
        <time>2022-09-25T09:10:34Z</time>
      </trkpt>
      <trkpt lat="48.88183" lon="1.99557">
        <ele>153.64</ele>
        <time>2022-09-25T09:10:46Z</time>
      </trkpt>
      <trkpt lat="48.88184" lon="1.99556">
        <ele>153.82</ele>
        <time>2022-09-25T09:10:48Z</time>
      </trkpt>
      <trkpt lat="48.88195" lon="1.99562">
        <ele>154.37</ele>
        <time>2022-09-25T09:10:58Z</time>
      </trkpt>
      <trkpt lat="48.88198" lon="1.99564">
        <ele>154.45</ele>
        <time>2022-09-25T09:11:01Z</time>
      </trkpt>
      <trkpt lat="48.88207" lon="1.99575">
        <ele>153.84</ele>
        <time>2022-09-25T09:11:11Z</time>
      </trkpt>
      <trkpt lat="48.88215" lon="1.99586">
        <ele>153.9</ele>
        <time>2022-09-25T09:11:20Z</time>
      </trkpt>
      <trkpt lat="48.88218" lon="1.99588">
        <ele>153.71</ele>
        <time>2022-09-25T09:11:23Z</time>
      </trkpt>
      <trkpt lat="48.88227" lon="1.99606">
        <ele>153.74</ele>
        <time>2022-09-25T09:11:37Z</time>
      </trkpt>
      <trkpt lat="48.8824" lon="1.9962">
        <ele>153.28</ele>
        <time>2022-09-25T09:11:52Z</time>
      </trkpt>
      <trkpt lat="48.88248" lon="1.99633">
        <ele>153.86</ele>
        <time>2022-09-25T09:12:09Z</time>
      </trkpt>
      <trkpt lat="48.88254" lon="1.99643">
        <ele>153.31</ele>
        <time>2022-09-25T09:12:22Z</time>
      </trkpt>
      <trkpt lat="48.88267" lon="1.99661">
        <ele>152.96</ele>
        <time>2022-09-25T09:12:38Z</time>
      </trkpt>
      <trkpt lat="48.88277" lon="1.99672">
        <ele>153.01</ele>
        <time>2022-09-25T09:12:48Z</time>
      </trkpt>
      <trkpt lat="48.88285" lon="1.99684">
        <ele>153.83</ele>
        <time>2022-09-25T09:12:58Z</time>
      </trkpt>
      <trkpt lat="48.8829" lon="1.99679">
        <ele>154.42</ele>
        <time>2022-09-25T09:13:09Z</time>
      </trkpt>
      <trkpt lat="48.88294" lon="1.99667">
        <ele>153.66</ele>
        <time>2022-09-25T09:13:23Z</time>
      </trkpt>
      <trkpt lat="48.88298" lon="1.99652">
        <ele>153.88</ele>
        <time>2022-09-25T09:13:44Z</time>
      </trkpt>
      <trkpt lat="48.88304" lon="1.99639">
        <ele>153.99</ele>
        <time>2022-09-25T09:13:57Z</time>
      </trkpt>
      <trkpt lat="48.8831" lon="1.99628">
        <ele>153.99</ele>
        <time>2022-09-25T09:14:06Z</time>
      </trkpt>
      <trkpt lat="48.88316" lon="1.99612">
        <ele>153.77</ele>
        <time>2022-09-25T09:14:18Z</time>
      </trkpt>
      <trkpt lat="48.88319" lon="1.99601">
        <ele>153.61</ele>
        <time>2022-09-25T09:14:25Z</time>
      </trkpt>
      <trkpt lat="48.88332" lon="1.99578">
        <ele>153.3</ele>
        <time>2022-09-25T09:14:42Z</time>
      </trkpt>
      <trkpt lat="48.88335" lon="1.99572">
        <ele>153.87</ele>
        <time>2022-09-25T09:14:50Z</time>
      </trkpt>
      <trkpt lat="48.88341" lon="1.99557">
        <ele>153.72</ele>
        <time>2022-09-25T09:15:00Z</time>
      </trkpt>
      <trkpt lat="48.88354" lon="1.9953">
        <ele>153.24</ele>
        <time>2022-09-25T09:15:18Z</time>
      </trkpt>
      <trkpt lat="48.88362" lon="1.99508">
        <ele>153.27</ele>
        <time>2022-09-25T09:15:34Z</time>
      </trkpt>
      <trkpt lat="48.8837" lon="1.99482">
        <ele>153.17</ele>
        <time>2022-09-25T09:15:50Z</time>
      </trkpt>
      <trkpt lat="48.88385" lon="1.99452">
        <ele>152.94</ele>
        <time>2022-09-25T09:16:08Z</time>
      </trkpt>
      <trkpt lat="48.8839" lon="1.99434">
        <ele>153.22</ele>
        <time>2022-09-25T09:16:22Z</time>
      </trkpt>
      <trkpt lat="48.88399" lon="1.99421">
        <ele>152.99</ele>
        <time>2022-09-25T09:16:36Z</time>
      </trkpt>
      <trkpt lat="48.88402" lon="1.99411">
        <ele>152.76</ele>
        <time>2022-09-25T09:16:43Z</time>
      </trkpt>
      <trkpt lat="48.8841" lon="1.99396">
        <ele>153.36</ele>
        <time>2022-09-25T09:16:55Z</time>
      </trkpt>
      <trkpt lat="48.88413" lon="1.9939">
        <ele>153.12</ele>
        <time>2022-09-25T09:17:00Z</time>
      </trkpt>
      <trkpt lat="48.8842" lon="1.99376">
        <ele>152.63</ele>
        <time>2022-09-25T09:17:12Z</time>
      </trkpt>
      <trkpt lat="48.8843" lon="1.99349">
        <ele>152.58</ele>
        <time>2022-09-25T09:17:29Z</time>
      </trkpt>
      <trkpt lat="48.88437" lon="1.99341">
        <ele>152.84</ele>
        <time>2022-09-25T09:17:45Z</time>
      </trkpt>
      <trkpt lat="48.88439" lon="1.99322">
        <ele>152.87</ele>
        <time>2022-09-25T09:18:00Z</time>
      </trkpt>
      <trkpt lat="48.88439" lon="1.99319">
        <ele>152.87</ele>
        <time>2022-09-25T09:18:02Z</time>
      </trkpt>
      <trkpt lat="48.88443" lon="1.99303">
        <ele>152.71</ele>
        <time>2022-09-25T09:18:15Z</time>
      </trkpt>
      <trkpt lat="48.88451" lon="1.99288">
        <ele>152.35</ele>
        <time>2022-09-25T09:18:29Z</time>
      </trkpt>
      <trkpt lat="48.88458" lon="1.99278">
        <ele>152.24</ele>
        <time>2022-09-25T09:18:43Z</time>
      </trkpt>
      <trkpt lat="48.88466" lon="1.9926">
        <ele>151.99</ele>
        <time>2022-09-25T09:18:58Z</time>
      </trkpt>
      <trkpt lat="48.8847" lon="1.99253">
        <ele>152.28</ele>
        <time>2022-09-25T09:19:03Z</time>
      </trkpt>
      <trkpt lat="48.88485" lon="1.99228">
        <ele>152.46</ele>
        <time>2022-09-25T09:19:22Z</time>
      </trkpt>
      <trkpt lat="48.88493" lon="1.99212">
        <ele>152.58</ele>
        <time>2022-09-25T09:19:35Z</time>
      </trkpt>
      <trkpt lat="48.885" lon="1.99188">
        <ele>152.67</ele>
        <time>2022-09-25T09:19:51Z</time>
      </trkpt>
      <trkpt lat="48.88507" lon="1.99177">
        <ele>152.03</ele>
        <time>2022-09-25T09:20:00Z</time>
      </trkpt>
      <trkpt lat="48.88512" lon="1.99164">
        <ele>152.38</ele>
        <time>2022-09-25T09:20:10Z</time>
      </trkpt>
      <trkpt lat="48.88515" lon="1.99146">
        <ele>152.61</ele>
        <time>2022-09-25T09:20:24Z</time>
      </trkpt>
      <trkpt lat="48.88518" lon="1.99137">
        <ele>152.12</ele>
        <time>2022-09-25T09:20:30Z</time>
      </trkpt>
      <trkpt lat="48.88531" lon="1.99107">
        <ele>152.48</ele>
        <time>2022-09-25T09:20:47Z</time>
      </trkpt>
      <trkpt lat="48.88536" lon="1.99097">
        <ele>152.17</ele>
        <time>2022-09-25T09:20:58Z</time>
      </trkpt>
      <trkpt lat="48.88539" lon="1.99088">
        <ele>151.89</ele>
        <time>2022-09-25T09:21:11Z</time>
      </trkpt>
      <trkpt lat="48.88539" lon="1.99083">
        <ele>152.1</ele>
        <time>2022-09-25T09:21:17Z</time>
      </trkpt>
      <trkpt lat="48.88545" lon="1.99069">
        <ele>151.51</ele>
        <time>2022-09-25T09:21:37Z</time>
      </trkpt>
      <trkpt lat="48.88555" lon="1.99056">
        <ele>151.81</ele>
        <time>2022-09-25T09:21:51Z</time>
      </trkpt>
      <trkpt lat="48.88564" lon="1.99045">
        <ele>152.55</ele>
        <time>2022-09-25T09:22:04Z</time>
      </trkpt>
      <trkpt lat="48.8857" lon="1.99047">
        <ele>152.05</ele>
        <time>2022-09-25T09:22:27Z</time>
      </trkpt>
      <trkpt lat="48.88582" lon="1.99051">
        <ele>151.86</ele>
        <time>2022-09-25T09:22:42Z</time>
      </trkpt>
      <trkpt lat="48.88591" lon="1.99061">
        <ele>151.9</ele>
        <time>2022-09-25T09:22:59Z</time>
      </trkpt>
      <trkpt lat="48.88596" lon="1.99078">
        <ele>153.02</ele>
        <time>2022-09-25T09:23:15Z</time>
      </trkpt>
      <trkpt lat="48.886" lon="1.99088">
        <ele>153.29</ele>
        <time>2022-09-25T09:23:32Z</time>
      </trkpt>
      <trkpt lat="48.88606" lon="1.99098">
        <ele>152.92</ele>
        <time>2022-09-25T09:23:50Z</time>
      </trkpt>
      <trkpt lat="48.88612" lon="1.99108">
        <ele>152.48</ele>
        <time>2022-09-25T09:24:04Z</time>
      </trkpt>
      <trkpt lat="48.88615" lon="1.99117">
        <ele>153.19</ele>
        <time>2022-09-25T09:24:20Z</time>
      </trkpt>
      <trkpt lat="48.88617" lon="1.99125">
        <ele>153.35</ele>
        <time>2022-09-25T09:24:38Z</time>
      </trkpt>
      <trkpt lat="48.88627" lon="1.99139">
        <ele>152.97</ele>
        <time>2022-09-25T09:24:54Z</time>
      </trkpt>
      <trkpt lat="48.8863" lon="1.99144">
        <ele>152.98</ele>
        <time>2022-09-25T09:24:58Z</time>
      </trkpt>
      <trkpt lat="48.88641" lon="1.99158">
        <ele>154</ele>
        <time>2022-09-25T09:25:14Z</time>
      </trkpt>
      <trkpt lat="48.88654" lon="1.99174">
        <ele>153.05</ele>
        <time>2022-09-25T09:25:31Z</time>
      </trkpt>
      <trkpt lat="48.88663" lon="1.99186">
        <ele>153.66</ele>
        <time>2022-09-25T09:25:44Z</time>
      </trkpt>
      <trkpt lat="48.88676" lon="1.99197">
        <ele>152.8</ele>
        <time>2022-09-25T09:25:56Z</time>
      </trkpt>
      <trkpt lat="48.88682" lon="1.992">
        <ele>152.93</ele>
        <time>2022-09-25T09:26:02Z</time>
      </trkpt>
      <trkpt lat="48.88692" lon="1.99208">
        <ele>152.87</ele>
        <time>2022-09-25T09:26:14Z</time>
      </trkpt>
      <trkpt lat="48.88706" lon="1.99214">
        <ele>152.41</ele>
        <time>2022-09-25T09:26:28Z</time>
      </trkpt>
      <trkpt lat="48.88723" lon="1.9923">
        <ele>152.13</ele>
        <time>2022-09-25T09:26:45Z</time>
      </trkpt>
      <trkpt lat="48.88735" lon="1.9924">
        <ele>151.47</ele>
        <time>2022-09-25T09:26:59Z</time>
      </trkpt>
      <trkpt lat="48.8874" lon="1.9925">
        <ele>151.36</ele>
        <time>2022-09-25T09:27:06Z</time>
      </trkpt>
      <trkpt lat="48.88753" lon="1.99264">
        <ele>151.72</ele>
        <time>2022-09-25T09:27:20Z</time>
      </trkpt>
      <trkpt lat="48.88767" lon="1.99274">
        <ele>150.88</ele>
        <time>2022-09-25T09:27:38Z</time>
      </trkpt>
      <trkpt lat="48.88776" lon="1.99278">
        <ele>150.04</ele>
        <time>2022-09-25T09:27:52Z</time>
      </trkpt>
      <trkpt lat="48.88794" lon="1.99276">
        <ele>148.73</ele>
        <time>2022-09-25T09:28:08Z</time>
      </trkpt>
      <trkpt lat="48.88809" lon="1.99282">
        <ele>148.5</ele>
        <time>2022-09-25T09:28:23Z</time>
      </trkpt>
      <trkpt lat="48.88831" lon="1.99298">
        <ele>147.12</ele>
        <time>2022-09-25T09:28:41Z</time>
      </trkpt>
      <trkpt lat="48.88841" lon="1.99315">
        <ele>147.07</ele>
        <time>2022-09-25T09:28:56Z</time>
      </trkpt>
      <trkpt lat="48.88845" lon="1.99319">
        <ele>147.5</ele>
        <time>2022-09-25T09:28:59Z</time>
      </trkpt>
      <trkpt lat="48.88854" lon="1.99322">
        <ele>146.08</ele>
        <time>2022-09-25T09:29:09Z</time>
      </trkpt>
      <trkpt lat="48.88861" lon="1.99337">
        <ele>146.07</ele>
        <time>2022-09-25T09:29:24Z</time>
      </trkpt>
      <trkpt lat="48.88862" lon="1.99339">
        <ele>146.07</ele>
        <time>2022-09-25T09:29:25Z</time>
      </trkpt>
      <trkpt lat="48.88863" lon="1.99359">
        <ele>146.54</ele>
        <time>2022-09-25T09:29:40Z</time>
      </trkpt>
      <trkpt lat="48.88865" lon="1.99379">
        <ele>147.07</ele>
        <time>2022-09-25T09:29:56Z</time>
      </trkpt>
      <trkpt lat="48.88865" lon="1.99381">
        <ele>147.27</ele>
        <time>2022-09-25T09:29:57Z</time>
      </trkpt>
      <trkpt lat="48.88875" lon="1.99403">
        <ele>146.73</ele>
        <time>2022-09-25T09:30:14Z</time>
      </trkpt>
      <trkpt lat="48.88876" lon="1.99415">
        <ele>146.73</ele>
        <time>2022-09-25T09:30:23Z</time>
      </trkpt>
      <trkpt lat="48.88874" lon="1.99435">
        <ele>146.96</ele>
        <time>2022-09-25T09:30:34Z</time>
      </trkpt>
      <trkpt lat="48.88879" lon="1.99446">
        <ele>146.5</ele>
        <time>2022-09-25T09:30:48Z</time>
      </trkpt>
      <trkpt lat="48.88882" lon="1.99449">
        <ele>146.65</ele>
        <time>2022-09-25T09:31:09Z</time>
      </trkpt>
      <trkpt lat="48.88881" lon="1.99451">
        <ele>146.91</ele>
        <time>2022-09-25T09:31:25Z</time>
      </trkpt>
      <trkpt lat="48.8888" lon="1.99453">
        <ele>146.63</ele>
        <time>2022-09-25T09:31:27Z</time>
      </trkpt>
      <trkpt lat="48.88879" lon="1.99461">
        <ele>147.58</ele>
        <time>2022-09-25T09:31:31Z</time>
      </trkpt>
      <trkpt lat="48.88875" lon="1.99472">
        <ele>147.51</ele>
        <time>2022-09-25T09:31:36Z</time>
      </trkpt>
      <trkpt lat="48.88875" lon="1.9949">
        <ele>147.16</ele>
        <time>2022-09-25T09:31:49Z</time>
      </trkpt>
      <trkpt lat="48.88881" lon="1.99521">
        <ele>146.35</ele>
        <time>2022-09-25T09:32:07Z</time>
      </trkpt>
      <trkpt lat="48.88878" lon="1.9956">
        <ele>146.99</ele>
        <time>2022-09-25T09:32:25Z</time>
      </trkpt>
      <trkpt lat="48.88878" lon="1.99602">
        <ele>147.23</ele>
        <time>2022-09-25T09:32:37Z</time>
      </trkpt>
      <trkpt lat="48.88883" lon="1.99617">
        <ele>147.17</ele>
        <time>2022-09-25T09:32:45Z</time>
      </trkpt>
      <trkpt lat="48.88887" lon="1.99625">
        <ele>146.9</ele>
        <time>2022-09-25T09:32:50Z</time>
      </trkpt>
      <trkpt lat="48.88887" lon="1.99645">
        <ele>147.55</ele>
        <time>2022-09-25T09:33:06Z</time>
      </trkpt>
      <trkpt lat="48.88888" lon="1.99665">
        <ele>147.17</ele>
        <time>2022-09-25T09:33:21Z</time>
      </trkpt>
      <trkpt lat="48.88888" lon="1.99669">
        <ele>146.63</ele>
        <time>2022-09-25T09:33:24Z</time>
      </trkpt>
      <trkpt lat="48.88887" lon="1.99671">
        <ele>147.02</ele>
        <time>2022-09-25T09:33:41Z</time>
      </trkpt>
      <trkpt lat="48.88888" lon="1.99676">
        <ele>146.67</ele>
        <time>2022-09-25T09:34:00Z</time>
      </trkpt>
      <trkpt lat="48.88896" lon="1.997">
        <ele>146.62</ele>
        <time>2022-09-25T09:34:15Z</time>
      </trkpt>
      <trkpt lat="48.88897" lon="1.99703">
        <ele>146.52</ele>
        <time>2022-09-25T09:34:27Z</time>
      </trkpt>
      <trkpt lat="48.889" lon="1.99715">
        <ele>146.83</ele>
        <time>2022-09-25T09:34:42Z</time>
      </trkpt>
      <trkpt lat="48.88909" lon="1.99735">
        <ele>146.97</ele>
        <time>2022-09-25T09:35:00Z</time>
      </trkpt>
      <trkpt lat="48.88918" lon="1.99752">
        <ele>146.76</ele>
        <time>2022-09-25T09:35:18Z</time>
      </trkpt>
      <trkpt lat="48.88925" lon="1.99759">
        <ele>146.27</ele>
        <time>2022-09-25T09:35:30Z</time>
      </trkpt>
      <trkpt lat="48.8894" lon="1.99766">
        <ele>145.5</ele>
        <time>2022-09-25T09:35:46Z</time>
      </trkpt>
      <trkpt lat="48.88956" lon="1.99774">
        <ele>145.54</ele>
        <time>2022-09-25T09:36:00Z</time>
      </trkpt>
      <trkpt lat="48.88973" lon="1.99787">
        <ele>145.01</ele>
        <time>2022-09-25T09:36:16Z</time>
      </trkpt>
      <trkpt lat="48.88975" lon="1.99791">
        <ele>145.02</ele>
        <time>2022-09-25T09:36:18Z</time>
      </trkpt>
      <trkpt lat="48.88984" lon="1.99799">
        <ele>144.57</ele>
        <time>2022-09-25T09:36:26Z</time>
      </trkpt>
      <trkpt lat="48.88997" lon="1.99816">
        <ele>144.14</ele>
        <time>2022-09-25T09:36:38Z</time>
      </trkpt>
      <trkpt lat="48.88997" lon="1.99836">
        <ele>144.37</ele>
        <time>2022-09-25T09:36:54Z</time>
      </trkpt>
      <trkpt lat="48.88997" lon="1.99844">
        <ele>143.74</ele>
        <time>2022-09-25T09:36:59Z</time>
      </trkpt>
      <trkpt lat="48.88998" lon="1.99875">
        <ele>144.42</ele>
        <time>2022-09-25T09:37:16Z</time>
      </trkpt>
      <trkpt lat="48.89002" lon="1.99899">
        <ele>144.3</ele>
        <time>2022-09-25T09:37:32Z</time>
      </trkpt>
      <trkpt lat="48.89004" lon="1.99903">
        <ele>144.47</ele>
        <time>2022-09-25T09:37:34Z</time>
      </trkpt>
      <trkpt lat="48.89011" lon="1.99912">
        <ele>143.8</ele>
        <time>2022-09-25T09:37:40Z</time>
      </trkpt>
      <trkpt lat="48.89019" lon="1.99913">
        <ele>143.32</ele>
        <time>2022-09-25T09:37:48Z</time>
      </trkpt>
      <trkpt lat="48.89033" lon="1.99916">
        <ele>142.49</ele>
        <time>2022-09-25T09:38:01Z</time>
      </trkpt>
      <trkpt lat="48.8904" lon="1.9992">
        <ele>142.22</ele>
        <time>2022-09-25T09:38:12Z</time>
      </trkpt>
      <trkpt lat="48.89046" lon="1.99927">
        <ele>142.76</ele>
        <time>2022-09-25T09:38:20Z</time>
      </trkpt>
      <trkpt lat="48.89048" lon="1.99939">
        <ele>141.95</ele>
        <time>2022-09-25T09:38:27Z</time>
      </trkpt>
      <trkpt lat="48.89053" lon="1.99951">
        <ele>142.2</ele>
        <time>2022-09-25T09:38:35Z</time>
      </trkpt>
      <trkpt lat="48.89056" lon="1.99962">
        <ele>141.77</ele>
        <time>2022-09-25T09:38:42Z</time>
      </trkpt>
      <trkpt lat="48.8906" lon="1.99978">
        <ele>140.89</ele>
        <time>2022-09-25T09:38:52Z</time>
      </trkpt>
      <trkpt lat="48.89064" lon="1.99996">
        <ele>140.68</ele>
        <time>2022-09-25T09:39:05Z</time>
      </trkpt>
      <trkpt lat="48.89068" lon="2.00016">
        <ele>139.12</ele>
        <time>2022-09-25T09:39:21Z</time>
      </trkpt>
      <trkpt lat="48.89073" lon="2.0002">
        <ele>137.99</ele>
        <time>2022-09-25T09:39:30Z</time>
      </trkpt>
      <trkpt lat="48.89079" lon="2.00022">
        <ele>137.35</ele>
        <time>2022-09-25T09:39:37Z</time>
      </trkpt>
      <trkpt lat="48.89095" lon="2.00032">
        <ele>135.12</ele>
        <time>2022-09-25T09:39:55Z</time>
      </trkpt>
      <trkpt lat="48.89098" lon="2.00033">
        <ele>134.72</ele>
        <time>2022-09-25T09:39:57Z</time>
      </trkpt>
      <trkpt lat="48.891" lon="2.00035">
        <ele>134.35</ele>
        <time>2022-09-25T09:40:00Z</time>
      </trkpt>
      <trkpt lat="48.89112" lon="2.00046">
        <ele>133.45</ele>
        <time>2022-09-25T09:40:12Z</time>
      </trkpt>
      <trkpt lat="48.89118" lon="2.00051">
        <ele>133.36</ele>
        <time>2022-09-25T09:40:27Z</time>
      </trkpt>
      <trkpt lat="48.89124" lon="2.00063">
        <ele>131.78</ele>
        <time>2022-09-25T09:40:40Z</time>
      </trkpt>
      <trkpt lat="48.89128" lon="2.00078">
        <ele>129.41</ele>
        <time>2022-09-25T09:40:53Z</time>
      </trkpt>
      <trkpt lat="48.89134" lon="2.00091">
        <ele>127.97</ele>
        <time>2022-09-25T09:41:04Z</time>
      </trkpt>
      <trkpt lat="48.89142" lon="2.00106">
        <ele>125.67</ele>
        <time>2022-09-25T09:41:19Z</time>
      </trkpt>
      <trkpt lat="48.89142" lon="2.00107">
        <ele>126.25</ele>
        <time>2022-09-25T09:41:20Z</time>
      </trkpt>
      <trkpt lat="48.89144" lon="2.00121">
        <ele>125.49</ele>
        <time>2022-09-25T09:41:34Z</time>
      </trkpt>
      <trkpt lat="48.8915" lon="2.00135">
        <ele>124.26</ele>
        <time>2022-09-25T09:41:50Z</time>
      </trkpt>
      <trkpt lat="48.89152" lon="2.00137">
        <ele>123.88</ele>
        <time>2022-09-25T09:41:53Z</time>
      </trkpt>
      <trkpt lat="48.89168" lon="2.00147">
        <ele>121.35</ele>
        <time>2022-09-25T09:42:13Z</time>
      </trkpt>
      <trkpt lat="48.8918" lon="2.0016">
        <ele>121.69</ele>
        <time>2022-09-25T09:42:29Z</time>
      </trkpt>
      <trkpt lat="48.89191" lon="2.00169">
        <ele>120.52</ele>
        <time>2022-09-25T09:42:41Z</time>
      </trkpt>
      <trkpt lat="48.892" lon="2.00186">
        <ele>120.85</ele>
        <time>2022-09-25T09:42:55Z</time>
      </trkpt>
      <trkpt lat="48.89205" lon="2.00193">
        <ele>120.98</ele>
        <time>2022-09-25T09:43:06Z</time>
      </trkpt>
      <trkpt lat="48.8921" lon="2.00205">
        <ele>120.98</ele>
        <time>2022-09-25T09:43:23Z</time>
      </trkpt>
      <trkpt lat="48.89219" lon="2.00219">
        <ele>120.19</ele>
        <time>2022-09-25T09:43:39Z</time>
      </trkpt>
      <trkpt lat="48.89227" lon="2.00244">
        <ele>121.05</ele>
        <time>2022-09-25T09:43:56Z</time>
      </trkpt>
      <trkpt lat="48.89231" lon="2.00254">
        <ele>121.08</ele>
        <time>2022-09-25T09:44:01Z</time>
      </trkpt>
      <trkpt lat="48.89235" lon="2.00271">
        <ele>120.45</ele>
        <time>2022-09-25T09:44:12Z</time>
      </trkpt>
      <trkpt lat="48.89234" lon="2.00281">
        <ele>121.29</ele>
        <time>2022-09-25T09:44:21Z</time>
      </trkpt>
      <trkpt lat="48.8923" lon="2.00292">
        <ele>121.41</ele>
        <time>2022-09-25T09:44:32Z</time>
      </trkpt>
      <trkpt lat="48.8923" lon="2.0031">
        <ele>121.09</ele>
        <time>2022-09-25T09:44:44Z</time>
      </trkpt>
      <trkpt lat="48.89222" lon="2.00328">
        <ele>122.98</ele>
        <time>2022-09-25T09:45:00Z</time>
      </trkpt>
      <trkpt lat="48.8921" lon="2.00334">
        <ele>125.57</ele>
        <time>2022-09-25T09:45:15Z</time>
      </trkpt>
      <trkpt lat="48.89203" lon="2.00338">
        <ele>127.21</ele>
        <time>2022-09-25T09:45:26Z</time>
      </trkpt>
      <trkpt lat="48.892" lon="2.00339">
        <ele>128.29</ele>
        <time>2022-09-25T09:45:33Z</time>
      </trkpt>
      <trkpt lat="48.89189" lon="2.00338">
        <ele>129.8</ele>
        <time>2022-09-25T09:45:42Z</time>
      </trkpt>
      <trkpt lat="48.89172" lon="2.0034">
        <ele>132.93</ele>
        <time>2022-09-25T09:45:58Z</time>
      </trkpt>
      <trkpt lat="48.8917" lon="2.00343">
        <ele>132.91</ele>
        <time>2022-09-25T09:46:10Z</time>
      </trkpt>
      <trkpt lat="48.89168" lon="2.00343">
        <ele>133.29</ele>
        <time>2022-09-25T09:46:29Z</time>
      </trkpt>
      <trkpt lat="48.8916" lon="2.00339">
        <ele>134.21</ele>
        <time>2022-09-25T09:46:47Z</time>
      </trkpt>
      <trkpt lat="48.89159" lon="2.0034">
        <ele>135.65</ele>
        <time>2022-09-25T09:46:49Z</time>
      </trkpt>
      <trkpt lat="48.89154" lon="2.00343">
        <ele>138.11</ele>
        <time>2022-09-25T09:47:05Z</time>
      </trkpt>
      <trkpt lat="48.89149" lon="2.00344">
        <ele>140.18</ele>
        <time>2022-09-25T09:47:17Z</time>
      </trkpt>
      <trkpt lat="48.89144" lon="2.00343">
        <ele>141.1</ele>
        <time>2022-09-25T09:47:23Z</time>
      </trkpt>
      <trkpt lat="48.89131" lon="2.0034">
        <ele>142.6</ele>
        <time>2022-09-25T09:47:42Z</time>
      </trkpt>
      <trkpt lat="48.89124" lon="2.00341">
        <ele>144.32</ele>
        <time>2022-09-25T09:47:57Z</time>
      </trkpt>
      <trkpt lat="48.89123" lon="2.0034">
        <ele>144.46</ele>
        <time>2022-09-25T09:47:59Z</time>
      </trkpt>
      <trkpt lat="48.89117" lon="2.00343">
        <ele>145.77</ele>
        <time>2022-09-25T09:48:08Z</time>
      </trkpt>
      <trkpt lat="48.89116" lon="2.00343">
        <ele>145.47</ele>
        <time>2022-09-25T09:48:27Z</time>
      </trkpt>
      <trkpt lat="48.89113" lon="2.00347">
        <ele>145.54</ele>
        <time>2022-09-25T09:48:48Z</time>
      </trkpt>
      <trkpt lat="48.89113" lon="2.00347">
        <ele>145.64</ele>
        <time>2022-09-25T09:49:12Z</time>
      </trkpt>
      <trkpt lat="48.89111" lon="2.00347">
        <ele>145.64</ele>
        <time>2022-09-25T09:49:34Z</time>
      </trkpt>
      <trkpt lat="48.89105" lon="2.00334">
        <ele>146.7</ele>
        <time>2022-09-25T09:49:46Z</time>
      </trkpt>
      <trkpt lat="48.89097" lon="2.00318">
        <ele>146.38</ele>
        <time>2022-09-25T09:50:01Z</time>
      </trkpt>
      <trkpt lat="48.89086" lon="2.00297">
        <ele>147.36</ele>
        <time>2022-09-25T09:50:20Z</time>
      </trkpt>
      <trkpt lat="48.89079" lon="2.00288">
        <ele>147.51</ele>
        <time>2022-09-25T09:50:29Z</time>
      </trkpt>
      <trkpt lat="48.89064" lon="2.00268">
        <ele>147.84</ele>
        <time>2022-09-25T09:50:43Z</time>
      </trkpt>
      <trkpt lat="48.89048" lon="2.00255">
        <ele>148.12</ele>
        <time>2022-09-25T09:50:59Z</time>
      </trkpt>
      <trkpt lat="48.89026" lon="2.00245">
        <ele>148.27</ele>
        <time>2022-09-25T09:51:19Z</time>
      </trkpt>
      <trkpt lat="48.89006" lon="2.00238">
        <ele>147.44</ele>
        <time>2022-09-25T09:51:35Z</time>
      </trkpt>
      <trkpt lat="48.88987" lon="2.00228">
        <ele>147.92</ele>
        <time>2022-09-25T09:51:51Z</time>
      </trkpt>
      <trkpt lat="48.8897" lon="2.00234">
        <ele>148.19</ele>
        <time>2022-09-25T09:52:06Z</time>
      </trkpt>
      <trkpt lat="48.88961" lon="2.00254">
        <ele>148.35</ele>
        <time>2022-09-25T09:52:20Z</time>
      </trkpt>
      <trkpt lat="48.8895" lon="2.0027">
        <ele>148.2</ele>
        <time>2022-09-25T09:52:33Z</time>
      </trkpt>
      <trkpt lat="48.88938" lon="2.00293">
        <ele>149.42</ele>
        <time>2022-09-25T09:52:50Z</time>
      </trkpt>
      <trkpt lat="48.88932" lon="2.00306">
        <ele>148.82</ele>
        <time>2022-09-25T09:52:59Z</time>
      </trkpt>
      <trkpt lat="48.88922" lon="2.00328">
        <ele>148.92</ele>
        <time>2022-09-25T09:53:13Z</time>
      </trkpt>
      <trkpt lat="48.88911" lon="2.00351">
        <ele>149.48</ele>
        <time>2022-09-25T09:53:29Z</time>
      </trkpt>
      <trkpt lat="48.88901" lon="2.00373">
        <ele>148.94</ele>
        <time>2022-09-25T09:53:43Z</time>
      </trkpt>
      <trkpt lat="48.88894" lon="2.00388">
        <ele>149.24</ele>
        <time>2022-09-25T09:53:53Z</time>
      </trkpt>
      <trkpt lat="48.88888" lon="2.00406">
        <ele>149.79</ele>
        <time>2022-09-25T09:54:04Z</time>
      </trkpt>
      <trkpt lat="48.88882" lon="2.00427">
        <ele>149.74</ele>
        <time>2022-09-25T09:54:18Z</time>
      </trkpt>
      <trkpt lat="48.88871" lon="2.00455">
        <ele>149.05</ele>
        <time>2022-09-25T09:54:34Z</time>
      </trkpt>
      <trkpt lat="48.88865" lon="2.00476">
        <ele>148.91</ele>
        <time>2022-09-25T09:54:49Z</time>
      </trkpt>
      <trkpt lat="48.88853" lon="2.00497">
        <ele>149.42</ele>
        <time>2022-09-25T09:55:04Z</time>
      </trkpt>
      <trkpt lat="48.88847" lon="2.00517">
        <ele>149.41</ele>
        <time>2022-09-25T09:55:17Z</time>
      </trkpt>
      <trkpt lat="48.88838" lon="2.00541">
        <ele>149.7</ele>
        <time>2022-09-25T09:55:32Z</time>
      </trkpt>
      <trkpt lat="48.88825" lon="2.00563">
        <ele>149.18</ele>
        <time>2022-09-25T09:55:48Z</time>
      </trkpt>
      <trkpt lat="48.88818" lon="2.00584">
        <ele>149.68</ele>
        <time>2022-09-25T09:56:02Z</time>
      </trkpt>
      <trkpt lat="48.88808" lon="2.00609">
        <ele>149.21</ele>
        <time>2022-09-25T09:56:18Z</time>
      </trkpt>
      <trkpt lat="48.888" lon="2.00632">
        <ele>149.42</ele>
        <time>2022-09-25T09:56:33Z</time>
      </trkpt>
      <trkpt lat="48.88788" lon="2.00654">
        <ele>149.45</ele>
        <time>2022-09-25T09:56:48Z</time>
      </trkpt>
      <trkpt lat="48.8878" lon="2.00671">
        <ele>149.39</ele>
        <time>2022-09-25T09:56:59Z</time>
      </trkpt>
      <trkpt lat="48.88771" lon="2.00684">
        <ele>150.03</ele>
        <time>2022-09-25T09:57:10Z</time>
      </trkpt>
      <trkpt lat="48.88762" lon="2.007">
        <ele>150.07</ele>
        <time>2022-09-25T09:57:22Z</time>
      </trkpt>
      <trkpt lat="48.88757" lon="2.00711">
        <ele>150.06</ele>
        <time>2022-09-25T09:57:30Z</time>
      </trkpt>
      <trkpt lat="48.88756" lon="2.00713">
        <ele>149.45</ele>
        <time>2022-09-25T09:57:32Z</time>
      </trkpt>
      <trkpt lat="48.88753" lon="2.00722">
        <ele>149.66</ele>
        <time>2022-09-25T09:57:36Z</time>
      </trkpt>
      <trkpt lat="48.88745" lon="2.00738">
        <ele>149.77</ele>
        <time>2022-09-25T09:57:47Z</time>
      </trkpt>
      <trkpt lat="48.88744" lon="2.0074">
        <ele>149.52</ele>
        <time>2022-09-25T09:57:48Z</time>
      </trkpt>
      <trkpt lat="48.88739" lon="2.00761">
        <ele>149.59</ele>
        <time>2022-09-25T09:58:00Z</time>
      </trkpt>
      <trkpt lat="48.88726" lon="2.00789">
        <ele>148.63</ele>
        <time>2022-09-25T09:58:18Z</time>
      </trkpt>
      <trkpt lat="48.88725" lon="2.00791">
        <ele>148.33</ele>
        <time>2022-09-25T09:58:19Z</time>
      </trkpt>
      <trkpt lat="48.88715" lon="2.00813">
        <ele>149.3</ele>
        <time>2022-09-25T09:58:35Z</time>
      </trkpt>
      <trkpt lat="48.88709" lon="2.00828">
        <ele>149.45</ele>
        <time>2022-09-25T09:58:44Z</time>
      </trkpt>
      <trkpt lat="48.88707" lon="2.00833">
        <ele>149.02</ele>
        <time>2022-09-25T09:58:47Z</time>
      </trkpt>
      <trkpt lat="48.88703" lon="2.00842">
        <ele>148.89</ele>
        <time>2022-09-25T09:58:53Z</time>
      </trkpt>
      <trkpt lat="48.88698" lon="2.00852">
        <ele>149.34</ele>
        <time>2022-09-25T09:59:00Z</time>
      </trkpt>
      <trkpt lat="48.88697" lon="2.00857">
        <ele>149</ele>
        <time>2022-09-25T09:59:03Z</time>
      </trkpt>
      <trkpt lat="48.88684" lon="2.00886">
        <ele>149.85</ele>
        <time>2022-09-25T09:59:23Z</time>
      </trkpt>
      <trkpt lat="48.88684" lon="2.00887">
        <ele>149.32</ele>
        <time>2022-09-25T09:59:24Z</time>
      </trkpt>
      <trkpt lat="48.88677" lon="2.00903">
        <ele>149.84</ele>
        <time>2022-09-25T09:59:35Z</time>
      </trkpt>
      <trkpt lat="48.88671" lon="2.00919">
        <ele>149.32</ele>
        <time>2022-09-25T09:59:46Z</time>
      </trkpt>
      <trkpt lat="48.88669" lon="2.00925">
        <ele>149.65</ele>
        <time>2022-09-25T09:59:50Z</time>
      </trkpt>
      <trkpt lat="48.88659" lon="2.00945">
        <ele>149.47</ele>
        <time>2022-09-25T10:00:04Z</time>
      </trkpt>
      <trkpt lat="48.88654" lon="2.0096">
        <ele>149.38</ele>
        <time>2022-09-25T10:00:13Z</time>
      </trkpt>
      <trkpt lat="48.88649" lon="2.00974">
        <ele>149.59</ele>
        <time>2022-09-25T10:00:24Z</time>
      </trkpt>
      <trkpt lat="48.88638" lon="2.00975">
        <ele>150.28</ele>
        <time>2022-09-25T10:00:36Z</time>
      </trkpt>
      <trkpt lat="48.88638" lon="2.00976">
        <ele>150.08</ele>
        <time>2022-09-25T10:00:52Z</time>
      </trkpt>
      <trkpt lat="48.88639" lon="2.00974">
        <ele>150.2</ele>
        <time>2022-09-25T10:01:11Z</time>
      </trkpt>
      <trkpt lat="48.88637" lon="2.00975">
        <ele>150.1</ele>
        <time>2022-09-25T10:01:31Z</time>
      </trkpt>
      <trkpt lat="48.88636" lon="2.00971">
        <ele>149.74</ele>
        <time>2022-09-25T10:01:52Z</time>
      </trkpt>
      <trkpt lat="48.8863" lon="2.00975">
        <ele>149.68</ele>
        <time>2022-09-25T10:02:00Z</time>
      </trkpt>
      <trkpt lat="48.88625" lon="2.00984">
        <ele>150.32</ele>
        <time>2022-09-25T10:02:13Z</time>
      </trkpt>
      <trkpt lat="48.88621" lon="2.00991">
        <ele>150.62</ele>
        <time>2022-09-25T10:02:31Z</time>
      </trkpt>
      <trkpt lat="48.88616" lon="2.01007">
        <ele>150.69</ele>
        <time>2022-09-25T10:02:48Z</time>
      </trkpt>
      <trkpt lat="48.88608" lon="2.01031">
        <ele>150.16</ele>
        <time>2022-09-25T10:03:02Z</time>
      </trkpt>
      <trkpt lat="48.88607" lon="2.01052">
        <ele>149.27</ele>
        <time>2022-09-25T10:03:14Z</time>
      </trkpt>
      <trkpt lat="48.88601" lon="2.01084">
        <ele>149.92</ele>
        <time>2022-09-25T10:03:29Z</time>
      </trkpt>
      <trkpt lat="48.88596" lon="2.01097">
        <ele>149.81</ele>
        <time>2022-09-25T10:03:42Z</time>
      </trkpt>
      <trkpt lat="48.88594" lon="2.01096">
        <ele>149.93</ele>
        <time>2022-09-25T10:03:46Z</time>
      </trkpt>
      <trkpt lat="48.88586" lon="2.01091">
        <ele>150.33</ele>
        <time>2022-09-25T10:03:54Z</time>
      </trkpt>
      <trkpt lat="48.8858" lon="2.01085">
        <ele>152.66</ele>
        <time>2022-09-25T10:04:05Z</time>
      </trkpt>
      <trkpt lat="48.88579" lon="2.01079">
        <ele>152.53</ele>
        <time>2022-09-25T10:04:16Z</time>
      </trkpt>
      <trkpt lat="48.88577" lon="2.01077">
        <ele>153.05</ele>
        <time>2022-09-25T10:04:34Z</time>
      </trkpt>
      <trkpt lat="48.88575" lon="2.01079">
        <ele>152.36</ele>
        <time>2022-09-25T10:04:45Z</time>
      </trkpt>
      <trkpt lat="48.88577" lon="2.01085">
        <ele>151.56</ele>
        <time>2022-09-25T10:04:56Z</time>
      </trkpt>
      <trkpt lat="48.88583" lon="2.01088">
        <ele>150.01</ele>
        <time>2022-09-25T10:05:07Z</time>
      </trkpt>
      <trkpt lat="48.88585" lon="2.01089">
        <ele>149.43</ele>
        <time>2022-09-25T10:05:19Z</time>
      </trkpt>
      <trkpt lat="48.88589" lon="2.01089">
        <ele>149.87</ele>
        <time>2022-09-25T10:05:24Z</time>
      </trkpt>
      <trkpt lat="48.88597" lon="2.01093">
        <ele>149.67</ele>
        <time>2022-09-25T10:05:36Z</time>
      </trkpt>
      <trkpt lat="48.88597" lon="2.011">
        <ele>149.61</ele>
        <time>2022-09-25T10:05:50Z</time>
      </trkpt>
      <trkpt lat="48.88595" lon="2.01105">
        <ele>149.62</ele>
        <time>2022-09-25T10:05:54Z</time>
      </trkpt>
      <trkpt lat="48.88591" lon="2.01117">
        <ele>149.72</ele>
        <time>2022-09-25T10:06:03Z</time>
      </trkpt>
      <trkpt lat="48.88585" lon="2.0113">
        <ele>149.2</ele>
        <time>2022-09-25T10:06:19Z</time>
      </trkpt>
      <trkpt lat="48.88587" lon="2.01124">
        <ele>149.53</ele>
        <time>2022-09-25T10:06:25Z</time>
      </trkpt>
      <trkpt lat="48.88591" lon="2.01108">
        <ele>149.96</ele>
        <time>2022-09-25T10:06:38Z</time>
      </trkpt>
      <trkpt lat="48.886" lon="2.01088">
        <ele>150.52</ele>
        <time>2022-09-25T10:06:53Z</time>
      </trkpt>
      <trkpt lat="48.88604" lon="2.01071">
        <ele>149.89</ele>
        <time>2022-09-25T10:07:08Z</time>
      </trkpt>
      <trkpt lat="48.88604" lon="2.01061">
        <ele>149.75</ele>
        <time>2022-09-25T10:07:22Z</time>
      </trkpt>
      <trkpt lat="48.88604" lon="2.01042">
        <ele>150.76</ele>
        <time>2022-09-25T10:07:40Z</time>
      </trkpt>
      <trkpt lat="48.88608" lon="2.0102">
        <ele>150.86</ele>
        <time>2022-09-25T10:07:58Z</time>
      </trkpt>
      <trkpt lat="48.88616" lon="2.01008">
        <ele>150.92</ele>
        <time>2022-09-25T10:08:13Z</time>
      </trkpt>
      <trkpt lat="48.88624" lon="2.01007">
        <ele>150.65</ele>
        <time>2022-09-25T10:08:26Z</time>
      </trkpt>
      <trkpt lat="48.88625" lon="2.01001">
        <ele>151.21</ele>
        <time>2022-09-25T10:08:41Z</time>
      </trkpt>
      <trkpt lat="48.88631" lon="2.00984">
        <ele>150.43</ele>
        <time>2022-09-25T10:08:56Z</time>
      </trkpt>
      <trkpt lat="48.88642" lon="2.00982">
        <ele>149.69</ele>
        <time>2022-09-25T10:09:11Z</time>
      </trkpt>
      <trkpt lat="48.88641" lon="2.00995">
        <ele>149.12</ele>
        <time>2022-09-25T10:09:23Z</time>
      </trkpt>
      <trkpt lat="48.88637" lon="2.01008">
        <ele>148.31</ele>
        <time>2022-09-25T10:09:34Z</time>
      </trkpt>
      <trkpt lat="48.88634" lon="2.0102">
        <ele>148.62</ele>
        <time>2022-09-25T10:09:49Z</time>
      </trkpt>
      <trkpt lat="48.8863" lon="2.0104">
        <ele>147.52</ele>
        <time>2022-09-25T10:10:05Z</time>
      </trkpt>
      <trkpt lat="48.88628" lon="2.01063">
        <ele>146.96</ele>
        <time>2022-09-25T10:10:23Z</time>
      </trkpt>
      <trkpt lat="48.88625" lon="2.01088">
        <ele>144.92</ele>
        <time>2022-09-25T10:10:41Z</time>
      </trkpt>
      <trkpt lat="48.88623" lon="2.01099">
        <ele>145.86</ele>
        <time>2022-09-25T10:10:51Z</time>
      </trkpt>
      <trkpt lat="48.88623" lon="2.01122">
        <ele>144.84</ele>
        <time>2022-09-25T10:11:08Z</time>
      </trkpt>
      <trkpt lat="48.88621" lon="2.01153">
        <ele>143.76</ele>
        <time>2022-09-25T10:11:24Z</time>
      </trkpt>
      <trkpt lat="48.88622" lon="2.01157">
        <ele>143.45</ele>
        <time>2022-09-25T10:11:26Z</time>
      </trkpt>
      <trkpt lat="48.88623" lon="2.01201">
        <ele>143.49</ele>
        <time>2022-09-25T10:11:44Z</time>
      </trkpt>
      <trkpt lat="48.8862" lon="2.01211">
        <ele>142.94</ele>
        <time>2022-09-25T10:11:54Z</time>
      </trkpt>
      <trkpt lat="48.8862" lon="2.01207">
        <ele>141.99</ele>
        <time>2022-09-25T10:12:05Z</time>
      </trkpt>
      <trkpt lat="48.88625" lon="2.0122">
        <ele>141.78</ele>
        <time>2022-09-25T10:12:08Z</time>
      </trkpt>
      <trkpt lat="48.88626" lon="2.01237">
        <ele>141.93</ele>
        <time>2022-09-25T10:12:11Z</time>
      </trkpt>
      <trkpt lat="48.88625" lon="2.01249">
        <ele>141.86</ele>
        <time>2022-09-25T10:12:15Z</time>
      </trkpt>
      <trkpt lat="48.88627" lon="2.01268">
        <ele>140.81</ele>
        <time>2022-09-25T10:12:28Z</time>
      </trkpt>
      <trkpt lat="48.88625" lon="2.01268">
        <ele>141.51</ele>
        <time>2022-09-25T10:12:43Z</time>
      </trkpt>
      <trkpt lat="48.88625" lon="2.01267">
        <ele>141.44</ele>
        <time>2022-09-25T10:13:05Z</time>
      </trkpt>
      <trkpt lat="48.88624" lon="2.01261">
        <ele>142.16</ele>
        <time>2022-09-25T10:13:18Z</time>
      </trkpt>
      <trkpt lat="48.8863" lon="2.01266">
        <ele>141.89</ele>
        <time>2022-09-25T10:13:33Z</time>
      </trkpt>
      <trkpt lat="48.88636" lon="2.01264">
        <ele>142.11</ele>
        <time>2022-09-25T10:13:50Z</time>
      </trkpt>
      <trkpt lat="48.88638" lon="2.0126">
        <ele>142.04</ele>
        <time>2022-09-25T10:14:06Z</time>
      </trkpt>
      <trkpt lat="48.88639" lon="2.0126">
        <ele>142.73</ele>
        <time>2022-09-25T10:14:25Z</time>
      </trkpt>
      <trkpt lat="48.88648" lon="2.01259">
        <ele>141.76</ele>
        <time>2022-09-25T10:14:42Z</time>
      </trkpt>
      <trkpt lat="48.88653" lon="2.01273">
        <ele>139.66</ele>
        <time>2022-09-25T10:15:00Z</time>
      </trkpt>
      <trkpt lat="48.88651" lon="2.01288">
        <ele>138.36</ele>
        <time>2022-09-25T10:15:14Z</time>
      </trkpt>
      <trkpt lat="48.88648" lon="2.01304">
        <ele>136.29</ele>
        <time>2022-09-25T10:15:29Z</time>
      </trkpt>
      <trkpt lat="48.88645" lon="2.01322">
        <ele>135.42</ele>
        <time>2022-09-25T10:15:41Z</time>
      </trkpt>
      <trkpt lat="48.8864" lon="2.01353">
        <ele>133.71</ele>
        <time>2022-09-25T10:15:59Z</time>
      </trkpt>
      <trkpt lat="48.88638" lon="2.01368">
        <ele>133.6</ele>
        <time>2022-09-25T10:16:17Z</time>
      </trkpt>
      <trkpt lat="48.88634" lon="2.01393">
        <ele>132.58</ele>
        <time>2022-09-25T10:16:31Z</time>
      </trkpt>
      <trkpt lat="48.88633" lon="2.01406">
        <ele>131.26</ele>
        <time>2022-09-25T10:16:44Z</time>
      </trkpt>
      <trkpt lat="48.88624" lon="2.01428">
        <ele>129.99</ele>
        <time>2022-09-25T10:16:58Z</time>
      </trkpt>
      <trkpt lat="48.88613" lon="2.0145">
        <ele>130.56</ele>
        <time>2022-09-25T10:17:17Z</time>
      </trkpt>
      <trkpt lat="48.88604" lon="2.01475">
        <ele>133.77</ele>
        <time>2022-09-25T10:17:34Z</time>
      </trkpt>
      <trkpt lat="48.88593" lon="2.01489">
        <ele>136.93</ele>
        <time>2022-09-25T10:17:49Z</time>
      </trkpt>
      <trkpt lat="48.88582" lon="2.01498">
        <ele>138.82</ele>
        <time>2022-09-25T10:18:02Z</time>
      </trkpt>
      <trkpt lat="48.88571" lon="2.01508">
        <ele>142.02</ele>
        <time>2022-09-25T10:18:19Z</time>
      </trkpt>
      <trkpt lat="48.88569" lon="2.01512">
        <ele>142.68</ele>
        <time>2022-09-25T10:18:25Z</time>
      </trkpt>
      <trkpt lat="48.88567" lon="2.01517">
        <ele>143.51</ele>
        <time>2022-09-25T10:18:31Z</time>
      </trkpt>
      <trkpt lat="48.8856" lon="2.01526">
        <ele>145.07</ele>
        <time>2022-09-25T10:18:45Z</time>
      </trkpt>
      <trkpt lat="48.88554" lon="2.0153">
        <ele>145.52</ele>
        <time>2022-09-25T10:19:04Z</time>
      </trkpt>
      <trkpt lat="48.88553" lon="2.01534">
        <ele>145.58</ele>
        <time>2022-09-25T10:19:27Z</time>
      </trkpt>
      <trkpt lat="48.88548" lon="2.01539">
        <ele>145.92</ele>
        <time>2022-09-25T10:19:52Z</time>
      </trkpt>
      <trkpt lat="48.88548" lon="2.01538">
        <ele>145.05</ele>
        <time>2022-09-25T10:20:14Z</time>
      </trkpt>
      <trkpt lat="48.88559" lon="2.01544">
        <ele>144.59</ele>
        <time>2022-09-25T10:20:31Z</time>
      </trkpt>
      <trkpt lat="48.88562" lon="2.01549">
        <ele>144.43</ele>
        <time>2022-09-25T10:20:34Z</time>
      </trkpt>
      <trkpt lat="48.88572" lon="2.01554">
        <ele>143.93</ele>
        <time>2022-09-25T10:20:44Z</time>
      </trkpt>
      <trkpt lat="48.88572" lon="2.01556">
        <ele>144.01</ele>
        <time>2022-09-25T10:20:58Z</time>
      </trkpt>
      <trkpt lat="48.88567" lon="2.01554">
        <ele>144.17</ele>
        <time>2022-09-25T10:21:03Z</time>
      </trkpt>
      <trkpt lat="48.88562" lon="2.0155">
        <ele>144.57</ele>
        <time>2022-09-25T10:21:09Z</time>
      </trkpt>
      <trkpt lat="48.8856" lon="2.01549">
        <ele>144.57</ele>
        <time>2022-09-25T10:21:11Z</time>
      </trkpt>
      <trkpt lat="48.88546" lon="2.01541">
        <ele>145.44</ele>
        <time>2022-09-25T10:21:23Z</time>
      </trkpt>
      <trkpt lat="48.88535" lon="2.0154">
        <ele>145.54</ele>
        <time>2022-09-25T10:21:33Z</time>
      </trkpt>
      <trkpt lat="48.88524" lon="2.0154">
        <ele>146.85</ele>
        <time>2022-09-25T10:21:46Z</time>
      </trkpt>
      <trkpt lat="48.88523" lon="2.01543">
        <ele>147.14</ele>
        <time>2022-09-25T10:21:57Z</time>
      </trkpt>
      <trkpt lat="48.88526" lon="2.01546">
        <ele>146.76</ele>
        <time>2022-09-25T10:22:05Z</time>
      </trkpt>
      <trkpt lat="48.88533" lon="2.01549">
        <ele>146.33</ele>
        <time>2022-09-25T10:22:16Z</time>
      </trkpt>
      <trkpt lat="48.88538" lon="2.01555">
        <ele>145.62</ele>
        <time>2022-09-25T10:22:26Z</time>
      </trkpt>
      <trkpt lat="48.88544" lon="2.0156">
        <ele>144.32</ele>
        <time>2022-09-25T10:22:37Z</time>
      </trkpt>
      <trkpt lat="48.88552" lon="2.01566">
        <ele>143.19</ele>
        <time>2022-09-25T10:22:48Z</time>
      </trkpt>
      <trkpt lat="48.88562" lon="2.01587">
        <ele>143.14</ele>
        <time>2022-09-25T10:23:05Z</time>
      </trkpt>
      <trkpt lat="48.88572" lon="2.01605">
        <ele>140.83</ele>
        <time>2022-09-25T10:23:23Z</time>
      </trkpt>
      <trkpt lat="48.88576" lon="2.01613">
        <ele>140.26</ele>
        <time>2022-09-25T10:23:30Z</time>
      </trkpt>
      <trkpt lat="48.88585" lon="2.01644">
        <ele>138.36</ele>
        <time>2022-09-25T10:23:44Z</time>
      </trkpt>
      <trkpt lat="48.88585" lon="2.01645">
        <ele>138.35</ele>
        <time>2022-09-25T10:23:45Z</time>
      </trkpt>
      <trkpt lat="48.88592" lon="2.01661">
        <ele>137.72</ele>
        <time>2022-09-25T10:24:01Z</time>
      </trkpt>
      <trkpt lat="48.88595" lon="2.01667">
        <ele>136.38</ele>
        <time>2022-09-25T10:24:12Z</time>
      </trkpt>
      <trkpt lat="48.88603" lon="2.01678">
        <ele>135.31</ele>
        <time>2022-09-25T10:24:25Z</time>
      </trkpt>
      <trkpt lat="48.88612" lon="2.01697">
        <ele>133.51</ele>
        <time>2022-09-25T10:24:41Z</time>
      </trkpt>
      <trkpt lat="48.88621" lon="2.01711">
        <ele>132.65</ele>
        <time>2022-09-25T10:24:53Z</time>
      </trkpt>
      <trkpt lat="48.88629" lon="2.01738">
        <ele>132.29</ele>
        <time>2022-09-25T10:25:06Z</time>
      </trkpt>
      <trkpt lat="48.88635" lon="2.01747">
        <ele>131.88</ele>
        <time>2022-09-25T10:25:13Z</time>
      </trkpt>
      <trkpt lat="48.88642" lon="2.0176">
        <ele>130.17</ele>
        <time>2022-09-25T10:25:26Z</time>
      </trkpt>
      <trkpt lat="48.88657" lon="2.01768">
        <ele>128.39</ele>
        <time>2022-09-25T10:25:46Z</time>
      </trkpt>
      <trkpt lat="48.8867" lon="2.01782">
        <ele>127.6</ele>
        <time>2022-09-25T10:25:59Z</time>
      </trkpt>
      <trkpt lat="48.88684" lon="2.01798">
        <ele>127.22</ele>
        <time>2022-09-25T10:26:09Z</time>
      </trkpt>
      <trkpt lat="48.88699" lon="2.01814">
        <ele>126.61</ele>
        <time>2022-09-25T10:26:23Z</time>
      </trkpt>
      <trkpt lat="48.88704" lon="2.01821">
        <ele>126.2</ele>
        <time>2022-09-25T10:26:29Z</time>
      </trkpt>
      <trkpt lat="48.88706" lon="2.01826">
        <ele>125.87</ele>
        <time>2022-09-25T10:26:32Z</time>
      </trkpt>
      <trkpt lat="48.88715" lon="2.0183">
        <ele>125.94</ele>
        <time>2022-09-25T10:26:54Z</time>
      </trkpt>
      <trkpt lat="48.88716" lon="2.01831">
        <ele>125.66</ele>
        <time>2022-09-25T10:27:09Z</time>
      </trkpt>
      <trkpt lat="48.88714" lon="2.01833">
        <ele>125.59</ele>
        <time>2022-09-25T10:27:37Z</time>
      </trkpt>
      <trkpt lat="48.88714" lon="2.01833">
        <ele>125.67</ele>
        <time>2022-09-25T10:28:00Z</time>
      </trkpt>
      <trkpt lat="48.88715" lon="2.01839">
        <ele>125.13</ele>
        <time>2022-09-25T10:28:22Z</time>
      </trkpt>
      <trkpt lat="48.88715" lon="2.01848">
        <ele>125.58</ele>
        <time>2022-09-25T10:28:48Z</time>
      </trkpt>
      <trkpt lat="48.88715" lon="2.01841">
        <ele>125.53</ele>
        <time>2022-09-25T10:29:10Z</time>
      </trkpt>
      <trkpt lat="48.88715" lon="2.01842">
        <ele>125.81</ele>
        <time>2022-09-25T10:29:32Z</time>
      </trkpt>
      <trkpt lat="48.88713" lon="2.0184">
        <ele>125.65</ele>
        <time>2022-09-25T10:29:56Z</time>
      </trkpt>
      <trkpt lat="48.88709" lon="2.01839">
        <ele>126.46</ele>
        <time>2022-09-25T10:30:19Z</time>
      </trkpt>
      <trkpt lat="48.88708" lon="2.0184">
        <ele>125.55</ele>
        <time>2022-09-25T10:30:55Z</time>
      </trkpt>
      <trkpt lat="48.88718" lon="2.01844">
        <ele>123.83</ele>
        <time>2022-09-25T10:31:14Z</time>
      </trkpt>
      <trkpt lat="48.88726" lon="2.01852">
        <ele>123.85</ele>
        <time>2022-09-25T10:31:26Z</time>
      </trkpt>
      <trkpt lat="48.88741" lon="2.01865">
        <ele>122.12</ele>
        <time>2022-09-25T10:31:42Z</time>
      </trkpt>
      <trkpt lat="48.88759" lon="2.01876">
        <ele>120.48</ele>
        <time>2022-09-25T10:31:58Z</time>
      </trkpt>
      <trkpt lat="48.88771" lon="2.01883">
        <ele>119.14</ele>
        <time>2022-09-25T10:32:11Z</time>
      </trkpt>
      <trkpt lat="48.88774" lon="2.01887">
        <ele>119.47</ele>
        <time>2022-09-25T10:32:14Z</time>
      </trkpt>
      <trkpt lat="48.88776" lon="2.01898">
        <ele>119.01</ele>
        <time>2022-09-25T10:32:36Z</time>
      </trkpt>
      <trkpt lat="48.88785" lon="2.01908">
        <ele>119.3</ele>
        <time>2022-09-25T10:32:51Z</time>
      </trkpt>
      <trkpt lat="48.88793" lon="2.01912">
        <ele>117.82</ele>
        <time>2022-09-25T10:33:10Z</time>
      </trkpt>
      <trkpt lat="48.888" lon="2.01927">
        <ele>117.48</ele>
        <time>2022-09-25T10:33:25Z</time>
      </trkpt>
      <trkpt lat="48.88809" lon="2.01942">
        <ele>114.93</ele>
        <time>2022-09-25T10:33:41Z</time>
      </trkpt>
      <trkpt lat="48.88819" lon="2.0196">
        <ele>113.84</ele>
        <time>2022-09-25T10:33:57Z</time>
      </trkpt>
      <trkpt lat="48.88832" lon="2.01992">
        <ele>111.82</ele>
        <time>2022-09-25T10:34:14Z</time>
      </trkpt>
      <trkpt lat="48.88839" lon="2.02011">
        <ele>110.73</ele>
        <time>2022-09-25T10:34:28Z</time>
      </trkpt>
      <trkpt lat="48.8885" lon="2.02015">
        <ele>109.31</ele>
        <time>2022-09-25T10:34:42Z</time>
      </trkpt>
      <trkpt lat="48.88851" lon="2.02016">
        <ele>109.25</ele>
        <time>2022-09-25T10:34:43Z</time>
      </trkpt>
      <trkpt lat="48.8886" lon="2.02025">
        <ele>108.22</ele>
        <time>2022-09-25T10:34:54Z</time>
      </trkpt>
      <trkpt lat="48.88868" lon="2.02029">
        <ele>107.91</ele>
        <time>2022-09-25T10:35:04Z</time>
      </trkpt>
      <trkpt lat="48.88875" lon="2.02029">
        <ele>106.46</ele>
        <time>2022-09-25T10:35:10Z</time>
      </trkpt>
      <trkpt lat="48.88887" lon="2.02035">
        <ele>105.89</ele>
        <time>2022-09-25T10:35:23Z</time>
      </trkpt>
      <trkpt lat="48.88891" lon="2.02036">
        <ele>105.97</ele>
        <time>2022-09-25T10:35:26Z</time>
      </trkpt>
      <trkpt lat="48.889" lon="2.02043">
        <ele>105.65</ele>
        <time>2022-09-25T10:35:39Z</time>
      </trkpt>
      <trkpt lat="48.88914" lon="2.0205">
        <ele>104.12</ele>
        <time>2022-09-25T10:35:53Z</time>
      </trkpt>
      <trkpt lat="48.88923" lon="2.02049">
        <ele>103.83</ele>
        <time>2022-09-25T10:36:00Z</time>
      </trkpt>
      <trkpt lat="48.88944" lon="2.02057">
        <ele>103.12</ele>
        <time>2022-09-25T10:36:19Z</time>
      </trkpt>
      <trkpt lat="48.88951" lon="2.02061">
        <ele>103.05</ele>
        <time>2022-09-25T10:36:27Z</time>
      </trkpt>
      <trkpt lat="48.88971" lon="2.02069">
        <ele>100.89</ele>
        <time>2022-09-25T10:36:46Z</time>
      </trkpt>
      <trkpt lat="48.88989" lon="2.0208">
        <ele>100.21</ele>
        <time>2022-09-25T10:37:03Z</time>
      </trkpt>
      <trkpt lat="48.89009" lon="2.02094">
        <ele>99.54</ele>
        <time>2022-09-25T10:37:22Z</time>
      </trkpt>
      <trkpt lat="48.89023" lon="2.02105">
        <ele>98.24</ele>
        <time>2022-09-25T10:37:38Z</time>
      </trkpt>
      <trkpt lat="48.89033" lon="2.02118">
        <ele>97.36</ele>
        <time>2022-09-25T10:37:49Z</time>
      </trkpt>
      <trkpt lat="48.89048" lon="2.02133">
        <ele>97</ele>
        <time>2022-09-25T10:38:02Z</time>
      </trkpt>
      <trkpt lat="48.89067" lon="2.02127">
        <ele>97.09</ele>
        <time>2022-09-25T10:38:18Z</time>
      </trkpt>
      <trkpt lat="48.89068" lon="2.0213">
        <ele>96.25</ele>
        <time>2022-09-25T10:38:32Z</time>
      </trkpt>
      <trkpt lat="48.89072" lon="2.02131">
        <ele>96.31</ele>
        <time>2022-09-25T10:38:38Z</time>
      </trkpt>
      <trkpt lat="48.89075" lon="2.02129">
        <ele>96.36</ele>
        <time>2022-09-25T10:38:47Z</time>
      </trkpt>
      <trkpt lat="48.89082" lon="2.02132">
        <ele>96.37</ele>
        <time>2022-09-25T10:39:09Z</time>
      </trkpt>
      <trkpt lat="48.89083" lon="2.02127">
        <ele>96.04</ele>
        <time>2022-09-25T10:39:31Z</time>
      </trkpt>
      <trkpt lat="48.89086" lon="2.02136">
        <ele>96.4</ele>
        <time>2022-09-25T10:39:37Z</time>
      </trkpt>
      <trkpt lat="48.89088" lon="2.02147">
        <ele>95.83</ele>
        <time>2022-09-25T10:39:51Z</time>
      </trkpt>
      <trkpt lat="48.89094" lon="2.02154">
        <ele>96.5</ele>
        <time>2022-09-25T10:40:07Z</time>
      </trkpt>
      <trkpt lat="48.89101" lon="2.02155">
        <ele>96.2</ele>
        <time>2022-09-25T10:40:22Z</time>
      </trkpt>
      <trkpt lat="48.89112" lon="2.02157">
        <ele>95.81</ele>
        <time>2022-09-25T10:40:40Z</time>
      </trkpt>
      <trkpt lat="48.89122" lon="2.0216">
        <ele>96.26</ele>
        <time>2022-09-25T10:40:53Z</time>
      </trkpt>
      <trkpt lat="48.89147" lon="2.02157">
        <ele>95.39</ele>
        <time>2022-09-25T10:41:09Z</time>
      </trkpt>
      <trkpt lat="48.89166" lon="2.02159">
        <ele>96.23</ele>
        <time>2022-09-25T10:41:27Z</time>
      </trkpt>
      <trkpt lat="48.89179" lon="2.02158">
        <ele>95.31</ele>
        <time>2022-09-25T10:41:45Z</time>
      </trkpt>
      <trkpt lat="48.89202" lon="2.02158">
        <ele>95.9</ele>
        <time>2022-09-25T10:42:06Z</time>
      </trkpt>
      <trkpt lat="48.89203" lon="2.02159">
        <ele>95.9</ele>
        <time>2022-09-25T10:42:07Z</time>
      </trkpt>
      <trkpt lat="48.89211" lon="2.02161">
        <ele>95.88</ele>
        <time>2022-09-25T10:42:10Z</time>
      </trkpt>
      <trkpt lat="48.89226" lon="2.02161">
        <ele>95.46</ele>
        <time>2022-09-25T10:42:22Z</time>
      </trkpt>
      <trkpt lat="48.89246" lon="2.0216">
        <ele>94.83</ele>
        <time>2022-09-25T10:42:38Z</time>
      </trkpt>
      <trkpt lat="48.89257" lon="2.02166">
        <ele>94.67</ele>
        <time>2022-09-25T10:42:48Z</time>
      </trkpt>
      <trkpt lat="48.89272" lon="2.02178">
        <ele>95.21</ele>
        <time>2022-09-25T10:42:57Z</time>
      </trkpt>
      <trkpt lat="48.8928" lon="2.02191">
        <ele>95.5</ele>
        <time>2022-09-25T10:43:05Z</time>
      </trkpt>
      <trkpt lat="48.89282" lon="2.02195">
        <ele>95.84</ele>
        <time>2022-09-25T10:43:08Z</time>
      </trkpt>
      <trkpt lat="48.89285" lon="2.02197">
        <ele>96.29</ele>
        <time>2022-09-25T10:43:11Z</time>
      </trkpt>
      <trkpt lat="48.89287" lon="2.022">
        <ele>96.48</ele>
        <time>2022-09-25T10:43:14Z</time>
      </trkpt>
      <trkpt lat="48.89292" lon="2.02205">
        <ele>96.6</ele>
        <time>2022-09-25T10:43:19Z</time>
      </trkpt>
      <trkpt lat="48.89295" lon="2.02216">
        <ele>96.93</ele>
        <time>2022-09-25T10:43:26Z</time>
      </trkpt>
      <trkpt lat="48.89306" lon="2.02224">
        <ele>97.8</ele>
        <time>2022-09-25T10:43:37Z</time>
      </trkpt>
      <trkpt lat="48.89318" lon="2.02235">
        <ele>98.57</ele>
        <time>2022-09-25T10:43:52Z</time>
      </trkpt>
      <trkpt lat="48.89333" lon="2.02248">
        <ele>99.39</ele>
        <time>2022-09-25T10:44:09Z</time>
      </trkpt>
      <trkpt lat="48.8934" lon="2.02257">
        <ele>99.71</ele>
        <time>2022-09-25T10:44:18Z</time>
      </trkpt>
      <trkpt lat="48.8935" lon="2.02276">
        <ele>99.9</ele>
        <time>2022-09-25T10:44:29Z</time>
      </trkpt>
      <trkpt lat="48.89357" lon="2.02292">
        <ele>100.41</ele>
        <time>2022-09-25T10:44:40Z</time>
      </trkpt>
      <trkpt lat="48.89366" lon="2.02311">
        <ele>100.97</ele>
        <time>2022-09-25T10:44:55Z</time>
      </trkpt>
      <trkpt lat="48.89367" lon="2.02314">
        <ele>100.91</ele>
        <time>2022-09-25T10:44:56Z</time>
      </trkpt>
      <trkpt lat="48.89368" lon="2.02318">
        <ele>100.63</ele>
        <time>2022-09-25T10:44:59Z</time>
      </trkpt>
      <trkpt lat="48.89375" lon="2.02337">
        <ele>101.92</ele>
        <time>2022-09-25T10:45:14Z</time>
      </trkpt>
      <trkpt lat="48.89385" lon="2.02361">
        <ele>101.6</ele>
        <time>2022-09-25T10:45:33Z</time>
      </trkpt>
      <trkpt lat="48.89396" lon="2.02377">
        <ele>102.98</ele>
        <time>2022-09-25T10:45:47Z</time>
      </trkpt>
      <trkpt lat="48.89407" lon="2.02405">
        <ele>103.62</ele>
        <time>2022-09-25T10:46:06Z</time>
      </trkpt>
      <trkpt lat="48.89412" lon="2.02415">
        <ele>103.62</ele>
        <time>2022-09-25T10:46:15Z</time>
      </trkpt>
      <trkpt lat="48.89413" lon="2.02419">
        <ele>103.59</ele>
        <time>2022-09-25T10:46:18Z</time>
      </trkpt>
      <trkpt lat="48.89421" lon="2.02443">
        <ele>104.38</ele>
        <time>2022-09-25T10:46:31Z</time>
      </trkpt>
      <trkpt lat="48.89425" lon="2.02464">
        <ele>104.79</ele>
        <time>2022-09-25T10:46:41Z</time>
      </trkpt>
      <trkpt lat="48.89422" lon="2.0247">
        <ele>105.14</ele>
        <time>2022-09-25T10:46:54Z</time>
      </trkpt>
      <trkpt lat="48.89421" lon="2.02479">
        <ele>104.75</ele>
        <time>2022-09-25T10:47:15Z</time>
      </trkpt>
      <trkpt lat="48.89419" lon="2.02479">
        <ele>104.76</ele>
        <time>2022-09-25T10:47:35Z</time>
      </trkpt>
      <trkpt lat="48.89414" lon="2.02487">
        <ele>104.5</ele>
        <time>2022-09-25T10:47:57Z</time>
      </trkpt>
      <trkpt lat="48.89413" lon="2.02486">
        <ele>104.46</ele>
        <time>2022-09-25T10:48:17Z</time>
      </trkpt>
      <trkpt lat="48.89413" lon="2.02489">
        <ele>104.56</ele>
        <time>2022-09-25T10:48:42Z</time>
      </trkpt>
      <trkpt lat="48.89411" lon="2.02495">
        <ele>104.26</ele>
        <time>2022-09-25T10:48:52Z</time>
      </trkpt>
      <trkpt lat="48.89411" lon="2.02497">
        <ele>104.58</ele>
        <time>2022-09-25T10:49:15Z</time>
      </trkpt>
      <trkpt lat="48.89411" lon="2.02497">
        <ele>104.94</ele>
        <time>2022-09-25T10:49:36Z</time>
      </trkpt>
      <trkpt lat="48.89409" lon="2.02496">
        <ele>104.82</ele>
        <time>2022-09-25T10:49:53Z</time>
      </trkpt>
      <trkpt lat="48.89404" lon="2.02495">
        <ele>104.65</ele>
        <time>2022-09-25T10:50:08Z</time>
      </trkpt>
      <trkpt lat="48.89396" lon="2.02495">
        <ele>102.58</ele>
        <time>2022-09-25T10:50:25Z</time>
      </trkpt>
      <trkpt lat="48.89387" lon="2.02498">
        <ele>100.95</ele>
        <time>2022-09-25T10:50:36Z</time>
      </trkpt>
      <trkpt lat="48.89374" lon="2.02497">
        <ele>99.57</ele>
        <time>2022-09-25T10:50:53Z</time>
      </trkpt>
      <trkpt lat="48.89367" lon="2.025">
        <ele>99.01</ele>
        <time>2022-09-25T10:51:03Z</time>
      </trkpt>
      <trkpt lat="48.8936" lon="2.02502">
        <ele>98.15</ele>
        <time>2022-09-25T10:51:15Z</time>
      </trkpt>
      <trkpt lat="48.89337" lon="2.02506">
        <ele>95.65</ele>
        <time>2022-09-25T10:51:33Z</time>
      </trkpt>
      <trkpt lat="48.89316" lon="2.02515">
        <ele>93.91</ele>
        <time>2022-09-25T10:51:52Z</time>
      </trkpt>
      <trkpt lat="48.89294" lon="2.02524">
        <ele>91.03</ele>
        <time>2022-09-25T10:52:12Z</time>
      </trkpt>
      <trkpt lat="48.89278" lon="2.0253">
        <ele>87.73</ele>
        <time>2022-09-25T10:52:27Z</time>
      </trkpt>
      <trkpt lat="48.89267" lon="2.02541">
        <ele>86.54</ele>
        <time>2022-09-25T10:52:44Z</time>
      </trkpt>
      <trkpt lat="48.89264" lon="2.02542">
        <ele>86.78</ele>
        <time>2022-09-25T10:52:50Z</time>
      </trkpt>
      <trkpt lat="48.89263" lon="2.02548">
        <ele>85.66</ele>
        <time>2022-09-25T10:53:02Z</time>
      </trkpt>
      <trkpt lat="48.89266" lon="2.02563">
        <ele>85.84</ele>
        <time>2022-09-25T10:53:13Z</time>
      </trkpt>
      <trkpt lat="48.8927" lon="2.02569">
        <ele>85.71</ele>
        <time>2022-09-25T10:53:24Z</time>
      </trkpt>
      <trkpt lat="48.89278" lon="2.02585">
        <ele>85.35</ele>
        <time>2022-09-25T10:53:39Z</time>
      </trkpt>
      <trkpt lat="48.89286" lon="2.02605">
        <ele>84.54</ele>
        <time>2022-09-25T10:53:55Z</time>
      </trkpt>
      <trkpt lat="48.893" lon="2.02644">
        <ele>82.98</ele>
        <time>2022-09-25T10:54:17Z</time>
      </trkpt>
      <trkpt lat="48.89306" lon="2.02665">
        <ele>82.52</ele>
        <time>2022-09-25T10:54:33Z</time>
      </trkpt>
      <trkpt lat="48.89309" lon="2.02674">
        <ele>82.49</ele>
        <time>2022-09-25T10:54:42Z</time>
      </trkpt>
      <trkpt lat="48.89318" lon="2.02706">
        <ele>82.24</ele>
        <time>2022-09-25T10:54:56Z</time>
      </trkpt>
      <trkpt lat="48.89324" lon="2.02746">
        <ele>81.5</ele>
        <time>2022-09-25T10:55:09Z</time>
      </trkpt>
      <trkpt lat="48.8932" lon="2.02767">
        <ele>81.3</ele>
        <time>2022-09-25T10:55:25Z</time>
      </trkpt>
      <trkpt lat="48.89309" lon="2.0278">
        <ele>80.83</ele>
        <time>2022-09-25T10:55:31Z</time>
      </trkpt>
      <trkpt lat="48.89294" lon="2.02794">
        <ele>80.55</ele>
        <time>2022-09-25T10:55:39Z</time>
      </trkpt>
      <trkpt lat="48.89278" lon="2.0281">
        <ele>79.49</ele>
        <time>2022-09-25T10:55:57Z</time>
      </trkpt>
      <trkpt lat="48.89264" lon="2.02816">
        <ele>79.44</ele>
        <time>2022-09-25T10:56:14Z</time>
      </trkpt>
      <trkpt lat="48.89268" lon="2.02824">
        <ele>78.84</ele>
        <time>2022-09-25T10:56:26Z</time>
      </trkpt>
      <trkpt lat="48.89271" lon="2.02831">
        <ele>78.79</ele>
        <time>2022-09-25T10:56:37Z</time>
      </trkpt>
      <trkpt lat="48.89275" lon="2.02847">
        <ele>78.58</ele>
        <time>2022-09-25T10:56:55Z</time>
      </trkpt>
      <trkpt lat="48.8928" lon="2.02888">
        <ele>78.18</ele>
        <time>2022-09-25T10:57:12Z</time>
      </trkpt>
      <trkpt lat="48.89284" lon="2.02909">
        <ele>78.25</ele>
        <time>2022-09-25T10:57:22Z</time>
      </trkpt>
      <trkpt lat="48.89286" lon="2.02926">
        <ele>78.24</ele>
        <time>2022-09-25T10:57:34Z</time>
      </trkpt>
      <trkpt lat="48.89293" lon="2.02955">
        <ele>77.18</ele>
        <time>2022-09-25T10:57:55Z</time>
      </trkpt>
      <trkpt lat="48.89296" lon="2.02984">
        <ele>76.56</ele>
        <time>2022-09-25T10:58:13Z</time>
      </trkpt>
      <trkpt lat="48.89296" lon="2.02999">
        <ele>76.87</ele>
        <time>2022-09-25T10:58:19Z</time>
      </trkpt>
      <trkpt lat="48.89303" lon="2.03039">
        <ele>77.04</ele>
        <time>2022-09-25T10:58:35Z</time>
      </trkpt>
      <trkpt lat="48.89311" lon="2.0306">
        <ele>76.38</ele>
        <time>2022-09-25T10:58:47Z</time>
      </trkpt>
      <trkpt lat="48.89318" lon="2.03078">
        <ele>76.17</ele>
        <time>2022-09-25T10:58:58Z</time>
      </trkpt>
      <trkpt lat="48.8932" lon="2.03092">
        <ele>76.09</ele>
        <time>2022-09-25T10:59:09Z</time>
      </trkpt>
      <trkpt lat="48.89326" lon="2.03116">
        <ele>76.51</ele>
        <time>2022-09-25T10:59:23Z</time>
      </trkpt>
      <trkpt lat="48.89327" lon="2.03122">
        <ele>76.51</ele>
        <time>2022-09-25T10:59:26Z</time>
      </trkpt>
      <trkpt lat="48.89328" lon="2.03144">
        <ele>75.89</ele>
        <time>2022-09-25T10:59:38Z</time>
      </trkpt>
      <trkpt lat="48.89329" lon="2.03165">
        <ele>76.35</ele>
        <time>2022-09-25T10:59:50Z</time>
      </trkpt>
      <trkpt lat="48.89329" lon="2.03182">
        <ele>75.79</ele>
        <time>2022-09-25T11:00:00Z</time>
      </trkpt>
      <trkpt lat="48.8933" lon="2.03203">
        <ele>76.59</ele>
        <time>2022-09-25T11:00:11Z</time>
      </trkpt>
      <trkpt lat="48.89329" lon="2.03226">
        <ele>75.85</ele>
        <time>2022-09-25T11:00:24Z</time>
      </trkpt>
      <trkpt lat="48.8933" lon="2.0323">
        <ele>75.15</ele>
        <time>2022-09-25T11:00:29Z</time>
      </trkpt>
      <trkpt lat="48.89332" lon="2.03247">
        <ele>74.95</ele>
        <time>2022-09-25T11:00:38Z</time>
      </trkpt>
      <trkpt lat="48.89335" lon="2.03269">
        <ele>75.25</ele>
        <time>2022-09-25T11:00:52Z</time>
      </trkpt>
      <trkpt lat="48.89335" lon="2.0327">
        <ele>74.81</ele>
        <time>2022-09-25T11:00:53Z</time>
      </trkpt>
      <trkpt lat="48.89338" lon="2.03291">
        <ele>75.36</ele>
        <time>2022-09-25T11:01:05Z</time>
      </trkpt>
      <trkpt lat="48.89337" lon="2.03316">
        <ele>75.15</ele>
        <time>2022-09-25T11:01:21Z</time>
      </trkpt>
      <trkpt lat="48.89338" lon="2.0335">
        <ele>73.91</ele>
        <time>2022-09-25T11:01:43Z</time>
      </trkpt>
      <trkpt lat="48.8934" lon="2.0338">
        <ele>74.31</ele>
        <time>2022-09-25T11:01:59Z</time>
      </trkpt>
      <trkpt lat="48.8934" lon="2.03388">
        <ele>74.29</ele>
        <time>2022-09-25T11:02:04Z</time>
      </trkpt>
      <trkpt lat="48.8934" lon="2.0341">
        <ele>74.59</ele>
        <time>2022-09-25T11:02:17Z</time>
      </trkpt>
      <trkpt lat="48.89342" lon="2.03438">
        <ele>74.15</ele>
        <time>2022-09-25T11:02:33Z</time>
      </trkpt>
      <trkpt lat="48.89342" lon="2.03461">
        <ele>74</ele>
        <time>2022-09-25T11:02:46Z</time>
      </trkpt>
      <trkpt lat="48.89343" lon="2.0347">
        <ele>73.78</ele>
        <time>2022-09-25T11:02:52Z</time>
      </trkpt>
      <trkpt lat="48.89342" lon="2.03483">
        <ele>74.05</ele>
        <time>2022-09-25T11:02:59Z</time>
      </trkpt>
      <trkpt lat="48.89341" lon="2.03505">
        <ele>74.31</ele>
        <time>2022-09-25T11:03:11Z</time>
      </trkpt>
      <trkpt lat="48.89342" lon="2.0351">
        <ele>73.85</ele>
        <time>2022-09-25T11:03:17Z</time>
      </trkpt>
      <trkpt lat="48.89341" lon="2.03516">
        <ele>74.17</ele>
        <time>2022-09-25T11:03:20Z</time>
      </trkpt>
      <trkpt lat="48.89339" lon="2.0354">
        <ele>73.65</ele>
        <time>2022-09-25T11:03:33Z</time>
      </trkpt>
      <trkpt lat="48.89338" lon="2.03559">
        <ele>73.82</ele>
        <time>2022-09-25T11:03:44Z</time>
      </trkpt>
      <trkpt lat="48.89336" lon="2.03578">
        <ele>73.44</ele>
        <time>2022-09-25T11:03:54Z</time>
      </trkpt>
      <trkpt lat="48.89337" lon="2.03593">
        <ele>74.48</ele>
        <time>2022-09-25T11:04:06Z</time>
      </trkpt>
      <trkpt lat="48.89338" lon="2.03618">
        <ele>74.46</ele>
        <time>2022-09-25T11:04:20Z</time>
      </trkpt>
      <trkpt lat="48.89342" lon="2.03637">
        <ele>73.31</ele>
        <time>2022-09-25T11:04:31Z</time>
      </trkpt>
      <trkpt lat="48.89343" lon="2.0364">
        <ele>72.94</ele>
        <time>2022-09-25T11:04:33Z</time>
      </trkpt>
      <trkpt lat="48.89348" lon="2.03659">
        <ele>73.4</ele>
        <time>2022-09-25T11:04:44Z</time>
      </trkpt>
      <trkpt lat="48.89349" lon="2.03661">
        <ele>73.65</ele>
        <time>2022-09-25T11:04:46Z</time>
      </trkpt>
      <trkpt lat="48.89351" lon="2.0368">
        <ele>73.77</ele>
        <time>2022-09-25T11:04:57Z</time>
      </trkpt>
      <trkpt lat="48.89356" lon="2.03705">
        <ele>73.35</ele>
        <time>2022-09-25T11:05:14Z</time>
      </trkpt>
      <trkpt lat="48.89365" lon="2.03716">
        <ele>73.38</ele>
        <time>2022-09-25T11:05:25Z</time>
      </trkpt>
      <trkpt lat="48.89378" lon="2.03739">
        <ele>73.37</ele>
        <time>2022-09-25T11:05:39Z</time>
      </trkpt>
      <trkpt lat="48.89401" lon="2.03766">
        <ele>72.61</ele>
        <time>2022-09-25T11:05:59Z</time>
      </trkpt>
      <trkpt lat="48.89407" lon="2.03793">
        <ele>72.12</ele>
        <time>2022-09-25T11:06:17Z</time>
      </trkpt>
      <trkpt lat="48.89417" lon="2.0382">
        <ele>72.12</ele>
        <time>2022-09-25T11:06:34Z</time>
      </trkpt>
      <trkpt lat="48.8942" lon="2.03822">
        <ele>72.47</ele>
        <time>2022-09-25T11:06:38Z</time>
      </trkpt>
      <trkpt lat="48.89419" lon="2.03828">
        <ele>72.02</ele>
        <time>2022-09-25T11:06:57Z</time>
      </trkpt>
      <trkpt lat="48.89419" lon="2.03823">
        <ele>71.38</ele>
        <time>2022-09-25T11:07:14Z</time>
      </trkpt>
      <trkpt lat="48.8942" lon="2.03823">
        <ele>71.44</ele>
        <time>2022-09-25T11:07:37Z</time>
      </trkpt>
      <trkpt lat="48.8942" lon="2.0382">
        <ele>71.57</ele>
        <time>2022-09-25T11:07:54Z</time>
      </trkpt>
      <trkpt lat="48.89421" lon="2.03821">
        <ele>71.32</ele>
        <time>2022-09-25T11:08:10Z</time>
      </trkpt>
      <trkpt lat="48.89421" lon="2.03828">
        <ele>71.3</ele>
        <time>2022-09-25T11:08:28Z</time>
      </trkpt>
      <trkpt lat="48.89418" lon="2.03829">
        <ele>71.49</ele>
        <time>2022-09-25T11:08:46Z</time>
      </trkpt>
      <trkpt lat="48.89419" lon="2.03828">
        <ele>70.71</ele>
        <time>2022-09-25T11:09:00Z</time>
      </trkpt>
      <trkpt lat="48.89417" lon="2.03827">
        <ele>70.54</ele>
        <time>2022-09-25T11:09:24Z</time>
      </trkpt>
      <trkpt lat="48.89417" lon="2.03827">
        <ele>70.66</ele>
        <time>2022-09-25T11:09:41Z</time>
      </trkpt>
      <trkpt lat="48.89418" lon="2.03829">
        <ele>71.25</ele>
        <time>2022-09-25T11:10:02Z</time>
      </trkpt>
      <trkpt lat="48.89419" lon="2.03824">
        <ele>71.12</ele>
        <time>2022-09-25T11:10:23Z</time>
      </trkpt>
      <trkpt lat="48.8942" lon="2.03827">
        <ele>71.4</ele>
        <time>2022-09-25T11:10:45Z</time>
      </trkpt>
      <trkpt lat="48.89421" lon="2.03824">
        <ele>71.48</ele>
        <time>2022-09-25T11:11:09Z</time>
      </trkpt>
      <trkpt lat="48.89421" lon="2.03823">
        <ele>71.65</ele>
        <time>2022-09-25T11:11:30Z</time>
      </trkpt>
      <trkpt lat="48.89418" lon="2.03825">
        <ele>71.58</ele>
        <time>2022-09-25T11:11:56Z</time>
      </trkpt>
      <trkpt lat="48.89418" lon="2.03826">
        <ele>71.74</ele>
        <time>2022-09-25T11:12:22Z</time>
      </trkpt>
      <trkpt lat="48.89416" lon="2.03828">
        <ele>71.88</ele>
        <time>2022-09-25T11:13:01Z</time>
      </trkpt>
      <trkpt lat="48.89416" lon="2.03827">
        <ele>72.49</ele>
        <time>2022-09-25T11:13:25Z</time>
      </trkpt>
      <trkpt lat="48.89419" lon="2.03824">
        <ele>72.09</ele>
        <time>2022-09-25T11:13:56Z</time>
      </trkpt>
      <trkpt lat="48.8942" lon="2.03822">
        <ele>72.78</ele>
        <time>2022-09-25T11:14:20Z</time>
      </trkpt>
      <trkpt lat="48.89422" lon="2.03821">
        <ele>72.98</ele>
        <time>2022-09-25T11:14:42Z</time>
      </trkpt>
      <trkpt lat="48.89421" lon="2.03822">
        <ele>73.01</ele>
        <time>2022-09-25T11:15:18Z</time>
      </trkpt>
      <trkpt lat="48.89421" lon="2.03823">
        <ele>73.51</ele>
        <time>2022-09-25T11:15:51Z</time>
      </trkpt>
      <trkpt lat="48.89421" lon="2.03823">
        <ele>73.61</ele>
        <time>2022-09-25T11:16:16Z</time>
      </trkpt>
      <trkpt lat="48.89421" lon="2.03824">
        <ele>73.59</ele>
        <time>2022-09-25T11:16:53Z</time>
      </trkpt>
      <trkpt lat="48.89418" lon="2.03826">
        <ele>74.14</ele>
        <time>2022-09-25T11:17:24Z</time>
      </trkpt>
      <trkpt lat="48.89415" lon="2.03827">
        <ele>74.58</ele>
        <time>2022-09-25T11:17:46Z</time>
      </trkpt>
      <trkpt lat="48.89414" lon="2.03827">
        <ele>74.14</ele>
        <time>2022-09-25T11:18:04Z</time>
      </trkpt>
      <trkpt lat="48.89415" lon="2.03824">
        <ele>74.54</ele>
        <time>2022-09-25T11:18:27Z</time>
      </trkpt>
      <trkpt lat="48.89419" lon="2.03822">
        <ele>74.4</ele>
        <time>2022-09-25T11:18:50Z</time>
      </trkpt>
      <trkpt lat="48.89421" lon="2.03822">
        <ele>75.33</ele>
        <time>2022-09-25T11:19:27Z</time>
      </trkpt>
      <trkpt lat="48.89422" lon="2.03822">
        <ele>75.02</ele>
        <time>2022-09-25T11:20:06Z</time>
      </trkpt>
      <trkpt lat="48.89422" lon="2.03823">
        <ele>75.34</ele>
        <time>2022-09-25T11:20:40Z</time>
      </trkpt>
      <trkpt lat="48.89421" lon="2.03823">
        <ele>75.5</ele>
        <time>2022-09-25T11:21:18Z</time>
      </trkpt>
      <trkpt lat="48.89419" lon="2.03824">
        <ele>76.37</ele>
        <time>2022-09-25T11:21:40Z</time>
      </trkpt>
      <trkpt lat="48.89417" lon="2.03825">
        <ele>76.22</ele>
        <time>2022-09-25T11:22:01Z</time>
      </trkpt>
      <trkpt lat="48.89416" lon="2.03823">
        <ele>76.97</ele>
        <time>2022-09-25T11:22:24Z</time>
      </trkpt>
      <trkpt lat="48.89417" lon="2.03822">
        <ele>77.16</ele>
        <time>2022-09-25T11:22:50Z</time>
      </trkpt>
      <trkpt lat="48.89418" lon="2.03822">
        <ele>76.61</ele>
        <time>2022-09-25T11:23:10Z</time>
      </trkpt>
      <trkpt lat="48.89418" lon="2.03822">
        <ele>77.14</ele>
        <time>2022-09-25T11:23:35Z</time>
      </trkpt>
      <trkpt lat="48.89418" lon="2.03822">
        <ele>76.98</ele>
        <time>2022-09-25T11:24:04Z</time>
      </trkpt>
      <trkpt lat="48.89416" lon="2.03825">
        <ele>76.52</ele>
        <time>2022-09-25T11:24:26Z</time>
      </trkpt>
      <trkpt lat="48.89417" lon="2.03827">
        <ele>77.41</ele>
        <time>2022-09-25T11:24:53Z</time>
      </trkpt>
      <trkpt lat="48.89417" lon="2.03826">
        <ele>76.93</ele>
        <time>2022-09-25T11:25:16Z</time>
      </trkpt>
      <trkpt lat="48.89415" lon="2.03824">
        <ele>77.93</ele>
        <time>2022-09-25T11:25:31Z</time>
      </trkpt>
      <trkpt lat="48.89416" lon="2.03823">
        <ele>77.07</ele>
        <time>2022-09-25T11:25:55Z</time>
      </trkpt>
      <trkpt lat="48.89415" lon="2.0382">
        <ele>77.9</ele>
        <time>2022-09-25T11:26:40Z</time>
      </trkpt>
      <trkpt lat="48.89417" lon="2.03818">
        <ele>78.26</ele>
        <time>2022-09-25T11:27:13Z</time>
      </trkpt>
      <trkpt lat="48.89419" lon="2.03816">
        <ele>77.88</ele>
        <time>2022-09-25T11:27:47Z</time>
      </trkpt>
      <trkpt lat="48.89419" lon="2.03813">
        <ele>78.24</ele>
        <time>2022-09-25T11:28:09Z</time>
      </trkpt>
      <trkpt lat="48.89418" lon="2.03814">
        <ele>78.18</ele>
        <time>2022-09-25T11:28:49Z</time>
      </trkpt>
      <trkpt lat="48.89416" lon="2.03817">
        <ele>78.38</ele>
        <time>2022-09-25T11:29:21Z</time>
      </trkpt>
      <trkpt lat="48.89414" lon="2.0382">
        <ele>78.61</ele>
        <time>2022-09-25T11:30:05Z</time>
      </trkpt>
      <trkpt lat="48.89414" lon="2.03818">
        <ele>78.91</ele>
        <time>2022-09-25T11:30:56Z</time>
      </trkpt>
      <trkpt lat="48.89414" lon="2.03817">
        <ele>78.98</ele>
        <time>2022-09-25T11:31:43Z</time>
      </trkpt>
      <trkpt lat="48.89413" lon="2.03818">
        <ele>79.05</ele>
        <time>2022-09-25T11:32:34Z</time>
      </trkpt>
      <trkpt lat="48.89414" lon="2.03818">
        <ele>79.29</ele>
        <time>2022-09-25T11:33:26Z</time>
      </trkpt>
      <trkpt lat="48.89415" lon="2.03818">
        <ele>79.66</ele>
        <time>2022-09-25T11:34:17Z</time>
      </trkpt>
      <trkpt lat="48.89414" lon="2.03818">
        <ele>79.51</ele>
        <time>2022-09-25T11:35:08Z</time>
      </trkpt>
      <trkpt lat="48.89413" lon="2.03817">
        <ele>79.9</ele>
        <time>2022-09-25T11:36:02Z</time>
      </trkpt>
      <trkpt lat="48.89413" lon="2.03816">
        <ele>80.41</ele>
        <time>2022-09-25T11:36:57Z</time>
      </trkpt>
      <trkpt lat="48.89414" lon="2.03815">
        <ele>80.48</ele>
        <time>2022-09-25T11:37:34Z</time>
      </trkpt>
      <trkpt lat="48.89415" lon="2.03815">
        <ele>80.72</ele>
        <time>2022-09-25T11:38:20Z</time>
      </trkpt>
      <trkpt lat="48.89415" lon="2.03816">
        <ele>81.39</ele>
        <time>2022-09-25T11:38:51Z</time>
      </trkpt>
      <trkpt lat="48.89415" lon="2.03818">
        <ele>81.02</ele>
        <time>2022-09-25T11:39:25Z</time>
      </trkpt>
      <trkpt lat="48.89415" lon="2.03819">
        <ele>81.41</ele>
        <time>2022-09-25T11:40:04Z</time>
      </trkpt>
      <trkpt lat="48.89415" lon="2.03819">
        <ele>81.44</ele>
        <time>2022-09-25T11:40:53Z</time>
      </trkpt>
      <trkpt lat="48.89415" lon="2.03818">
        <ele>81.18</ele>
        <time>2022-09-25T11:41:46Z</time>
      </trkpt>
      <trkpt lat="48.89415" lon="2.03817">
        <ele>81.27</ele>
        <time>2022-09-25T11:42:44Z</time>
      </trkpt>
      <trkpt lat="48.89416" lon="2.03815">
        <ele>81.39</ele>
        <time>2022-09-25T11:43:33Z</time>
      </trkpt>
      <trkpt lat="48.89416" lon="2.03815">
        <ele>81.31</ele>
        <time>2022-09-25T11:44:16Z</time>
      </trkpt>
      <trkpt lat="48.89417" lon="2.03815">
        <ele>80.68</ele>
        <time>2022-09-25T11:45:00Z</time>
      </trkpt>
      <trkpt lat="48.89417" lon="2.03814">
        <ele>81.14</ele>
        <time>2022-09-25T11:45:20Z</time>
      </trkpt>
      <trkpt lat="48.89415" lon="2.03815">
        <ele>82.25</ele>
        <time>2022-09-25T11:45:51Z</time>
      </trkpt>
      <trkpt lat="48.89413" lon="2.03819">
        <ele>82.26</ele>
        <time>2022-09-25T11:46:08Z</time>
      </trkpt>
      <trkpt lat="48.89413" lon="2.03817">
        <ele>82.47</ele>
        <time>2022-09-25T11:46:27Z</time>
      </trkpt>
      <trkpt lat="48.89413" lon="2.03816">
        <ele>81.87</ele>
        <time>2022-09-25T11:46:46Z</time>
      </trkpt>
      <trkpt lat="48.89414" lon="2.03817">
        <ele>82.45</ele>
        <time>2022-09-25T11:47:04Z</time>
      </trkpt>
      <trkpt lat="48.89416" lon="2.03817">
        <ele>81.89</ele>
        <time>2022-09-25T11:47:25Z</time>
      </trkpt>
      <trkpt lat="48.89415" lon="2.03817">
        <ele>82.36</ele>
        <time>2022-09-25T11:47:48Z</time>
      </trkpt>
      <trkpt lat="48.89413" lon="2.03817">
        <ele>82.02</ele>
        <time>2022-09-25T11:48:10Z</time>
      </trkpt>
      <trkpt lat="48.89414" lon="2.0382">
        <ele>81.7</ele>
        <time>2022-09-25T11:48:31Z</time>
      </trkpt>
      <trkpt lat="48.89412" lon="2.0382">
        <ele>82.06</ele>
        <time>2022-09-25T11:48:50Z</time>
      </trkpt>
      <trkpt lat="48.89412" lon="2.03821">
        <ele>82.02</ele>
        <time>2022-09-25T11:49:08Z</time>
      </trkpt>
      <trkpt lat="48.89413" lon="2.03823">
        <ele>81.96</ele>
        <time>2022-09-25T11:49:21Z</time>
      </trkpt>
      <trkpt lat="48.89416" lon="2.03829">
        <ele>82.46</ele>
        <time>2022-09-25T11:49:36Z</time>
      </trkpt>
      <trkpt lat="48.89415" lon="2.03838">
        <ele>82.34</ele>
        <time>2022-09-25T11:49:53Z</time>
      </trkpt>
      <trkpt lat="48.89415" lon="2.03838">
        <ele>81.86</ele>
        <time>2022-09-25T11:50:14Z</time>
      </trkpt>
      <trkpt lat="48.89417" lon="2.03839">
        <ele>80.73</ele>
        <time>2022-09-25T11:50:35Z</time>
      </trkpt>
      <trkpt lat="48.89418" lon="2.03838">
        <ele>81.15</ele>
        <time>2022-09-25T11:50:52Z</time>
      </trkpt>
      <trkpt lat="48.89417" lon="2.03836">
        <ele>81.32</ele>
        <time>2022-09-25T11:51:13Z</time>
      </trkpt>
      <trkpt lat="48.89418" lon="2.03843">
        <ele>81.25</ele>
        <time>2022-09-25T11:51:25Z</time>
      </trkpt>
      <trkpt lat="48.89418" lon="2.0385">
        <ele>80.68</ele>
        <time>2022-09-25T11:51:42Z</time>
      </trkpt>
      <trkpt lat="48.89419" lon="2.0385">
        <ele>81.8</ele>
        <time>2022-09-25T11:52:00Z</time>
      </trkpt>
      <trkpt lat="48.89426" lon="2.03861">
        <ele>80.25</ele>
        <time>2022-09-25T11:52:15Z</time>
      </trkpt>
      <trkpt lat="48.89432" lon="2.03877">
        <ele>79.82</ele>
        <time>2022-09-25T11:52:30Z</time>
      </trkpt>
      <trkpt lat="48.89439" lon="2.03894">
        <ele>79.57</ele>
        <time>2022-09-25T11:52:47Z</time>
      </trkpt>
      <trkpt lat="48.89447" lon="2.03913">
        <ele>79.97</ele>
        <time>2022-09-25T11:53:06Z</time>
      </trkpt>
      <trkpt lat="48.89456" lon="2.03928">
        <ele>79.85</ele>
        <time>2022-09-25T11:53:20Z</time>
      </trkpt>
      <trkpt lat="48.89468" lon="2.03946">
        <ele>80.08</ele>
        <time>2022-09-25T11:53:38Z</time>
      </trkpt>
      <trkpt lat="48.89478" lon="2.03966">
        <ele>79.59</ele>
        <time>2022-09-25T11:53:54Z</time>
      </trkpt>
      <trkpt lat="48.89495" lon="2.03989">
        <ele>79.47</ele>
        <time>2022-09-25T11:54:13Z</time>
      </trkpt>
      <trkpt lat="48.89511" lon="2.04005">
        <ele>79.48</ele>
        <time>2022-09-25T11:54:29Z</time>
      </trkpt>
      <trkpt lat="48.89517" lon="2.0401">
        <ele>79.26</ele>
        <time>2022-09-25T11:54:35Z</time>
      </trkpt>
      <trkpt lat="48.89528" lon="2.04021">
        <ele>79.58</ele>
        <time>2022-09-25T11:54:47Z</time>
      </trkpt>
      <trkpt lat="48.89533" lon="2.04028">
        <ele>78.89</ele>
        <time>2022-09-25T11:54:54Z</time>
      </trkpt>
      <trkpt lat="48.89542" lon="2.04038">
        <ele>78.77</ele>
        <time>2022-09-25T11:55:05Z</time>
      </trkpt>
      <trkpt lat="48.89553" lon="2.04057">
        <ele>78.37</ele>
        <time>2022-09-25T11:55:20Z</time>
      </trkpt>
      <trkpt lat="48.89564" lon="2.04073">
        <ele>78.7</ele>
        <time>2022-09-25T11:55:35Z</time>
      </trkpt>
      <trkpt lat="48.89574" lon="2.04093">
        <ele>78.66</ele>
        <time>2022-09-25T11:55:51Z</time>
      </trkpt>
      <trkpt lat="48.89575" lon="2.04104">
        <ele>78.9</ele>
        <time>2022-09-25T11:56:09Z</time>
      </trkpt>
      <trkpt lat="48.89576" lon="2.04106">
        <ele>79.53</ele>
        <time>2022-09-25T11:56:25Z</time>
      </trkpt>
      <trkpt lat="48.89574" lon="2.04114">
        <ele>80.96</ele>
        <time>2022-09-25T11:56:47Z</time>
      </trkpt>
      <trkpt lat="48.89571" lon="2.04115">
        <ele>81.48</ele>
        <time>2022-09-25T11:57:07Z</time>
      </trkpt>
      <trkpt lat="48.89569" lon="2.04117">
        <ele>81.72</ele>
        <time>2022-09-25T11:57:10Z</time>
      </trkpt>
      <trkpt lat="48.89563" lon="2.04123">
        <ele>83.33</ele>
        <time>2022-09-25T11:57:30Z</time>
      </trkpt>
      <trkpt lat="48.89552" lon="2.04135">
        <ele>85.13</ele>
        <time>2022-09-25T11:57:47Z</time>
      </trkpt>
      <trkpt lat="48.89544" lon="2.04146">
        <ele>87.05</ele>
        <time>2022-09-25T11:58:03Z</time>
      </trkpt>
      <trkpt lat="48.89534" lon="2.04158">
        <ele>88.03</ele>
        <time>2022-09-25T11:58:17Z</time>
      </trkpt>
      <trkpt lat="48.89527" lon="2.0416">
        <ele>88.42</ele>
        <time>2022-09-25T11:58:31Z</time>
      </trkpt>
      <trkpt lat="48.89512" lon="2.04149">
        <ele>90.5</ele>
        <time>2022-09-25T11:58:50Z</time>
      </trkpt>
      <trkpt lat="48.89502" lon="2.04133">
        <ele>90.21</ele>
        <time>2022-09-25T11:59:06Z</time>
      </trkpt>
      <trkpt lat="48.89491" lon="2.04113">
        <ele>90.29</ele>
        <time>2022-09-25T11:59:23Z</time>
      </trkpt>
      <trkpt lat="48.89481" lon="2.04104">
        <ele>90.4</ele>
        <time>2022-09-25T11:59:39Z</time>
      </trkpt>
      <trkpt lat="48.89468" lon="2.04091">
        <ele>90.61</ele>
        <time>2022-09-25T11:59:55Z</time>
      </trkpt>
      <trkpt lat="48.89453" lon="2.04073">
        <ele>91.43</ele>
        <time>2022-09-25T12:00:11Z</time>
      </trkpt>
      <trkpt lat="48.89452" lon="2.0407">
        <ele>90.03</ele>
        <time>2022-09-25T12:00:13Z</time>
      </trkpt>
      <trkpt lat="48.89448" lon="2.04067">
        <ele>91.4</ele>
        <time>2022-09-25T12:00:18Z</time>
      </trkpt>
      <trkpt lat="48.89436" lon="2.04057">
        <ele>92.27</ele>
        <time>2022-09-25T12:00:34Z</time>
      </trkpt>
      <trkpt lat="48.89427" lon="2.04044">
        <ele>92.89</ele>
        <time>2022-09-25T12:00:51Z</time>
      </trkpt>
      <trkpt lat="48.89423" lon="2.04041">
        <ele>93.03</ele>
        <time>2022-09-25T12:01:07Z</time>
      </trkpt>
      <trkpt lat="48.89418" lon="2.04046">
        <ele>94.16</ele>
        <time>2022-09-25T12:01:22Z</time>
      </trkpt>
      <trkpt lat="48.89404" lon="2.04056">
        <ele>95.28</ele>
        <time>2022-09-25T12:01:41Z</time>
      </trkpt>
      <trkpt lat="48.89392" lon="2.04066">
        <ele>96.98</ele>
        <time>2022-09-25T12:01:57Z</time>
      </trkpt>
      <trkpt lat="48.89382" lon="2.04078">
        <ele>97.25</ele>
        <time>2022-09-25T12:02:14Z</time>
      </trkpt>
      <trkpt lat="48.89371" lon="2.04086">
        <ele>97.9</ele>
        <time>2022-09-25T12:02:27Z</time>
      </trkpt>
      <trkpt lat="48.89357" lon="2.04095">
        <ele>98.89</ele>
        <time>2022-09-25T12:02:42Z</time>
      </trkpt>
      <trkpt lat="48.89348" lon="2.04103">
        <ele>100.23</ele>
        <time>2022-09-25T12:02:58Z</time>
      </trkpt>
      <trkpt lat="48.89337" lon="2.04113">
        <ele>100.09</ele>
        <time>2022-09-25T12:03:13Z</time>
      </trkpt>
      <trkpt lat="48.89324" lon="2.04125">
        <ele>100.56</ele>
        <time>2022-09-25T12:03:30Z</time>
      </trkpt>
      <trkpt lat="48.89309" lon="2.04136">
        <ele>101.19</ele>
        <time>2022-09-25T12:03:47Z</time>
      </trkpt>
      <trkpt lat="48.89293" lon="2.04151">
        <ele>101.86</ele>
        <time>2022-09-25T12:04:06Z</time>
      </trkpt>
      <trkpt lat="48.89279" lon="2.04167">
        <ele>102.09</ele>
        <time>2022-09-25T12:04:20Z</time>
      </trkpt>
      <trkpt lat="48.89271" lon="2.04172">
        <ele>101.91</ele>
        <time>2022-09-25T12:04:25Z</time>
      </trkpt>
      <trkpt lat="48.89259" lon="2.04184">
        <ele>102.09</ele>
        <time>2022-09-25T12:04:38Z</time>
      </trkpt>
      <trkpt lat="48.89251" lon="2.04188">
        <ele>102.52</ele>
        <time>2022-09-25T12:04:56Z</time>
      </trkpt>
      <trkpt lat="48.89239" lon="2.04195">
        <ele>102.41</ele>
        <time>2022-09-25T12:05:12Z</time>
      </trkpt>
      <trkpt lat="48.89223" lon="2.04208">
        <ele>102.7</ele>
        <time>2022-09-25T12:05:30Z</time>
      </trkpt>
      <trkpt lat="48.89215" lon="2.04213">
        <ele>102.04</ele>
        <time>2022-09-25T12:05:44Z</time>
      </trkpt>
      <trkpt lat="48.89207" lon="2.04219">
        <ele>102.46</ele>
        <time>2022-09-25T12:05:56Z</time>
      </trkpt>
      <trkpt lat="48.89198" lon="2.04229">
        <ele>102.4</ele>
        <time>2022-09-25T12:06:12Z</time>
      </trkpt>
      <trkpt lat="48.89182" lon="2.04244">
        <ele>102.73</ele>
        <time>2022-09-25T12:06:30Z</time>
      </trkpt>
      <trkpt lat="48.89179" lon="2.04248">
        <ele>102.66</ele>
        <time>2022-09-25T12:06:34Z</time>
      </trkpt>
      <trkpt lat="48.89161" lon="2.04264">
        <ele>102.34</ele>
        <time>2022-09-25T12:06:54Z</time>
      </trkpt>
      <trkpt lat="48.89142" lon="2.04274">
        <ele>102.68</ele>
        <time>2022-09-25T12:07:14Z</time>
      </trkpt>
      <trkpt lat="48.89132" lon="2.04294">
        <ele>102.51</ele>
        <time>2022-09-25T12:07:33Z</time>
      </trkpt>
      <trkpt lat="48.89114" lon="2.04305">
        <ele>102.57</ele>
        <time>2022-09-25T12:07:49Z</time>
      </trkpt>
      <trkpt lat="48.89099" lon="2.04318">
        <ele>101.92</ele>
        <time>2022-09-25T12:08:06Z</time>
      </trkpt>
      <trkpt lat="48.89084" lon="2.04332">
        <ele>102.28</ele>
        <time>2022-09-25T12:08:24Z</time>
      </trkpt>
      <trkpt lat="48.89065" lon="2.04346">
        <ele>101.71</ele>
        <time>2022-09-25T12:08:39Z</time>
      </trkpt>
      <trkpt lat="48.89046" lon="2.04361">
        <ele>102.29</ele>
        <time>2022-09-25T12:08:55Z</time>
      </trkpt>
      <trkpt lat="48.89032" lon="2.04372">
        <ele>101.66</ele>
        <time>2022-09-25T12:09:11Z</time>
      </trkpt>
      <trkpt lat="48.89016" lon="2.04384">
        <ele>101.72</ele>
        <time>2022-09-25T12:09:29Z</time>
      </trkpt>
      <trkpt lat="48.88999" lon="2.04399">
        <ele>101.46</ele>
        <time>2022-09-25T12:09:44Z</time>
      </trkpt>
      <trkpt lat="48.88986" lon="2.04408">
        <ele>101.01</ele>
        <time>2022-09-25T12:09:57Z</time>
      </trkpt>
      <trkpt lat="48.88969" lon="2.04427">
        <ele>101.28</ele>
        <time>2022-09-25T12:10:15Z</time>
      </trkpt>
      <trkpt lat="48.88963" lon="2.04439">
        <ele>100.83</ele>
        <time>2022-09-25T12:10:27Z</time>
      </trkpt>
      <trkpt lat="48.88961" lon="2.04439">
        <ele>101.28</ele>
        <time>2022-09-25T12:10:44Z</time>
      </trkpt>
      <trkpt lat="48.88961" lon="2.04442">
        <ele>100.98</ele>
        <time>2022-09-25T12:11:01Z</time>
      </trkpt>
      <trkpt lat="48.88959" lon="2.04445">
        <ele>101.09</ele>
        <time>2022-09-25T12:11:20Z</time>
      </trkpt>
      <trkpt lat="48.88955" lon="2.04447">
        <ele>101.08</ele>
        <time>2022-09-25T12:11:41Z</time>
      </trkpt>
      <trkpt lat="48.88955" lon="2.0444">
        <ele>101.09</ele>
        <time>2022-09-25T12:11:57Z</time>
      </trkpt>
      <trkpt lat="48.88957" lon="2.04439">
        <ele>101.37</ele>
        <time>2022-09-25T12:12:17Z</time>
      </trkpt>
      <trkpt lat="48.88957" lon="2.04441">
        <ele>101.59</ele>
        <time>2022-09-25T12:12:35Z</time>
      </trkpt>
      <trkpt lat="48.88954" lon="2.04441">
        <ele>101.68</ele>
        <time>2022-09-25T12:12:54Z</time>
      </trkpt>
      <trkpt lat="48.88955" lon="2.04443">
        <ele>101.78</ele>
        <time>2022-09-25T12:13:15Z</time>
      </trkpt>
      <trkpt lat="48.88957" lon="2.04443">
        <ele>101.88</ele>
        <time>2022-09-25T12:13:35Z</time>
      </trkpt>
      <trkpt lat="48.88957" lon="2.04443">
        <ele>101.83</ele>
        <time>2022-09-25T12:13:56Z</time>
      </trkpt>
      <trkpt lat="48.88959" lon="2.04445">
        <ele>101.85</ele>
        <time>2022-09-25T12:14:24Z</time>
      </trkpt>
      <trkpt lat="48.88958" lon="2.04444">
        <ele>102.12</ele>
        <time>2022-09-25T12:14:43Z</time>
      </trkpt>
      <trkpt lat="48.88958" lon="2.04446">
        <ele>101.82</ele>
        <time>2022-09-25T12:15:02Z</time>
      </trkpt>
      <trkpt lat="48.88958" lon="2.04448">
        <ele>101.97</ele>
        <time>2022-09-25T12:15:18Z</time>
      </trkpt>
      <trkpt lat="48.88958" lon="2.04448">
        <ele>102.35</ele>
        <time>2022-09-25T12:15:36Z</time>
      </trkpt>
      <trkpt lat="48.88957" lon="2.04452">
        <ele>102.5</ele>
        <time>2022-09-25T12:15:50Z</time>
      </trkpt>
      <trkpt lat="48.88953" lon="2.04456">
        <ele>101.89</ele>
        <time>2022-09-25T12:16:00Z</time>
      </trkpt>
      <trkpt lat="48.88939" lon="2.04462">
        <ele>102.3</ele>
        <time>2022-09-25T12:16:16Z</time>
      </trkpt>
      <trkpt lat="48.88925" lon="2.04471">
        <ele>102.86</ele>
        <time>2022-09-25T12:16:33Z</time>
      </trkpt>
      <trkpt lat="48.88914" lon="2.0448">
        <ele>103.01</ele>
        <time>2022-09-25T12:16:49Z</time>
      </trkpt>
      <trkpt lat="48.88905" lon="2.04486">
        <ele>103.01</ele>
        <time>2022-09-25T12:17:03Z</time>
      </trkpt>
      <trkpt lat="48.88889" lon="2.04499">
        <ele>104.16</ele>
        <time>2022-09-25T12:17:21Z</time>
      </trkpt>
      <trkpt lat="48.88876" lon="2.0451">
        <ele>104.84</ele>
        <time>2022-09-25T12:17:36Z</time>
      </trkpt>
      <trkpt lat="48.88864" lon="2.04516">
        <ele>105.26</ele>
        <time>2022-09-25T12:17:49Z</time>
      </trkpt>
      <trkpt lat="48.88846" lon="2.04531">
        <ele>105.17</ele>
        <time>2022-09-25T12:18:06Z</time>
      </trkpt>
      <trkpt lat="48.88838" lon="2.04535">
        <ele>105.68</ele>
        <time>2022-09-25T12:18:15Z</time>
      </trkpt>
      <trkpt lat="48.88835" lon="2.04538">
        <ele>105.81</ele>
        <time>2022-09-25T12:18:17Z</time>
      </trkpt>
      <trkpt lat="48.8883" lon="2.04541">
        <ele>105.34</ele>
        <time>2022-09-25T12:18:22Z</time>
      </trkpt>
      <trkpt lat="48.88819" lon="2.04547">
        <ele>105.77</ele>
        <time>2022-09-25T12:18:36Z</time>
      </trkpt>
      <trkpt lat="48.88807" lon="2.04548">
        <ele>106.29</ele>
        <time>2022-09-25T12:18:51Z</time>
      </trkpt>
      <trkpt lat="48.88792" lon="2.04553">
        <ele>106.04</ele>
        <time>2022-09-25T12:19:08Z</time>
      </trkpt>
      <trkpt lat="48.88779" lon="2.0456">
        <ele>106.22</ele>
        <time>2022-09-25T12:19:21Z</time>
      </trkpt>
      <trkpt lat="48.88762" lon="2.04562">
        <ele>105.6</ele>
        <time>2022-09-25T12:19:38Z</time>
      </trkpt>
      <trkpt lat="48.88744" lon="2.04566">
        <ele>105.08</ele>
        <time>2022-09-25T12:19:54Z</time>
      </trkpt>
      <trkpt lat="48.88737" lon="2.04567">
        <ele>105.34</ele>
        <time>2022-09-25T12:20:00Z</time>
      </trkpt>
      <trkpt lat="48.88721" lon="2.04572">
        <ele>104.77</ele>
        <time>2022-09-25T12:20:16Z</time>
      </trkpt>
      <trkpt lat="48.88709" lon="2.04577">
        <ele>104.4</ele>
        <time>2022-09-25T12:20:32Z</time>
      </trkpt>
      <trkpt lat="48.88703" lon="2.04579">
        <ele>104.1</ele>
        <time>2022-09-25T12:20:50Z</time>
      </trkpt>
      <trkpt lat="48.88689" lon="2.0458">
        <ele>103.24</ele>
        <time>2022-09-25T12:21:01Z</time>
      </trkpt>
      <trkpt lat="48.88669" lon="2.04586">
        <ele>103.27</ele>
        <time>2022-09-25T12:21:18Z</time>
      </trkpt>
      <trkpt lat="48.88649" lon="2.0459">
        <ele>102.53</ele>
        <time>2022-09-25T12:21:36Z</time>
      </trkpt>
      <trkpt lat="48.8863" lon="2.04596">
        <ele>102.06</ele>
        <time>2022-09-25T12:21:50Z</time>
      </trkpt>
      <trkpt lat="48.88619" lon="2.04598">
        <ele>101.77</ele>
        <time>2022-09-25T12:22:02Z</time>
      </trkpt>
      <trkpt lat="48.88607" lon="2.04598">
        <ele>101.84</ele>
        <time>2022-09-25T12:22:17Z</time>
      </trkpt>
      <trkpt lat="48.88598" lon="2.046">
        <ele>101.37</ele>
        <time>2022-09-25T12:22:26Z</time>
      </trkpt>
      <trkpt lat="48.8859" lon="2.04599">
        <ele>101.52</ele>
        <time>2022-09-25T12:22:32Z</time>
      </trkpt>
      <trkpt lat="48.88572" lon="2.04601">
        <ele>101.14</ele>
        <time>2022-09-25T12:22:47Z</time>
      </trkpt>
      <trkpt lat="48.88571" lon="2.046">
        <ele>100.86</ele>
        <time>2022-09-25T12:22:49Z</time>
      </trkpt>
      <trkpt lat="48.88555" lon="2.04598">
        <ele>100.68</ele>
        <time>2022-09-25T12:23:05Z</time>
      </trkpt>
      <trkpt lat="48.88536" lon="2.04598">
        <ele>100.44</ele>
        <time>2022-09-25T12:23:22Z</time>
      </trkpt>
      <trkpt lat="48.88511" lon="2.04588">
        <ele>98.9</ele>
        <time>2022-09-25T12:23:43Z</time>
      </trkpt>
      <trkpt lat="48.88494" lon="2.04588">
        <ele>98.57</ele>
        <time>2022-09-25T12:23:59Z</time>
      </trkpt>
      <trkpt lat="48.88491" lon="2.04587">
        <ele>98.33</ele>
        <time>2022-09-25T12:24:01Z</time>
      </trkpt>
      <trkpt lat="48.88482" lon="2.04585">
        <ele>98.52</ele>
        <time>2022-09-25T12:24:07Z</time>
      </trkpt>
      <trkpt lat="48.88468" lon="2.04584">
        <ele>98.14</ele>
        <time>2022-09-25T12:24:19Z</time>
      </trkpt>
      <trkpt lat="48.88443" lon="2.04586">
        <ele>97.89</ele>
        <time>2022-09-25T12:24:39Z</time>
      </trkpt>
      <trkpt lat="48.88424" lon="2.04584">
        <ele>97.17</ele>
        <time>2022-09-25T12:24:54Z</time>
      </trkpt>
      <trkpt lat="48.88413" lon="2.04581">
        <ele>96.72</ele>
        <time>2022-09-25T12:25:02Z</time>
      </trkpt>
      <trkpt lat="48.88395" lon="2.04579">
        <ele>97.5</ele>
        <time>2022-09-25T12:25:13Z</time>
      </trkpt>
      <trkpt lat="48.88385" lon="2.04582">
        <ele>96.89</ele>
        <time>2022-09-25T12:25:27Z</time>
      </trkpt>
      <trkpt lat="48.88386" lon="2.04589">
        <ele>97.5</ele>
        <time>2022-09-25T12:25:48Z</time>
      </trkpt>
      <trkpt lat="48.88384" lon="2.04585">
        <ele>97.12</ele>
        <time>2022-09-25T12:26:06Z</time>
      </trkpt>
      <trkpt lat="48.88383" lon="2.04583">
        <ele>97.37</ele>
        <time>2022-09-25T12:26:23Z</time>
      </trkpt>
      <trkpt lat="48.88389" lon="2.04585">
        <ele>97.96</ele>
        <time>2022-09-25T12:26:40Z</time>
      </trkpt>
      <trkpt lat="48.88389" lon="2.04586">
        <ele>98.11</ele>
        <time>2022-09-25T12:27:00Z</time>
      </trkpt>
      <trkpt lat="48.88383" lon="2.04594">
        <ele>97.64</ele>
        <time>2022-09-25T12:27:20Z</time>
      </trkpt>
      <trkpt lat="48.88384" lon="2.04593">
        <ele>97.99</ele>
        <time>2022-09-25T12:27:23Z</time>
      </trkpt>
      <trkpt lat="48.88387" lon="2.04597">
        <ele>98</ele>
        <time>2022-09-25T12:27:44Z</time>
      </trkpt>
      <trkpt lat="48.88385" lon="2.04598">
        <ele>97.22</ele>
        <time>2022-09-25T12:28:01Z</time>
      </trkpt>
      <trkpt lat="48.88387" lon="2.04601">
        <ele>97.39</ele>
        <time>2022-09-25T12:28:23Z</time>
      </trkpt>
      <trkpt lat="48.88388" lon="2.04605">
        <ele>97.31</ele>
        <time>2022-09-25T12:28:48Z</time>
      </trkpt>
      <trkpt lat="48.88386" lon="2.04601">
        <ele>97.59</ele>
        <time>2022-09-25T12:29:08Z</time>
      </trkpt>
      <trkpt lat="48.88384" lon="2.04593">
        <ele>98.06</ele>
        <time>2022-09-25T12:29:29Z</time>
      </trkpt>
      <trkpt lat="48.88381" lon="2.04585">
        <ele>97.77</ele>
        <time>2022-09-25T12:29:47Z</time>
      </trkpt>
      <trkpt lat="48.88381" lon="2.04583">
        <ele>97.93</ele>
        <time>2022-09-25T12:30:06Z</time>
      </trkpt>
      <trkpt lat="48.88379" lon="2.04586">
        <ele>98.34</ele>
        <time>2022-09-25T12:30:30Z</time>
      </trkpt>
      <trkpt lat="48.88381" lon="2.04589">
        <ele>98.46</ele>
        <time>2022-09-25T12:30:52Z</time>
      </trkpt>
      <trkpt lat="48.88377" lon="2.04589">
        <ele>98.34</ele>
        <time>2022-09-25T12:31:11Z</time>
      </trkpt>
      <trkpt lat="48.88377" lon="2.04589">
        <ele>98.29</ele>
        <time>2022-09-25T12:31:32Z</time>
      </trkpt>
      <trkpt lat="48.88374" lon="2.04595">
        <ele>98.27</ele>
        <time>2022-09-25T12:31:48Z</time>
      </trkpt>
      <trkpt lat="48.88375" lon="2.04592">
        <ele>98.1</ele>
        <time>2022-09-25T12:31:54Z</time>
      </trkpt>
      <trkpt lat="48.88362" lon="2.04584">
        <ele>97.77</ele>
        <time>2022-09-25T12:32:08Z</time>
      </trkpt>
      <trkpt lat="48.88355" lon="2.04578">
        <ele>98.72</ele>
        <time>2022-09-25T12:32:24Z</time>
      </trkpt>
      <trkpt lat="48.88347" lon="2.04571">
        <ele>99.64</ele>
        <time>2022-09-25T12:32:41Z</time>
      </trkpt>
      <trkpt lat="48.88334" lon="2.04561">
        <ele>101.04</ele>
        <time>2022-09-25T12:32:55Z</time>
      </trkpt>
      <trkpt lat="48.88321" lon="2.04552">
        <ele>102.46</ele>
        <time>2022-09-25T12:33:11Z</time>
      </trkpt>
      <trkpt lat="48.88308" lon="2.04544">
        <ele>104.78</ele>
        <time>2022-09-25T12:33:25Z</time>
      </trkpt>
      <trkpt lat="48.88302" lon="2.04539">
        <ele>106.05</ele>
        <time>2022-09-25T12:33:39Z</time>
      </trkpt>
      <trkpt lat="48.88293" lon="2.04529">
        <ele>109.07</ele>
        <time>2022-09-25T12:33:55Z</time>
      </trkpt>
      <trkpt lat="48.8828" lon="2.04516">
        <ele>111.7</ele>
        <time>2022-09-25T12:34:14Z</time>
      </trkpt>
      <trkpt lat="48.88264" lon="2.04506">
        <ele>114.45</ele>
        <time>2022-09-25T12:34:31Z</time>
      </trkpt>
      <trkpt lat="48.88261" lon="2.04497">
        <ele>114.46</ele>
        <time>2022-09-25T12:34:50Z</time>
      </trkpt>
      <trkpt lat="48.88255" lon="2.0449">
        <ele>115.81</ele>
        <time>2022-09-25T12:35:07Z</time>
      </trkpt>
      <trkpt lat="48.88251" lon="2.04484">
        <ele>116.54</ele>
        <time>2022-09-25T12:35:13Z</time>
      </trkpt>
      <trkpt lat="48.88242" lon="2.0448">
        <ele>117.77</ele>
        <time>2022-09-25T12:35:30Z</time>
      </trkpt>
      <trkpt lat="48.88232" lon="2.04471">
        <ele>119.62</ele>
        <time>2022-09-25T12:35:43Z</time>
      </trkpt>
      <trkpt lat="48.88222" lon="2.04475">
        <ele>121.56</ele>
        <time>2022-09-25T12:35:58Z</time>
      </trkpt>
      <trkpt lat="48.88212" lon="2.04488">
        <ele>123.69</ele>
        <time>2022-09-25T12:36:14Z</time>
      </trkpt>
      <trkpt lat="48.88204" lon="2.04503">
        <ele>124.93</ele>
        <time>2022-09-25T12:36:29Z</time>
      </trkpt>
      <trkpt lat="48.88196" lon="2.04516">
        <ele>125.61</ele>
        <time>2022-09-25T12:36:46Z</time>
      </trkpt>
      <trkpt lat="48.88188" lon="2.04528">
        <ele>126.5</ele>
        <time>2022-09-25T12:37:03Z</time>
      </trkpt>
      <trkpt lat="48.88182" lon="2.04538">
        <ele>126.4</ele>
        <time>2022-09-25T12:37:12Z</time>
      </trkpt>
      <trkpt lat="48.88173" lon="2.04561">
        <ele>127.72</ele>
        <time>2022-09-25T12:37:25Z</time>
      </trkpt>
      <trkpt lat="48.88171" lon="2.04565">
        <ele>127.78</ele>
        <time>2022-09-25T12:37:43Z</time>
      </trkpt>
      <trkpt lat="48.88162" lon="2.04569">
        <ele>127.17</ele>
        <time>2022-09-25T12:38:05Z</time>
      </trkpt>
      <trkpt lat="48.88149" lon="2.04568">
        <ele>128.85</ele>
        <time>2022-09-25T12:38:22Z</time>
      </trkpt>
      <trkpt lat="48.88137" lon="2.04568">
        <ele>129.56</ele>
        <time>2022-09-25T12:38:38Z</time>
      </trkpt>
      <trkpt lat="48.88122" lon="2.0457">
        <ele>130.24</ele>
        <time>2022-09-25T12:38:55Z</time>
      </trkpt>
      <trkpt lat="48.88108" lon="2.04565">
        <ele>130.79</ele>
        <time>2022-09-25T12:39:12Z</time>
      </trkpt>
      <trkpt lat="48.8809" lon="2.04561">
        <ele>130.59</ele>
        <time>2022-09-25T12:39:28Z</time>
      </trkpt>
      <trkpt lat="48.8807" lon="2.04555">
        <ele>131.93</ele>
        <time>2022-09-25T12:39:46Z</time>
      </trkpt>
      <trkpt lat="48.88054" lon="2.04555">
        <ele>131.71</ele>
        <time>2022-09-25T12:40:01Z</time>
      </trkpt>
      <trkpt lat="48.88048" lon="2.04553">
        <ele>132.87</ele>
        <time>2022-09-25T12:40:11Z</time>
      </trkpt>
      <trkpt lat="48.88038" lon="2.04553">
        <ele>132.48</ele>
        <time>2022-09-25T12:40:25Z</time>
      </trkpt>
      <trkpt lat="48.88018" lon="2.04549">
        <ele>131.81</ele>
        <time>2022-09-25T12:40:43Z</time>
      </trkpt>
      <trkpt lat="48.87994" lon="2.04548">
        <ele>132.36</ele>
        <time>2022-09-25T12:41:04Z</time>
      </trkpt>
      <trkpt lat="48.87977" lon="2.04543">
        <ele>131.51</ele>
        <time>2022-09-25T12:41:19Z</time>
      </trkpt>
      <trkpt lat="48.87966" lon="2.04544">
        <ele>131.52</ele>
        <time>2022-09-25T12:41:30Z</time>
      </trkpt>
      <trkpt lat="48.87959" lon="2.04543">
        <ele>131.21</ele>
        <time>2022-09-25T12:41:48Z</time>
      </trkpt>
      <trkpt lat="48.87954" lon="2.04548">
        <ele>129.9</ele>
        <time>2022-09-25T12:42:12Z</time>
      </trkpt>
      <trkpt lat="48.87949" lon="2.04543">
        <ele>130.45</ele>
        <time>2022-09-25T12:42:28Z</time>
      </trkpt>
      <trkpt lat="48.87948" lon="2.04543">
        <ele>131.09</ele>
        <time>2022-09-25T12:42:47Z</time>
      </trkpt>
      <trkpt lat="48.87949" lon="2.04542">
        <ele>130.16</ele>
        <time>2022-09-25T12:43:11Z</time>
      </trkpt>
      <trkpt lat="48.87947" lon="2.04541">
        <ele>130.9</ele>
        <time>2022-09-25T12:43:31Z</time>
      </trkpt>
      <trkpt lat="48.87943" lon="2.04545">
        <ele>130.72</ele>
        <time>2022-09-25T12:43:56Z</time>
      </trkpt>
      <trkpt lat="48.8794" lon="2.04544">
        <ele>130.29</ele>
        <time>2022-09-25T12:44:19Z</time>
      </trkpt>
      <trkpt lat="48.87937" lon="2.04546">
        <ele>130.11</ele>
        <time>2022-09-25T12:44:36Z</time>
      </trkpt>
      <trkpt lat="48.87935" lon="2.04554">
        <ele>129.33</ele>
        <time>2022-09-25T12:44:52Z</time>
      </trkpt>
      <trkpt lat="48.87929" lon="2.04564">
        <ele>127.35</ele>
        <time>2022-09-25T12:45:12Z</time>
      </trkpt>
      <trkpt lat="48.87923" lon="2.04574">
        <ele>125</ele>
        <time>2022-09-25T12:45:26Z</time>
      </trkpt>
      <trkpt lat="48.8792" lon="2.04577">
        <ele>123.33</ele>
        <time>2022-09-25T12:45:34Z</time>
      </trkpt>
      <trkpt lat="48.87915" lon="2.04596">
        <ele>120.64</ele>
        <time>2022-09-25T12:45:51Z</time>
      </trkpt>
      <trkpt lat="48.87912" lon="2.04607">
        <ele>119.19</ele>
        <time>2022-09-25T12:46:02Z</time>
      </trkpt>
      <trkpt lat="48.87908" lon="2.04618">
        <ele>117.42</ele>
        <time>2022-09-25T12:46:11Z</time>
      </trkpt>
      <trkpt lat="48.87906" lon="2.04622">
        <ele>116.58</ele>
        <time>2022-09-25T12:46:15Z</time>
      </trkpt>
      <trkpt lat="48.87899" lon="2.04644">
        <ele>116.69</ele>
        <time>2022-09-25T12:46:29Z</time>
      </trkpt>
      <trkpt lat="48.87893" lon="2.04658">
        <ele>115.17</ele>
        <time>2022-09-25T12:46:40Z</time>
      </trkpt>
      <trkpt lat="48.87883" lon="2.04677">
        <ele>115.14</ele>
        <time>2022-09-25T12:46:51Z</time>
      </trkpt>
      <trkpt lat="48.87875" lon="2.04694">
        <ele>114.88</ele>
        <time>2022-09-25T12:47:04Z</time>
      </trkpt>
      <trkpt lat="48.87866" lon="2.04719">
        <ele>115.64</ele>
        <time>2022-09-25T12:47:23Z</time>
      </trkpt>
      <trkpt lat="48.8786" lon="2.04734">
        <ele>116.14</ele>
        <time>2022-09-25T12:47:37Z</time>
      </trkpt>
      <trkpt lat="48.87853" lon="2.04752">
        <ele>116.49</ele>
        <time>2022-09-25T12:47:52Z</time>
      </trkpt>
      <trkpt lat="48.87846" lon="2.04772">
        <ele>117.95</ele>
        <time>2022-09-25T12:48:07Z</time>
      </trkpt>
      <trkpt lat="48.87838" lon="2.0479">
        <ele>118.96</ele>
        <time>2022-09-25T12:48:25Z</time>
      </trkpt>
      <trkpt lat="48.8783" lon="2.04807">
        <ele>119.77</ele>
        <time>2022-09-25T12:48:40Z</time>
      </trkpt>
      <trkpt lat="48.87827" lon="2.0482">
        <ele>120.99</ele>
        <time>2022-09-25T12:48:55Z</time>
      </trkpt>
      <trkpt lat="48.87819" lon="2.04836">
        <ele>121.88</ele>
        <time>2022-09-25T12:49:14Z</time>
      </trkpt>
      <trkpt lat="48.87813" lon="2.04845">
        <ele>123.74</ele>
        <time>2022-09-25T12:49:26Z</time>
      </trkpt>
      <trkpt lat="48.8781" lon="2.04855">
        <ele>124.58</ele>
        <time>2022-09-25T12:49:38Z</time>
      </trkpt>
      <trkpt lat="48.87808" lon="2.04858">
        <ele>125.36</ele>
        <time>2022-09-25T12:49:50Z</time>
      </trkpt>
      <trkpt lat="48.87803" lon="2.04868">
        <ele>126.2</ele>
        <time>2022-09-25T12:50:04Z</time>
      </trkpt>
      <trkpt lat="48.87802" lon="2.04875">
        <ele>127.59</ele>
        <time>2022-09-25T12:50:11Z</time>
      </trkpt>
      <trkpt lat="48.87802" lon="2.04879">
        <ele>128.57</ele>
        <time>2022-09-25T12:50:14Z</time>
      </trkpt>
      <trkpt lat="48.87798" lon="2.04888">
        <ele>130.7</ele>
        <time>2022-09-25T12:50:29Z</time>
      </trkpt>
      <trkpt lat="48.87796" lon="2.0489">
        <ele>130.13</ele>
        <time>2022-09-25T12:50:48Z</time>
      </trkpt>
      <trkpt lat="48.87797" lon="2.04891">
        <ele>130.28</ele>
        <time>2022-09-25T12:50:50Z</time>
      </trkpt>
      <trkpt lat="48.87791" lon="2.04903">
        <ele>131.7</ele>
        <time>2022-09-25T12:51:01Z</time>
      </trkpt>
      <trkpt lat="48.8779" lon="2.04906">
        <ele>131.66</ele>
        <time>2022-09-25T12:51:04Z</time>
      </trkpt>
      <trkpt lat="48.87785" lon="2.04912">
        <ele>132.61</ele>
        <time>2022-09-25T12:51:12Z</time>
      </trkpt>
      <trkpt lat="48.87778" lon="2.04924">
        <ele>133.19</ele>
        <time>2022-09-25T12:51:25Z</time>
      </trkpt>
      <trkpt lat="48.87777" lon="2.04926">
        <ele>134.26</ele>
        <time>2022-09-25T12:51:28Z</time>
      </trkpt>
      <trkpt lat="48.87778" lon="2.0493">
        <ele>134.1</ele>
        <time>2022-09-25T12:51:32Z</time>
      </trkpt>
      <trkpt lat="48.87775" lon="2.04934">
        <ele>134.87</ele>
        <time>2022-09-25T12:51:38Z</time>
      </trkpt>
      <trkpt lat="48.87769" lon="2.04949">
        <ele>137.19</ele>
        <time>2022-09-25T12:51:58Z</time>
      </trkpt>
      <trkpt lat="48.87766" lon="2.04958">
        <ele>138.56</ele>
        <time>2022-09-25T12:52:11Z</time>
      </trkpt>
      <trkpt lat="48.87761" lon="2.04968">
        <ele>139.47</ele>
        <time>2022-09-25T12:52:20Z</time>
      </trkpt>
      <trkpt lat="48.87758" lon="2.04973">
        <ele>139.81</ele>
        <time>2022-09-25T12:52:27Z</time>
      </trkpt>
      <trkpt lat="48.87755" lon="2.04981">
        <ele>140.48</ele>
        <time>2022-09-25T12:52:33Z</time>
      </trkpt>
      <trkpt lat="48.87749" lon="2.04998">
        <ele>141.69</ele>
        <time>2022-09-25T12:52:47Z</time>
      </trkpt>
      <trkpt lat="48.87746" lon="2.05006">
        <ele>141.7</ele>
        <time>2022-09-25T12:52:55Z</time>
      </trkpt>
      <trkpt lat="48.87744" lon="2.05014">
        <ele>142.5</ele>
        <time>2022-09-25T12:53:01Z</time>
      </trkpt>
      <trkpt lat="48.87733" lon="2.05037">
        <ele>143.4</ele>
        <time>2022-09-25T12:53:17Z</time>
      </trkpt>
      <trkpt lat="48.87722" lon="2.05053">
        <ele>143.71</ele>
        <time>2022-09-25T12:53:34Z</time>
      </trkpt>
      <trkpt lat="48.87714" lon="2.05067">
        <ele>144.92</ele>
        <time>2022-09-25T12:53:47Z</time>
      </trkpt>
      <trkpt lat="48.87715" lon="2.05076">
        <ele>144.82</ele>
        <time>2022-09-25T12:54:03Z</time>
      </trkpt>
      <trkpt lat="48.87712" lon="2.05075">
        <ele>144.94</ele>
        <time>2022-09-25T12:54:21Z</time>
      </trkpt>
      <trkpt lat="48.87716" lon="2.05072">
        <ele>144.86</ele>
        <time>2022-09-25T12:54:42Z</time>
      </trkpt>
      <trkpt lat="48.87713" lon="2.05077">
        <ele>144.65</ele>
        <time>2022-09-25T12:55:02Z</time>
      </trkpt>
      <trkpt lat="48.87713" lon="2.0508">
        <ele>144.71</ele>
        <time>2022-09-25T12:55:19Z</time>
      </trkpt>
      <trkpt lat="48.87714" lon="2.05079">
        <ele>144.55</ele>
        <time>2022-09-25T12:55:36Z</time>
      </trkpt>
      <trkpt lat="48.87712" lon="2.05077">
        <ele>144.65</ele>
        <time>2022-09-25T12:55:52Z</time>
      </trkpt>
      <trkpt lat="48.87714" lon="2.05077">
        <ele>144.88</ele>
        <time>2022-09-25T12:56:07Z</time>
      </trkpt>
      <trkpt lat="48.87715" lon="2.05084">
        <ele>145.33</ele>
        <time>2022-09-25T12:56:24Z</time>
      </trkpt>
      <trkpt lat="48.87713" lon="2.05082">
        <ele>144.77</ele>
        <time>2022-09-25T12:56:45Z</time>
      </trkpt>
      <trkpt lat="48.87713" lon="2.05084">
        <ele>144.52</ele>
        <time>2022-09-25T12:57:05Z</time>
      </trkpt>
      <trkpt lat="48.87713" lon="2.05085">
        <ele>144.4</ele>
        <time>2022-09-25T12:57:06Z</time>
      </trkpt>
      <trkpt lat="48.87699" lon="2.05091">
        <ele>144.63</ele>
        <time>2022-09-25T12:57:17Z</time>
      </trkpt>
      <trkpt lat="48.8769" lon="2.05095">
        <ele>145.16</ele>
        <time>2022-09-25T12:57:30Z</time>
      </trkpt>
      <trkpt lat="48.87678" lon="2.05099">
        <ele>146</ele>
        <time>2022-09-25T12:57:46Z</time>
      </trkpt>
      <trkpt lat="48.87661" lon="2.05104">
        <ele>146.62</ele>
        <time>2022-09-25T12:58:02Z</time>
      </trkpt>
      <trkpt lat="48.87641" lon="2.05106">
        <ele>147.13</ele>
        <time>2022-09-25T12:58:21Z</time>
      </trkpt>
      <trkpt lat="48.87623" lon="2.0511">
        <ele>147.65</ele>
        <time>2022-09-25T12:58:37Z</time>
      </trkpt>
      <trkpt lat="48.87612" lon="2.05111">
        <ele>147.76</ele>
        <time>2022-09-25T12:58:48Z</time>
      </trkpt>
      <trkpt lat="48.87596" lon="2.05117">
        <ele>147.86</ele>
        <time>2022-09-25T12:59:03Z</time>
      </trkpt>
      <trkpt lat="48.87575" lon="2.05118">
        <ele>148.39</ele>
        <time>2022-09-25T12:59:20Z</time>
      </trkpt>
      <trkpt lat="48.87559" lon="2.05118">
        <ele>147.98</ele>
        <time>2022-09-25T12:59:38Z</time>
      </trkpt>
      <trkpt lat="48.87545" lon="2.05121">
        <ele>148.13</ele>
        <time>2022-09-25T12:59:53Z</time>
      </trkpt>
      <trkpt lat="48.87526" lon="2.05126">
        <ele>148.42</ele>
        <time>2022-09-25T13:00:09Z</time>
      </trkpt>
      <trkpt lat="48.87514" lon="2.05128">
        <ele>148.76</ele>
        <time>2022-09-25T13:00:21Z</time>
      </trkpt>
      <trkpt lat="48.87498" lon="2.05131">
        <ele>148.44</ele>
        <time>2022-09-25T13:00:36Z</time>
      </trkpt>
      <trkpt lat="48.8748" lon="2.05134">
        <ele>148.76</ele>
        <time>2022-09-25T13:00:50Z</time>
      </trkpt>
      <trkpt lat="48.87464" lon="2.05136">
        <ele>148.5</ele>
        <time>2022-09-25T13:01:01Z</time>
      </trkpt>
      <trkpt lat="48.87456" lon="2.05137">
        <ele>148.09</ele>
        <time>2022-09-25T13:01:15Z</time>
      </trkpt>
      <trkpt lat="48.87441" lon="2.05141">
        <ele>147.77</ele>
        <time>2022-09-25T13:01:34Z</time>
      </trkpt>
      <trkpt lat="48.87428" lon="2.05144">
        <ele>147.41</ele>
        <time>2022-09-25T13:01:49Z</time>
      </trkpt>
      <trkpt lat="48.87415" lon="2.05146">
        <ele>147.46</ele>
        <time>2022-09-25T13:02:03Z</time>
      </trkpt>
      <trkpt lat="48.87402" lon="2.05148">
        <ele>147.19</ele>
        <time>2022-09-25T13:02:13Z</time>
      </trkpt>
      <trkpt lat="48.87387" lon="2.05151">
        <ele>146.94</ele>
        <time>2022-09-25T13:02:25Z</time>
      </trkpt>
      <trkpt lat="48.87383" lon="2.05152">
        <ele>146.56</ele>
        <time>2022-09-25T13:02:30Z</time>
      </trkpt>
      <trkpt lat="48.87367" lon="2.05152">
        <ele>146.13</ele>
        <time>2022-09-25T13:02:44Z</time>
      </trkpt>
      <trkpt lat="48.87356" lon="2.05155">
        <ele>144.8</ele>
        <time>2022-09-25T13:02:56Z</time>
      </trkpt>
      <trkpt lat="48.87341" lon="2.05158">
        <ele>144.73</ele>
        <time>2022-09-25T13:03:10Z</time>
      </trkpt>
      <trkpt lat="48.87325" lon="2.05163">
        <ele>142.81</ele>
        <time>2022-09-25T13:03:25Z</time>
      </trkpt>
      <trkpt lat="48.87311" lon="2.05164">
        <ele>140.69</ele>
        <time>2022-09-25T13:03:39Z</time>
      </trkpt>
      <trkpt lat="48.87295" lon="2.05167">
        <ele>137.62</ele>
        <time>2022-09-25T13:03:56Z</time>
      </trkpt>
      <trkpt lat="48.8728" lon="2.05174">
        <ele>134.26</ele>
        <time>2022-09-25T13:04:15Z</time>
      </trkpt>
      <trkpt lat="48.87261" lon="2.05174">
        <ele>131.65</ele>
        <time>2022-09-25T13:04:30Z</time>
      </trkpt>
      <trkpt lat="48.87247" lon="2.05176">
        <ele>128.85</ele>
        <time>2022-09-25T13:04:44Z</time>
      </trkpt>
      <trkpt lat="48.87232" lon="2.05176">
        <ele>125.82</ele>
        <time>2022-09-25T13:04:58Z</time>
      </trkpt>
      <trkpt lat="48.87218" lon="2.05176">
        <ele>123.99</ele>
        <time>2022-09-25T13:05:10Z</time>
      </trkpt>
      <trkpt lat="48.87212" lon="2.05177">
        <ele>122.31</ele>
        <time>2022-09-25T13:05:16Z</time>
      </trkpt>
      <trkpt lat="48.87199" lon="2.05181">
        <ele>119.15</ele>
        <time>2022-09-25T13:05:29Z</time>
      </trkpt>
      <trkpt lat="48.87183" lon="2.05186">
        <ele>115.72</ele>
        <time>2022-09-25T13:05:44Z</time>
      </trkpt>
      <trkpt lat="48.87171" lon="2.05186">
        <ele>113.07</ele>
        <time>2022-09-25T13:05:59Z</time>
      </trkpt>
      <trkpt lat="48.87155" lon="2.05184">
        <ele>109.97</ele>
        <time>2022-09-25T13:06:12Z</time>
      </trkpt>
      <trkpt lat="48.87138" lon="2.05185">
        <ele>107.86</ele>
        <time>2022-09-25T13:06:27Z</time>
      </trkpt>
      <trkpt lat="48.87127" lon="2.05175">
        <ele>106.73</ele>
        <time>2022-09-25T13:06:41Z</time>
      </trkpt>
      <trkpt lat="48.87123" lon="2.05165">
        <ele>106.77</ele>
        <time>2022-09-25T13:06:55Z</time>
      </trkpt>
      <trkpt lat="48.87118" lon="2.05158">
        <ele>105.55</ele>
        <time>2022-09-25T13:07:14Z</time>
      </trkpt>
      <trkpt lat="48.87117" lon="2.05145">
        <ele>106.04</ele>
        <time>2022-09-25T13:07:28Z</time>
      </trkpt>
      <trkpt lat="48.87109" lon="2.05125">
        <ele>106.04</ele>
        <time>2022-09-25T13:07:44Z</time>
      </trkpt>
      <trkpt lat="48.87102" lon="2.05111">
        <ele>104.34</ele>
        <time>2022-09-25T13:07:59Z</time>
      </trkpt>
      <trkpt lat="48.87099" lon="2.05086">
        <ele>103</ele>
        <time>2022-09-25T13:08:17Z</time>
      </trkpt>
      <trkpt lat="48.87094" lon="2.0506">
        <ele>102.61</ele>
        <time>2022-09-25T13:08:31Z</time>
      </trkpt>
      <trkpt lat="48.87079" lon="2.0503">
        <ele>103.22</ele>
        <time>2022-09-25T13:08:48Z</time>
      </trkpt>
      <trkpt lat="48.87068" lon="2.0502">
        <ele>103.17</ele>
        <time>2022-09-25T13:08:56Z</time>
      </trkpt>
      <trkpt lat="48.87058" lon="2.05014">
        <ele>102.99</ele>
        <time>2022-09-25T13:09:04Z</time>
      </trkpt>
      <trkpt lat="48.87053" lon="2.05014">
        <ele>103.48</ele>
        <time>2022-09-25T13:09:09Z</time>
      </trkpt>
      <trkpt lat="48.87037" lon="2.05003">
        <ele>103.59</ele>
        <time>2022-09-25T13:09:25Z</time>
      </trkpt>
      <trkpt lat="48.87031" lon="2.05001">
        <ele>103.55</ele>
        <time>2022-09-25T13:09:29Z</time>
      </trkpt>
      <trkpt lat="48.87019" lon="2.04997">
        <ele>102.54</ele>
        <time>2022-09-25T13:09:40Z</time>
      </trkpt>
      <trkpt lat="48.87008" lon="2.04994">
        <ele>100.25</ele>
        <time>2022-09-25T13:09:54Z</time>
      </trkpt>
      <trkpt lat="48.86999" lon="2.04996">
        <ele>97.72</ele>
        <time>2022-09-25T13:10:09Z</time>
      </trkpt>
      <trkpt lat="48.86981" lon="2.04998">
        <ele>96.15</ele>
        <time>2022-09-25T13:10:23Z</time>
      </trkpt>
      <trkpt lat="48.86967" lon="2.04994">
        <ele>93.92</ele>
        <time>2022-09-25T13:10:37Z</time>
      </trkpt>
      <trkpt lat="48.86946" lon="2.04984">
        <ele>92.97</ele>
        <time>2022-09-25T13:10:53Z</time>
      </trkpt>
      <trkpt lat="48.86939" lon="2.04979">
        <ele>89.43</ele>
        <time>2022-09-25T13:10:59Z</time>
      </trkpt>
      <trkpt lat="48.86938" lon="2.04978">
        <ele>89.44</ele>
        <time>2022-09-25T13:11:00Z</time>
      </trkpt>
      <trkpt lat="48.86924" lon="2.04966">
        <ele>90.58</ele>
        <time>2022-09-25T13:11:18Z</time>
      </trkpt>
      <trkpt lat="48.86909" lon="2.04952">
        <ele>90.76</ele>
        <time>2022-09-25T13:11:35Z</time>
      </trkpt>
      <trkpt lat="48.86892" lon="2.04944">
        <ele>92.24</ele>
        <time>2022-09-25T13:11:51Z</time>
      </trkpt>
      <trkpt lat="48.86877" lon="2.04949">
        <ele>92.58</ele>
        <time>2022-09-25T13:12:09Z</time>
      </trkpt>
      <trkpt lat="48.86876" lon="2.0495">
        <ele>91.68</ele>
        <time>2022-09-25T13:12:14Z</time>
      </trkpt>
      <trkpt lat="48.86861" lon="2.04954">
        <ele>91.98</ele>
        <time>2022-09-25T13:12:27Z</time>
      </trkpt>
      <trkpt lat="48.86857" lon="2.04957">
        <ele>92.39</ele>
        <time>2022-09-25T13:12:32Z</time>
      </trkpt>
      <trkpt lat="48.86851" lon="2.04963">
        <ele>93.3</ele>
        <time>2022-09-25T13:12:37Z</time>
      </trkpt>
      <trkpt lat="48.86842" lon="2.04971">
        <ele>93.97</ele>
        <time>2022-09-25T13:12:48Z</time>
      </trkpt>
      <trkpt lat="48.86837" lon="2.04976">
        <ele>93.44</ele>
        <time>2022-09-25T13:13:01Z</time>
      </trkpt>
      <trkpt lat="48.86823" lon="2.04986">
        <ele>93.53</ele>
        <time>2022-09-25T13:13:17Z</time>
      </trkpt>
      <trkpt lat="48.86814" lon="2.04991">
        <ele>94.79</ele>
        <time>2022-09-25T13:13:30Z</time>
      </trkpt>
      <trkpt lat="48.86802" lon="2.05003">
        <ele>95.58</ele>
        <time>2022-09-25T13:13:45Z</time>
      </trkpt>
      <trkpt lat="48.86783" lon="2.05015">
        <ele>96.87</ele>
        <time>2022-09-25T13:14:03Z</time>
      </trkpt>
      <trkpt lat="48.86768" lon="2.05028">
        <ele>97.65</ele>
        <time>2022-09-25T13:14:20Z</time>
      </trkpt>
      <trkpt lat="48.86753" lon="2.05036">
        <ele>99.85</ele>
        <time>2022-09-25T13:14:36Z</time>
      </trkpt>
      <trkpt lat="48.86745" lon="2.05037">
        <ele>100.18</ele>
        <time>2022-09-25T13:14:43Z</time>
      </trkpt>
      <trkpt lat="48.86732" lon="2.05038">
        <ele>101.13</ele>
        <time>2022-09-25T13:14:56Z</time>
      </trkpt>
      <trkpt lat="48.8673" lon="2.05038">
        <ele>101.2</ele>
        <time>2022-09-25T13:14:58Z</time>
      </trkpt>
      <trkpt lat="48.86713" lon="2.05041">
        <ele>102.4</ele>
        <time>2022-09-25T13:15:13Z</time>
      </trkpt>
      <trkpt lat="48.8671" lon="2.05041">
        <ele>101.96</ele>
        <time>2022-09-25T13:15:15Z</time>
      </trkpt>
      <trkpt lat="48.86701" lon="2.05038">
        <ele>102.48</ele>
        <time>2022-09-25T13:15:22Z</time>
      </trkpt>
      <trkpt lat="48.86693" lon="2.0503">
        <ele>104.29</ele>
        <time>2022-09-25T13:15:35Z</time>
      </trkpt>
      <trkpt lat="48.86689" lon="2.05025">
        <ele>105.22</ele>
        <time>2022-09-25T13:15:45Z</time>
      </trkpt>
      <trkpt lat="48.86688" lon="2.05026">
        <ele>104.86</ele>
        <time>2022-09-25T13:16:02Z</time>
      </trkpt>
      <trkpt lat="48.86682" lon="2.05024">
        <ele>106.18</ele>
        <time>2022-09-25T13:16:15Z</time>
      </trkpt>
      <trkpt lat="48.86674" lon="2.05031">
        <ele>106.12</ele>
        <time>2022-09-25T13:16:25Z</time>
      </trkpt>
      <trkpt lat="48.86673" lon="2.05059">
        <ele>107.01</ele>
        <time>2022-09-25T13:16:44Z</time>
      </trkpt>
      <trkpt lat="48.86671" lon="2.05076">
        <ele>106.57</ele>
        <time>2022-09-25T13:17:01Z</time>
      </trkpt>
      <trkpt lat="48.86675" lon="2.05089">
        <ele>104.42</ele>
        <time>2022-09-25T13:17:17Z</time>
      </trkpt>
      <trkpt lat="48.8668" lon="2.05091">
        <ele>103.89</ele>
        <time>2022-09-25T13:17:32Z</time>
      </trkpt>
      <trkpt lat="48.8669" lon="2.05086">
        <ele>103.49</ele>
        <time>2022-09-25T13:17:43Z</time>
      </trkpt>
      <trkpt lat="48.86697" lon="2.05084">
        <ele>103.14</ele>
        <time>2022-09-25T13:17:51Z</time>
      </trkpt>
      <trkpt lat="48.86704" lon="2.05083">
        <ele>102.87</ele>
        <time>2022-09-25T13:17:54Z</time>
      </trkpt>
      <trkpt lat="48.86707" lon="2.05084">
        <ele>102.78</ele>
        <time>2022-09-25T13:17:57Z</time>
      </trkpt>
      <trkpt lat="48.86721" lon="2.05087">
        <ele>101.92</ele>
        <time>2022-09-25T13:18:13Z</time>
      </trkpt>
      <trkpt lat="48.86738" lon="2.05085">
        <ele>100.68</ele>
        <time>2022-09-25T13:18:27Z</time>
      </trkpt>
      <trkpt lat="48.8674" lon="2.05084">
        <ele>99.71</ele>
        <time>2022-09-25T13:18:29Z</time>
      </trkpt>
      <trkpt lat="48.86744" lon="2.05084">
        <ele>99.94</ele>
        <time>2022-09-25T13:18:34Z</time>
      </trkpt>
    </trkseg>
  </trk>
</gpx>